W64306 / HA-LYR 7700 Squawk Report (1st of April, 2020)

Aircraft A320 Reg No. HA-LYR Age 5 years old
Model A320 Jet engines 2 First flight 27-05-15
Registered 16-06-15 Rollout 05-15 Delivered 16-06-15
Construction No. 6631 Line No. N/A Series 232(SL)
ADSHEX 471F8D Airline name Wizz Air Owner N/A
Airfield based Budapest-Ferihegy~Pest~HA First tracked N/A

Flight history for HA-LYR

Route Flight No Date Playback
Lisbon (LIS) - Sofia (SOF) W64374 2020-05-30 19:17:00
Sofia (SOF) - Lisbon (LIS) W64373 2020-05-30 14:44:00
Luton (LTN) - Sofia (SOF) W64304 2020-05-29 23:40:00
Varna (VAR) - Luton (LTN) W61678 2020-05-29 19:39:00
???? N/A 2020-05-28 18:25:00
Varna (VAR) - Dortmund (DTM) W64509 2020-05-28 15:57:00
Luton (LTN) - Varna (VAR) N/A 2020-05-27 23:43:00
Sofia (SOF) - Luton (LTN) W64303 2020-05-27 20:00:00
Dortmund (DTM) - Sofia (SOF) W64332 2020-05-27 16:51:00
Sofia (SOF) - Dortmund (DTM) W64331 2020-05-27 07:55:00
Allgau (FMM) - Sofia (SOF) W64340 2020-05-26 16:00:00
???? N/A 2020-05-26 14:27:00
Luton (LTN) - Sofia (SOF) W64304 2020-05-25 23:32:00
Sofia (SOF) - Luton (LTN) W64303 2020-05-25 19:52:00
Luton (LTN) - Sofia (SOF) W64306 2020-05-25 15:33:00
Sofia (SOF) - Luton (LTN) W64305 2020-05-25 11:50:00
Luton (LTN) - Sofia (SOF) W64306 2020-05-24 15:15:00
Sofia (SOF) - Luton (LTN) W64305 2020-05-24 12:36:00
Lisbon (LIS) - Sofia (SOF) W64374 2020-05-23 18:47:00
Sofia (SOF) - Lisbon (LIS) W64373 2020-05-23 15:14:00
Time Lat Lon Altitude Heading Speed Vertical Rate
2020-04-01 16:18:43 GMT 42.691242 23.400335 0 194 0 0
2020-04-01 16:18:30 GMT 42.691235 23.400333 0 194 0 0
2020-04-01 16:18:20 GMT 42.691380 23.400400 0 196 7 0
2020-04-01 16:18:10 GMT 42.691750 23.400520 0 199 9 0
2020-04-01 16:18:00 GMT 42.691990 23.400848 0 286 13 0
2020-04-01 16:17:49 GMT 42.691788 23.401773 0 286 15 0
2020-04-01 16:17:40 GMT 42.691612 23.402573 0 286 12 0
2020-04-01 16:17:29 GMT 42.691521 23.403267 0 225 11 0
2020-04-01 16:17:18 GMT 42.692139 23.403658 0 196 19 0
2020-04-01 16:17:09 GMT 42.692837 23.403954 0 196 19 0
2020-04-01 16:16:58 GMT 42.693695 23.404297 0 196 16 0
2020-04-01 16:16:49 GMT 42.694279 23.404535 0 196 14 0
2020-04-01 16:16:37 GMT 42.694908 23.404779 0 196 11 0
2020-04-01 16:16:28 GMT 42.695286 23.405092 0 270 12 0
2020-04-01 16:16:18 GMT 42.695232 23.406101 0 275 22 0
2020-04-01 16:16:08 GMT 42.695141 23.407618 0 275 29 0
2020-04-01 16:15:58 GMT 42.695038 23.409327 0 272 27 0
2020-04-01 16:15:47 GMT 42.694931 23.411083 0 275 25 0
2020-04-01 16:15:38 GMT 42.694851 23.412489 0 275 23 0
2020-04-01 16:15:28 GMT 42.694767 23.413845 0 272 21 0
2020-04-01 16:15:17 GMT 42.694687 23.415203 0 272 26 0
2020-04-01 16:15:07 GMT 42.694576 23.416952 0 275 30 0
2020-04-01 16:14:57 GMT 42.694473 23.418779 0 275 28 0
2020-04-01 16:14:47 GMT 42.694370 23.420456 0 275 26 0
2020-04-01 16:14:37 GMT 42.694279 23.422041 0 275 24 0
2020-04-01 16:14:23 GMT 42.694164 23.423952 0 275 21 0
2020-04-01 16:14:14 GMT 42.694092 23.425039 0 275 18 0
2020-04-01 16:14:06 GMT 42.694050 23.425896 0 272 16 0
2020-04-01 16:13:56 GMT 42.693989 23.426796 0 264 14 0
2020-04-01 16:13:44 GMT 42.694370 23.427546 0 182 14 0
2020-04-01 16:13:36 GMT 42.694874 23.427315 0 126 16 0
2020-04-01 16:13:26 GMT 42.695297 23.426489 0 120 19 0
2020-04-01 16:13:16 GMT 42.695770 23.425280 0 109 26 0
2020-04-01 16:13:06 GMT 42.696064 23.423647 0 95 27 0
2020-04-01 16:12:55 GMT 42.696201 23.421789 0 95 31 0
2020-04-01 16:12:45 GMT 42.696316 23.419769 0 95 43 0
2020-04-01 16:12:35 GMT 42.696510 23.416609 0 95 63 0
2020-04-01 16:12:24 GMT 42.696808 23.411739 0 95 92 0
2020-04-01 16:12:15 GMT 42.697174 23.405312 1,675 94 124 -64
2020-04-01 16:12:04 GMT 42.697666 23.397366 1,775 95 124 -640
2020-04-01 16:11:54 GMT 42.698132 23.389637 1,875 93 124 -768
2020-04-01 16:11:50 GMT 42.698318 23.386522 1,950 94 123 -640
2020-04-01 16:11:44 GMT 42.698597 23.381908 2,000 94 123 -640
2020-04-01 16:11:34 GMT 42.699062 23.373859 2,125 94 123 -704
2020-04-01 16:11:24 GMT 42.699528 23.366386 2,250 94 122 -704
2020-04-01 16:11:19 GMT 42.699760 23.361980 2,300 94 122 -704
2020-04-01 16:11:14 GMT 42.699993 23.358212 2,350 94 121 -640
2020-04-01 16:11:04 GMT 42.700413 23.350611 2,475 94 122 -704
2020-04-01 16:10:54 GMT 42.700878 23.343010 2,600 94 121 -704
2020-04-01 16:10:43 GMT 42.701385 23.334961 2,725 94 122 -768
2020-04-01 16:10:33 GMT 42.701843 23.326908 2,850 94 121 -576
2020-04-01 16:10:23 GMT 42.702255 23.319731 2,925 94 121 -576
2020-04-01 16:10:13 GMT 42.702667 23.312178 3,025 94 122 -704
2020-04-01 16:10:03 GMT 42.703114 23.304300 3,175 95 123 -896
2020-04-01 16:09:52 GMT 42.703674 23.296259 3,325 95 121 -640
2020-04-01 16:09:43 GMT 42.704090 23.288715 3,425 94 122 -704
2020-04-01 16:09:32 GMT 42.704544 23.280779 3,525 94 125 -768
2020-04-01 16:09:22 GMT 42.705048 23.272852 3,650 94 126 -704
2020-04-01 16:09:11 GMT 42.705643 23.264174 3,775 96 128 -704
2020-04-01 16:09:02 GMT 42.706280 23.256716 3,900 98 127 -576
2020-04-01 16:08:52 GMT 42.707256 23.248539 3,950 100 125 64
2020-04-01 16:08:46 GMT 42.707909 23.243940 3,950 101 125 0
2020-04-01 16:08:42 GMT 42.708389 23.240953 3,950 103 124 -64
2020-04-01 16:08:38 GMT 42.708939 23.237957 3,950 105 124 0
2020-04-01 16:08:31 GMT 42.710175 23.233213 3,950 120 125 0
2020-04-01 16:08:28 GMT 42.711411 23.230528 3,950 125 126 0
2020-04-01 16:08:21 GMT 42.713821 23.227015 3,950 137 131 -64
2020-04-01 16:08:16 GMT 42.716103 23.224140 3,950 137 147 -128
2020-04-01 16:08:11 GMT 42.718800 23.220818 3,950 137 139 -64
2020-04-01 16:08:01 GMT 42.723450 23.214985 3,975 137 149 -128
2020-04-01 16:07:51 GMT 42.728806 23.208305 3,975 137 159 192
2020-04-01 16:07:41 GMT 42.734303 23.201273 3,950 136 167 0
2020-04-01 16:07:38 GMT 42.735718 23.199442 3,950 136 166 0
2020-04-01 16:07:31 GMT 42.739887 23.194118 3,950 136 167 0
2020-04-01 16:07:28 GMT 42.741753 23.191755 3,950 136 167 0
2020-04-01 16:07:18 GMT 42.747524 23.184345 3,950 136 169 0
2020-04-01 16:07:10 GMT 42.751621 23.179173 3,950 136 174 -64
2020-04-01 16:07:07 GMT 42.753891 23.176346 3,950 137 177 0
2020-04-01 16:07:00 GMT 42.757717 23.171444 3,950 137 181 0
2020-04-01 16:06:57 GMT 42.759487 23.169144 3,950 136 184 -64
2020-04-01 16:06:48 GMT 42.765587 23.161480 3,975 136 193 -384
2020-04-01 16:06:37 GMT 42.772755 23.152346 4,075 136 198 -512
2020-04-01 16:06:24 GMT 42.781693 23.140976 4,175 137 200 -512
2020-04-01 16:06:19 GMT 42.784626 23.137335 4,225 137 205 -512
2020-04-01 16:06:09 GMT 42.791607 23.128519 4,300 137 211 -512
2020-04-01 16:06:04 GMT 42.795502 23.123661 4,350 137 213 -576
2020-04-01 16:05:55 GMT 42.801991 23.115490 4,425 137 216 -576
2020-04-01 16:05:47 GMT 42.808369 23.107443 4,525 137 221 -640
2020-04-01 16:05:39 GMT 42.814087 23.100288 4,600 137 225 -576
2020-04-01 16:05:29 GMT 42.821960 23.090324 4,700 136 231 -704
2020-04-01 16:05:26 GMT 42.823929 23.087831 4,725 136 231 -704
2020-04-01 16:05:19 GMT 42.829971 23.080231 4,825 137 234 -1024
2020-04-01 16:05:16 GMT 42.831940 23.077677 4,875 136 235 -1024
2020-04-01 16:05:06 GMT 42.840397 23.066908 5,050 136 239 -1088
2020-04-01 16:04:58 GMT 42.846214 23.059452 5,175 136 241 -1152
2020-04-01 16:04:48 GMT 42.854546 23.048794 5,375 136 243 -1536
2020-04-01 16:04:38 GMT 42.862564 23.038395 5,675 136 243 -1600
2020-04-01 16:04:28 GMT 42.871033 23.027409 6,025 136 236 -2816
2020-04-01 16:04:24 GMT 42.874332 23.023224 6,225 137 233 -2304
2020-04-01 16:04:18 GMT 42.879173 23.017012 6,475 137 233 -2112
2020-04-01 16:04:08 GMT 42.886963 23.007286 6,800 137 238 -1344
2020-04-01 16:03:57 GMT 42.895615 22.996302 7,025 137 245 -1472
2020-04-01 16:03:50 GMT 42.902344 22.987806 7,175 137 252 -768
2020-04-01 16:03:45 GMT 42.906418 22.982697 7,225 136 256 -384
2020-04-01 16:03:32 GMT 42.917206 22.968815 7,325 136 268 -1408
2020-04-01 16:03:23 GMT 42.925819 22.957764 7,525 136 268 -1472
2020-04-01 16:03:13 GMT 42.934616 22.946581 7,800 137 267 -1664
2020-04-01 16:03:04 GMT 42.943134 22.935856 8,100 137 266 -2048
2020-04-01 16:02:53 GMT 42.952633 22.923889 8,400 136 265 -1664
2020-04-01 16:02:45 GMT 42.960827 22.913425 8,650 137 266 -1600
2020-04-01 16:02:34 GMT 42.969910 22.901896 8,925 136 266 -1536
2020-04-01 16:02:24 GMT 42.979027 22.890276 9,225 136 265 -1920
2020-04-01 16:02:12 GMT 42.989594 22.876804 9,575 136 263 -1600
2020-04-01 16:02:08 GMT 42.992901 22.872555 9,675 136 263 -1472
2020-04-01 16:02:00 GMT 43.000256 22.863136 9,850 136 262 -832
2020-04-01 16:01:53 GMT 43.006306 22.855421 9,900 136 262 0
2020-04-01 16:01:50 GMT 43.008957 22.851946 9,900 136 263 0
2020-04-01 16:01:40 GMT 43.017990 22.840248 9,900 136 263 0
2020-04-01 16:01:35 GMT 43.022095 22.834955 9,900 136 265 64
2020-04-01 16:01:30 GMT 43.026745 22.828936 9,900 136 267 0
2020-04-01 16:01:25 GMT 43.031067 22.823330 9,900 136 270 0
2020-04-01 16:01:20 GMT 43.036102 22.816837 9,900 136 270 64
2020-04-01 16:01:09 GMT 43.045715 22.804550 9,900 136 272 0
2020-04-01 16:00:59 GMT 43.054813 22.792904 9,900 136 273 0
2020-04-01 16:00:49 GMT 43.064034 22.781067 9,900 136 271 0
2020-04-01 16:00:39 GMT 43.073341 22.769033 9,900 136 270 -64
2020-04-01 16:00:32 GMT 43.080048 22.760403 9,900 136 269 -64
2020-04-01 16:00:29 GMT 43.082466 22.757263 9,900 136 269 0
2020-04-01 16:00:19 GMT 43.091537 22.745531 9,900 136 268 0
2020-04-01 16:00:09 GMT 43.100620 22.733786 9,900 136 268 0
2020-04-01 15:59:57 GMT 43.111542 22.719664 9,900 136 268 -64
2020-04-01 15:59:48 GMT 43.119335 22.709656 9,900 136 264 0
2020-04-01 15:59:38 GMT 43.128460 22.698015 9,900 137 260 64
2020-04-01 15:59:28 GMT 43.136902 22.687279 9,900 137 261 64
2020-04-01 15:59:18 GMT 43.145828 22.675909 9,900 136 260 64
2020-04-01 15:59:08 GMT 43.154617 22.664602 9,900 136 258 0
2020-04-01 15:58:58 GMT 43.163422 22.653219 9,900 136 256 128
2020-04-01 15:58:48 GMT 43.172127 22.642038 9,900 136 254 0
2020-04-01 15:58:37 GMT 43.181252 22.630201 9,900 136 256 0
2020-04-01 15:58:27 GMT 43.189545 22.619509 9,900 136 256 0
2020-04-01 15:58:17 GMT 43.198521 22.607901 9,900 136 256 0
2020-04-01 15:58:07 GMT 43.207123 22.596704 9,900 136 257 0
2020-04-01 15:57:57 GMT 43.216095 22.585144 9,900 136 258 0
2020-04-01 15:57:46 GMT 43.225056 22.573503 9,900 136 260 0
2020-04-01 15:57:31 GMT 43.238571 22.556017 9,900 136 260 0
2020-04-01 15:57:19 GMT 43.248520 22.543161 9,900 136 259 0
2020-04-01 15:57:16 GMT 43.251251 22.539602 9,900 136 258 0
2020-04-01 15:57:06 GMT 43.260017 22.528316 9,900 136 257 64
2020-04-01 15:56:55 GMT 43.270027 22.515432 9,900 136 256 64
2020-04-01 15:56:46 GMT 43.277660 22.505625 9,875 136 256 64
2020-04-01 15:56:34 GMT 43.287781 22.492592 9,875 136 258 64
2020-04-01 15:56:25 GMT 43.296047 22.481951 9,875 136 259 -64
2020-04-01 15:56:13 GMT 43.306664 22.468218 9,900 136 259 64
2020-04-01 15:56:04 GMT 43.314148 22.458418 9,900 136 266 0
2020-04-01 15:55:54 GMT 43.323326 22.446377 9,900 136 278 64
2020-04-01 15:55:44 GMT 43.333008 22.433826 9,900 136 297 -64
2020-04-01 15:55:34 GMT 43.343399 22.420221 9,925 136 315 -512
2020-04-01 15:55:24 GMT 43.354019 22.406425 10,075 136 332 -1280
2020-04-01 15:55:13 GMT 43.366112 22.390594 10,375 136 348 -2048
2020-04-01 15:55:03 GMT 43.377560 22.375685 10,775 136 360 -2944
2020-04-01 15:54:53 GMT 43.390179 22.359140 11,375 136 368 -4352
2020-04-01 15:54:43 GMT 43.402744 22.342661 12,025 136 378 -3264
2020-04-01 15:54:33 GMT 43.415909 22.325306 12,775 136 383 -5056
2020-04-01 15:54:23 GMT 43.428677 22.308655 13,625 136 384 -5376
2020-04-01 15:54:13 GMT 43.441525 22.291914 14,475 136 388 -4800
2020-04-01 15:54:10 GMT 43.445667 22.286486 14,725 136 390 -4544
2020-04-01 15:54:02 GMT 43.455002 22.274269 15,250 136 394 -4608
2020-04-01 15:53:59 GMT 43.458981 22.269091 15,775 136 397 -4800
2020-04-01 15:53:52 GMT 43.468460 22.256704 16,100 136 398 -5504
2020-04-01 15:53:47 GMT 43.476105 22.246740 16,375 136 399 -5824
2020-04-01 15:53:42 GMT 43.482723 22.238028 17,100 136 401 -5376
2020-04-01 15:53:38 GMT 43.487503 22.231730 17,775 136 402 -4992
2020-04-01 15:53:32 GMT 43.495926 22.220615 17,925 135 405 -5248
2020-04-01 15:53:28 GMT 43.501019 22.213766 18,275 135 407 -5760
2020-04-01 15:53:22 GMT 43.509476 22.202602 18,850 136 408 -5696
2020-04-01 15:53:18 GMT 43.515404 22.194736 19,250 136 408 -5760
2020-04-01 15:53:09 GMT 43.527645 22.178585 20,025 136 410 -5888
2020-04-01 15:53:01 GMT 43.537560 22.165506 21,025 136 411 -5824
2020-04-01 15:52:57 GMT 43.543625 22.157509 21,275 136 411 -6080
2020-04-01 15:52:50 GMT 43.554367 22.143337 22,075 136 413 -6080
2020-04-01 15:52:47 GMT 43.556648 22.140263 22,550 136 413 -6080
2020-04-01 15:52:41 GMT 43.565735 22.128317 22,900 136 414 -6080
2020-04-01 15:52:38 GMT 43.570053 22.122606 23,125 136 414 -5952
2020-04-01 15:52:28 GMT 43.584023 22.104164 24,125 136 417 -5888
2020-04-01 15:52:21 GMT 43.593472 22.091740 24,850 136 419 -5888
2020-04-01 15:52:18 GMT 43.597824 22.086033 25,500 136 421 -5568
2020-04-01 15:52:10 GMT 43.608135 22.072449 25,825 136 421 -5568
2020-04-01 15:52:07 GMT 43.612415 22.066891 26,750 136 424 -5312
2020-04-01 15:52:00 GMT 43.623001 22.052946 26,750 136 425 -5120
2020-04-01 15:51:57 GMT 43.626850 22.047926 27,025 136 427 -5120
2020-04-01 15:51:50 GMT 43.636578 22.035044 27,475 136 432 -3904
2020-04-01 15:51:47 GMT 43.641266 22.028866 27,675 136 437 -3648
2020-04-01 15:51:40 GMT 43.651703 22.015133 28,175 136 436 -5120
2020-04-01 15:51:37 GMT 43.656738 22.008427 31,975 135 435 -5440
2020-04-01 15:51:30 GMT 43.666168 21.995844 30,300 135 429 -5376
2020-04-01 15:51:26 GMT 43.671890 21.988241 29,425 135 425 -5376
2020-04-01 15:51:22 GMT 43.679455 21.978149 29,925 135 422 -5504
2020-04-01 15:51:16 GMT 43.685394 21.970228 30,375 135 415 -5376
2020-04-01 15:51:11 GMT 43.692856 21.960329 30,825 135 410 -5056
2020-04-01 15:51:07 GMT 43.698807 21.952408 31,200 136 405 -4288
2020-04-01 15:51:01 GMT 43.706772 21.941870 31,575 136 403 -3392
2020-04-01 15:50:56 GMT 43.713669 21.932764 31,850 136 401 -2752
2020-04-01 15:50:49 GMT 43.722702 21.920792 32,075 136 403 -1472
2020-04-01 15:50:46 GMT 43.726425 21.915829 32,200 135 405 -832
2020-04-01 15:50:40 GMT 43.735268 21.904121 32,225 135 408 -960
2020-04-01 15:50:36 GMT 43.749298 21.885405 32,825 136 448 -1728
2020-04-01 15:50:29 GMT 43.749298 21.885405 32,425 136 415 -768
2020-04-01 15:50:26 GMT 43.754288 21.878824 32,450 135 417 -768
2020-04-01 15:50:18 GMT 43.765530 21.863838 32,550 135 422 -640
2020-04-01 15:50:15 GMT 43.768890 21.859344 32,550 135 424 -384
2020-04-01 15:50:10 GMT 43.777359 21.848038 32,575 135 432 -128
2020-04-01 15:50:05 GMT 43.783031 21.840427 32,575 136 436 -256
2020-04-01 15:49:59 GMT 43.792236 21.828173 32,600 136 442 -576
2020-04-01 15:49:55 GMT 43.797604 21.821072 32,650 136 444 -1088
2020-04-01 15:49:48 GMT 43.808495 21.806553 32,900 136 449 -1920
2020-04-01 15:49:44 GMT 43.813797 21.799494 32,925 136 449 -2176
2020-04-01 15:49:39 GMT 43.823532 21.786476 33,225 135 449 -3008
2020-04-01 15:49:35 GMT 43.828560 21.779806 33,400 135 449 -3072
2020-04-01 15:49:27 GMT 43.839615 21.765066 33,750 135 449 -2752
2020-04-01 15:49:24 GMT 43.843967 21.759209 33,875 135 448 -3136
2020-04-01 15:49:17 GMT 43.855186 21.744167 34,300 135 447 -2880
2020-04-01 15:49:14 GMT 43.859238 21.738804 34,400 135 447 -2368
2020-04-01 15:49:07 GMT 43.870457 21.723698 34,750 135 448 -2432
2020-04-01 15:49:04 GMT 43.873901 21.719076 34,800 135 448 -2304
2020-04-01 15:48:57 GMT 43.885025 21.704130 35,025 135 451 -1344
2020-04-01 15:48:54 GMT 43.888962 21.698828 35,075 135 452 -1280
2020-04-01 15:48:47 GMT 43.900391 21.683611 35,250 136 455 -1792
2020-04-01 15:48:44 GMT 43.903885 21.678900 35,350 136 455 -2112
2020-04-01 15:48:37 GMT 43.916061 21.662741 35,675 136 455 -2752
2020-04-01 15:48:34 GMT 43.919617 21.657976 35,775 136 455 -2816
2020-04-01 15:48:24 GMT 43.934467 21.638163 36,225 136 453 -2624
2020-04-01 15:48:16 GMT 43.946594 21.621923 36,600 135 453 -2240
2020-04-01 15:48:13 GMT 43.950386 21.616907 36,675 135 453 -2176
2020-04-01 15:48:06 GMT 43.961700 21.601803 36,925 135 454 -2048
2020-04-01 15:48:03 GMT 43.965378 21.596832 37,000 135 453 -2176
2020-04-01 15:47:56 GMT 43.977859 21.579960 37,375 135 451 -2944
2020-04-01 15:47:52 GMT 43.981842 21.574530 37,500 135 451 -2880
2020-04-01 15:47:45 GMT 43.993122 21.559361 37,850 135 448 -2816
2020-04-01 15:47:33 GMT 44.010674 21.535753 38,500 136 442 -3008
2020-04-01 15:47:23 GMT 44.025604 21.515766 38,875 136 440 -1600
2020-04-01 15:47:14 GMT 44.038651 21.498264 39,025 136 442 -128
2020-04-01 15:47:11 GMT 44.043400 21.491940 39,025 135 442 -64
2020-04-01 15:47:02 GMT 44.057178 21.473368 39,025 135 447 0
2020-04-01 15:46:54 GMT 44.070190 21.455853 39,000 135 451 64
2020-04-01 15:46:50 GMT 44.073982 21.450741 39,000 135 452 64
2020-04-01 15:46:47 GMT 44.078568 21.444483 38,975 135 455 128
2020-04-01 15:46:41 GMT 44.088413 21.431187 38,975 135 458 64
2020-04-01 15:46:35 GMT 44.096786 21.419827 38,975 135 461 64
2020-04-01 15:46:31 GMT 44.103195 21.411140 38,975 135 461 0
2020-04-01 15:46:26 GMT 44.110481 21.401302 38,975 135 461 0
2020-04-01 15:46:23 GMT 44.119141 21.389530 38,975 135 461 -64
2020-04-01 15:46:13 GMT 44.130173 21.374620 38,975 135 461 0
2020-04-01 15:46:10 GMT 44.136063 21.366684 38,975 135 461 0
2020-04-01 15:46:03 GMT 44.146133 21.353079 38,975 135 461 0
2020-04-01 15:46:00 GMT 44.149769 21.348070 38,975 135 461 0
2020-04-01 15:45:53 GMT 44.161240 21.332640 38,975 135 461 64
2020-04-01 15:45:50 GMT 44.166229 21.325932 38,975 135 461 64
2020-04-01 15:45:42 GMT 44.177628 21.310602 38,975 135 461 0
2020-04-01 15:45:39 GMT 44.181797 21.304911 38,975 135 461 0
2020-04-01 15:45:36 GMT 44.186646 21.298403 38,975 135 461 0
2020-04-01 15:45:32 GMT 44.192181 21.290850 38,975 135 461 0
2020-04-01 15:45:29 GMT 44.196762 21.284637 38,975 135 461 -64
2020-04-01 15:45:19 GMT 44.213081 21.262430 38,975 135 461 -64
2020-04-01 15:45:14 GMT 44.219597 21.253588 38,975 135 461 -64
2020-04-01 15:45:10 GMT 44.226334 21.244419 39,000 135 461 0
2020-04-01 15:45:04 GMT 44.234894 21.232714 39,000 135 461 -64
2020-04-01 15:45:00 GMT 44.242310 21.222578 39,000 135 461 -64
2020-04-01 15:44:55 GMT 44.249577 21.212589 39,000 135 461 -128
2020-04-01 15:44:51 GMT 44.255070 21.205021 39,000 135 461 -64
2020-04-01 15:44:48 GMT 44.259293 21.199232 39,025 135 461 -64
2020-04-01 15:44:44 GMT 44.265778 21.190350 39,000 135 461 0
2020-04-01 15:44:40 GMT 44.283466 21.166233 39,025 135 461 -64
2020-04-01 15:44:32 GMT 44.283466 21.166233 39,025 135 461 0
2020-04-01 15:44:28 GMT 44.289825 21.157446 39,025 135 462 -64
2020-04-01 15:44:24 GMT 44.296371 21.148552 39,025 135 462 -64
2020-04-01 15:44:19 GMT 44.305573 21.135929 39,025 135 462 0
2020-04-01 15:44:14 GMT 44.311707 21.127560 39,025 135 463 0
2020-04-01 15:44:08 GMT 44.320896 21.114986 39,025 135 463 0
2020-04-01 15:44:00 GMT 44.337387 21.092377 39,025 135 463 0
2020-04-01 15:43:53 GMT 44.344685 21.082361 39,025 135 463 0
2020-04-01 15:43:47 GMT 44.354095 21.069424 39,025 135 464 0
2020-04-01 15:43:41 GMT 44.361816 21.058781 39,025 135 464 0
2020-04-01 15:43:37 GMT 44.368286 21.049938 39,025 135 464 0
2020-04-01 15:43:27 GMT 44.384113 21.028168 39,050 135 465 0
2020-04-01 15:43:21 GMT 44.392307 21.016779 39,050 135 465 64
2020-04-01 15:43:16 GMT 44.399872 21.006252 39,025 135 465 0
2020-04-01 15:43:07 GMT 44.415539 20.984423 39,025 134 465 0
2020-04-01 15:42:59 GMT 44.426514 20.969042 39,025 135 466 0
2020-04-01 15:42:55 GMT 44.432529 20.960573 39,025 135 466 0
2020-04-01 15:42:50 GMT 44.439556 20.950794 39,025 135 466 64
2020-04-01 15:42:46 GMT 44.447891 20.939287 39,025 135 466 64
2020-04-01 15:42:43 GMT 44.451416 20.934448 39,025 135 466 64
2020-04-01 15:42:38 GMT 44.458134 20.925203 39,025 135 467 64
2020-04-01 15:42:34 GMT 44.463718 20.917633 39,000 136 467 0
2020-04-01 15:42:29 GMT 44.472153 20.906393 39,000 136 467 64
2020-04-01 15:42:25 GMT 44.489594 20.883507 39,000 136 467 64
2020-04-01 15:42:18 GMT 44.489594 20.883507 39,000 136 466 64
2020-04-01 15:42:12 GMT 44.498959 20.871277 39,000 136 467 0
2020-04-01 15:42:08 GMT 44.505432 20.862776 39,000 136 467 0
2020-04-01 15:42:00 GMT 44.518559 20.845619 38,975 136 466 -64
2020-04-01 15:41:56 GMT 44.526749 20.834902 39,000 136 466 0
2020-04-01 15:41:51 GMT 44.531498 20.828671 39,000 136 466 0
2020-04-01 15:41:46 GMT 44.540764 20.816479 39,000 136 466 64
2020-04-01 15:41:42 GMT 44.548306 20.806564 39,000 136 466 0
2020-04-01 15:41:36 GMT 44.556473 20.795811 39,000 136 466 0
2020-04-01 15:41:31 GMT 44.563713 20.786333 39,000 136 466 -64
2020-04-01 15:41:24 GMT 44.575584 20.770725 39,000 136 465 0
2020-04-01 15:41:20 GMT 44.581100 20.763441 39,000 136 465 -64
2020-04-01 15:41:16 GMT 44.586895 20.755787 39,000 136 465 -64
2020-04-01 15:41:13 GMT 44.591599 20.749622 39,000 136 465 0
2020-04-01 15:41:10 GMT 44.596298 20.743429 39,000 136 465 0
2020-04-01 15:41:06 GMT 44.605515 20.731335 39,000 136 465 0
2020-04-01 15:41:02 GMT 44.608498 20.727449 39,000 136 465 0
2020-04-01 15:40:59 GMT 44.613384 20.721087 39,000 136 465 0
2020-04-01 15:40:55 GMT 44.621292 20.710667 39,000 136 465 0
2020-04-01 15:40:52 GMT 44.624359 20.706678 39,000 136 465 64
2020-04-01 15:40:49 GMT 44.628746 20.700922 39,000 136 464 64
2020-04-01 15:40:42 GMT 44.639732 20.686453 38,975 136 464 64
2020-04-01 15:40:37 GMT 44.647785 20.675867 38,975 136 464 64
2020-04-01 15:40:33 GMT 44.659424 20.660526 38,975 136 464 0
2020-04-01 15:40:25 GMT 44.668213 20.648869 38,975 136 465 0
2020-04-01 15:40:22 GMT 44.672085 20.643780 38,975 136 465 0
2020-04-01 15:40:19 GMT 44.675812 20.638823 38,975 136 465 0
2020-04-01 15:40:13 GMT 44.686157 20.625261 38,975 136 465 -64
2020-04-01 15:40:10 GMT 44.692337 20.617050 39,000 136 464 -64
2020-04-01 15:40:05 GMT 44.700203 20.606667 39,000 136 464 -64
2020-04-01 15:40:02 GMT 44.703415 20.602448 39,000 136 464 -64
2020-04-01 15:39:59 GMT 44.707947 20.596422 39,000 136 464 -64
2020-04-01 15:39:54 GMT 44.717194 20.584194 39,000 136 463 0
2020-04-01 15:39:49 GMT 44.723389 20.575987 39,025 136 463 0
2020-04-01 15:39:42 GMT 44.735256 20.560310 39,000 136 463 0
2020-04-01 15:39:38 GMT 44.739681 20.554482 39,000 136 463 64
2020-04-01 15:39:34 GMT 44.746151 20.545906 39,000 136 463 64
2020-04-01 15:39:31 GMT 44.751179 20.539207 39,000 136 464 0
2020-04-01 15:39:26 GMT 44.758621 20.529327 39,000 136 464 0
2020-04-01 15:39:22 GMT 44.765396 20.520304 39,000 136 464 0
2020-04-01 15:39:16 GMT 44.775524 20.506851 39,000 136 463 64
2020-04-01 15:39:13 GMT 44.780369 20.500422 39,000 136 463 64
2020-04-01 15:39:07 GMT 44.788055 20.490091 39,000 136 464 0
2020-04-01 15:39:03 GMT 44.796066 20.479431 39,000 136 464 0
2020-04-01 15:38:56 GMT 44.805367 20.467060 39,000 136 464 -64
2020-04-01 15:38:52 GMT 44.813328 20.456409 39,000 136 464 -64
2020-04-01 15:38:47 GMT 44.819229 20.448565 39,000 136 464 0
2020-04-01 15:38:44 GMT 44.824219 20.441872 39,000 136 464 0
2020-04-01 15:38:41 GMT 44.828430 20.436337 39,000 136 464 0
2020-04-01 15:38:38 GMT 44.835484 20.426867 39,000 136 464 0
2020-04-01 15:38:34 GMT 44.840092 20.420704 39,000 136 464 0
2020-04-01 15:38:31 GMT 44.844097 20.415411 39,000 136 464 -64
2020-04-01 15:38:27 GMT 44.851173 20.405966 39,000 136 464 -64
2020-04-01 15:38:23 GMT 44.856014 20.399467 39,000 136 464 0
2020-04-01 15:38:19 GMT 44.862671 20.390558 39,000 136 464 0
2020-04-01 15:38:16 GMT 44.868023 20.383390 39,000 136 464 0
2020-04-01 15:38:13 GMT 44.871780 20.378330 39,000 136 463 64
2020-04-01 15:38:10 GMT 44.878593 20.369122 39,000 136 463 64
2020-04-01 15:38:07 GMT 44.881989 20.364567 39,000 136 463 64
2020-04-01 15:38:03 GMT 44.887115 20.357666 39,000 136 463 64
2020-04-01 15:38:00 GMT 44.891720 20.351437 39,000 136 463 64
2020-04-01 15:37:53 GMT 44.904739 20.333927 39,000 136 464 -64
2020-04-01 15:37:47 GMT 44.914261 20.321241 38,975 136 464 0
2020-04-01 15:37:40 GMT 44.922863 20.309769 39,000 136 464 64
2020-04-01 15:37:36 GMT 44.929848 20.300457 38,975 136 464 64
2020-04-01 15:37:32 GMT 44.935181 20.293383 38,975 136 464 64
2020-04-01 15:37:29 GMT 44.940079 20.286909 38,975 136 464 64
2020-04-01 15:37:25 GMT 44.946373 20.278484 38,975 136 464 128
2020-04-01 15:37:20 GMT 44.954819 20.267225 39,000 136 464 0
2020-04-01 15:37:13 GMT 44.965942 20.252380 38,975 136 464 -64
2020-04-01 15:37:09 GMT 44.972214 20.244011 38,975 136 464 -64
2020-04-01 15:37:05 GMT 44.977516 20.236883 38,975 136 464 -64
2020-04-01 15:37:01 GMT 44.985947 20.225569 39,000 136 464 0
2020-04-01 15:36:56 GMT 44.993774 20.215105 39,000 136 463 0
2020-04-01 15:36:52 GMT 44.998093 20.209351 39,000 136 463 0
2020-04-01 15:36:47 GMT 45.005447 20.199503 39,000 136 464 0
2020-04-01 15:36:42 GMT 45.013870 20.188164 39,000 136 464 -64
2020-04-01 15:36:37 GMT 45.021416 20.178066 39,000 136 464 -64
2020-04-01 15:36:32 GMT 45.029343 20.167433 39,000 136 464 0
2020-04-01 15:36:27 GMT 45.037754 20.156094 39,000 136 464 0
2020-04-01 15:36:24 GMT 45.041473 20.151085 39,000 136 464 0
2020-04-01 15:36:21 GMT 45.046040 20.144974 39,000 136 464 -64
2020-04-01 15:36:18 GMT 45.050743 20.138676 39,000 136 464 -64
2020-04-01 15:36:14 GMT 45.061497 20.124273 39,025 136 464 -64
2020-04-01 15:36:04 GMT 45.073135 20.108665 39,025 136 464 -64
2020-04-01 15:36:00 GMT 45.079277 20.100426 39,025 136 464 -64
2020-04-01 15:35:56 GMT 45.085419 20.092163 39,025 136 464 -64
2020-04-01 15:35:53 GMT 45.090126 20.085888 39,025 136 464 0
2020-04-01 15:35:47 GMT 45.100414 20.072088 39,025 136 464 0
2020-04-01 15:35:42 GMT 45.107349 20.062710 39,025 136 464 0
2020-04-01 15:35:36 GMT 45.116455 20.050377 39,025 136 465 0
2020-04-01 15:35:33 GMT 45.120987 20.044230 39,025 136 465 64
2020-04-01 15:35:25 GMT 45.133209 20.027748 39,025 136 466 0
2020-04-01 15:35:22 GMT 45.140030 20.018530 39,025 136 466 -64
2020-04-01 15:35:15 GMT 45.148270 20.007410 39,025 136 466 -64
2020-04-01 15:35:11 GMT 45.155113 19.998133 39,025 136 466 0
2020-04-01 15:35:05 GMT 45.163910 19.986275 39,025 136 466 0
2020-04-01 15:35:01 GMT 45.170792 19.976936 39,025 136 466 0
2020-04-01 15:34:55 GMT 45.179306 19.965427 39,025 136 466 0
2020-04-01 15:34:51 GMT 45.186672 19.955393 39,025 136 466 0
2020-04-01 15:34:45 GMT 45.195923 19.942932 39,025 136 466 0
2020-04-01 15:34:42 GMT 45.200874 19.936234 39,025 136 466 0
2020-04-01 15:34:35 GMT 45.210693 19.922901 39,025 136 467 64
2020-04-01 15:34:31 GMT 45.217026 19.914289 39,025 136 467 64
2020-04-01 15:34:24 GMT 45.228107 19.899187 39,025 136 467 64
2020-04-01 15:34:15 GMT 45.243607 19.878086 39,025 136 467 64
2020-04-01 15:34:12 GMT 45.247749 19.872459 39,000 136 467 64
2020-04-01 15:34:04 GMT 45.260010 19.855825 39,000 136 468 -64
2020-04-01 15:34:01 GMT 45.264404 19.849810 39,000 136 467 -64
2020-04-01 15:33:57 GMT 45.270702 19.841242 39,000 136 467 -64
2020-04-01 15:33:54 GMT 45.275265 19.835079 39,025 136 467 -64
2020-04-01 15:33:50 GMT 45.281593 19.826504 39,025 136 467 -64
2020-04-01 15:33:43 GMT 45.292301 19.811968 39,025 136 466 0
2020-04-01 15:33:40 GMT 45.297089 19.805471 39,025 136 466 64
2020-04-01 15:33:37 GMT 45.301704 19.799238 39,025 136 466 64
2020-04-01 15:33:34 GMT 45.306976 19.792067 39,025 136 466 64
2020-04-01 15:33:30 GMT 45.313293 19.783501 39,000 136 466 64
2020-04-01 15:33:27 GMT 45.317871 19.777222 39,000 136 466 64
2020-04-01 15:33:24 GMT 45.324005 19.768850 39,000 136 466 64
2020-04-01 15:33:21 GMT 45.328629 19.762573 39,000 136 467 0
2020-04-01 15:33:17 GMT 45.332710 19.757034 39,000 136 467 0
2020-04-01 15:33:13 GMT 45.338608 19.748972 39,000 136 466 0
2020-04-01 15:33:10 GMT 45.343788 19.741896 39,000 136 466 0
2020-04-01 15:33:03 GMT 45.354446 19.727325 39,000 136 466 0
2020-04-01 15:32:58 GMT 45.362228 19.716665 39,000 136 466 0
2020-04-01 15:32:53 GMT 45.370285 19.705614 39,000 135 466 0
2020-04-01 15:32:50 GMT 45.375595 19.698357 39,000 135 466 0
2020-04-01 15:32:39 GMT 45.391552 19.676447 39,000 135 466 -64
2020-04-01 15:32:33 GMT 45.402466 19.661407 39,025 135 466 -64
2020-04-01 15:32:29 GMT 45.407101 19.655010 39,025 135 466 0
2020-04-01 15:32:19 GMT 45.423935 19.631784 39,000 135 465 64
2020-04-01 15:32:12 GMT 45.433594 19.618443 39,000 135 465 64
2020-04-01 15:32:09 GMT 45.437870 19.612537 39,000 135 465 64
2020-04-01 15:32:04 GMT 45.446064 19.601284 39,000 135 465 64
2020-04-01 15:31:59 GMT 45.453690 19.590780 39,000 135 464 64
2020-04-01 15:31:55 GMT 45.459888 19.582258 39,000 136 463 64
2020-04-01 15:31:51 GMT 45.466003 19.573778 38,975 135 464 64
2020-04-01 15:31:48 GMT 45.469849 19.568481 38,975 135 464 0
2020-04-01 15:31:42 GMT 45.481117 19.553051 38,975 135 464 0
2020-04-01 15:31:38 GMT 45.485260 19.547358 38,975 135 464 -64
2020-04-01 15:31:33 GMT 45.494339 19.534897 39,000 135 463 -64
2020-04-01 15:31:29 GMT 45.501480 19.525059 39,000 136 463 -64
2020-04-01 15:31:25 GMT 45.505371 19.519691 39,000 135 463 -64
2020-04-01 15:31:21 GMT 45.512726 19.509642 39,000 135 463 0
2020-04-01 15:31:18 GMT 45.516815 19.504002 39,000 135 463 0
2020-04-01 15:31:14 GMT 45.525482 19.492090 39,000 135 463 0
2020-04-01 15:31:08 GMT 45.532230 19.482779 39,000 135 462 0
2020-04-01 15:31:04 GMT 45.538284 19.474405 39,000 135 462 0
2020-04-01 15:31:00 GMT 45.543686 19.466990 39,000 135 462 0
2020-04-01 15:30:57 GMT 45.548309 19.460606 39,000 135 462 0
2020-04-01 15:30:54 GMT 45.553040 19.454109 39,000 135 462 0
2020-04-01 15:30:47 GMT 45.564587 19.438179 39,000 135 462 64
2020-04-01 15:30:44 GMT 45.568264 19.433098 38,975 136 461 64
2020-04-01 15:30:38 GMT 45.579758 19.417263 38,975 135 461 64
2020-04-01 15:30:35 GMT 45.583485 19.412155 38,975 136 461 0
2020-04-01 15:30:28 GMT 45.598709 19.391144 38,975 135 461 0
2020-04-01 15:30:25 GMT 45.598709 19.391144 38,975 136 461 64
2020-04-01 15:30:18 GMT 45.607925 19.378441 38,975 135 461 0
2020-04-01 15:30:14 GMT 45.615234 19.368347 38,975 136 461 0
2020-04-01 15:30:08 GMT 45.623615 19.356812 38,975 135 461 64
2020-04-01 15:30:04 GMT 45.631760 19.345551 38,975 136 461 0
2020-04-01 15:30:00 GMT 45.637768 19.337311 38,975 135 461 0
2020-04-01 15:29:56 GMT 45.642792 19.330311 38,975 135 461 -64
2020-04-01 15:29:53 GMT 45.647354 19.323990 38,975 135 460 -64
2020-04-01 15:29:49 GMT 45.652943 19.316299 38,975 135 461 -64
2020-04-01 15:29:46 GMT 45.658203 19.308952 38,975 135 461 -64
2020-04-01 15:29:43 GMT 45.661785 19.303940 39,000 135 461 -64
2020-04-01 15:29:37 GMT 45.671082 19.290987 39,000 135 460 0
2020-04-01 15:29:34 GMT 45.676823 19.282928 39,000 135 461 0
2020-04-01 15:29:27 GMT 45.685760 19.270432 39,000 135 460 0
2020-04-01 15:29:24 GMT 45.692230 19.261299 39,000 135 460 0
2020-04-01 15:29:20 GMT 45.697083 19.254545 39,000 135 460 0
2020-04-01 15:29:17 GMT 45.701294 19.248583 39,000 135 460 -64
2020-04-01 15:29:13 GMT 45.707268 19.240219 39,000 135 460 0
2020-04-01 15:29:06 GMT 45.720016 19.222389 39,000 135 460 64
2020-04-01 15:29:01 GMT 45.727055 19.212479 39,000 135 461 64
2020-04-01 15:28:57 GMT 45.732513 19.204838 39,000 135 461 0
2020-04-01 15:28:54 GMT 45.738319 19.196686 39,000 135 461 0
2020-04-01 15:28:50 GMT 45.742371 19.191055 39,000 135 461 -64
2020-04-01 15:28:46 GMT 45.749130 19.181660 39,000 135 461 -64
2020-04-01 15:28:43 GMT 45.753868 19.175056 39,000 135 461 -64
2020-04-01 15:28:40 GMT 45.757778 19.169632 39,000 135 461 -64
2020-04-01 15:28:35 GMT 45.765133 19.159470 39,025 135 461 -64
2020-04-01 15:28:32 GMT 45.770348 19.152260 39,025 135 461 -64
2020-04-01 15:28:27 GMT 45.777969 19.141600 39,000 135 461 0
2020-04-01 15:28:23 GMT 45.784916 19.131866 39,000 135 461 -64
2020-04-01 15:28:17 GMT 45.793434 19.120056 39,025 135 461 0
2020-04-01 15:28:13 GMT 45.799908 19.111061 39,025 135 461 0
2020-04-01 15:28:09 GMT 45.804794 19.104195 39,025 135 461 0
2020-04-01 15:28:06 GMT 45.809509 19.097588 39,025 135 461 0
2020-04-01 15:28:03 GMT 45.815502 19.089157 39,025 135 461 64
2020-04-01 15:28:00 GMT 45.819443 19.083654 39,025 135 462 64
2020-04-01 15:27:56 GMT 45.824432 19.076687 39,000 135 462 64
2020-04-01 15:27:53 GMT 45.831051 19.067322 39,000 135 462 128
2020-04-01 15:27:50 GMT 45.834869 19.061966 39,000 135 462 128
2020-04-01 15:27:47 GMT 45.840820 19.053642 39,000 135 462 64
2020-04-01 15:27:40 GMT 45.850414 19.040199 38,975 135 463 64
2020-04-01 15:27:35 GMT 45.858330 19.029076 38,975 135 463 0
2020-04-01 15:27:29 GMT 45.866180 19.018070 38,975 135 463 0
2020-04-01 15:27:25 GMT 45.871674 19.010433 38,975 135 463 0
2020-04-01 15:27:22 GMT 45.876984 19.003065 38,975 135 463 -64
2020-04-01 15:27:19 GMT 45.882156 18.995831 38,975 135 463 0
2020-04-01 15:27:16 GMT 45.885284 18.991447 39,025 135 463 -64
2020-04-01 15:27:12 GMT 45.892780 18.980873 39,000 135 462 0
2020-04-01 15:27:09 GMT 45.897343 18.974487 39,000 135 462 0
2020-04-01 15:27:06 GMT 45.903671 18.965561 39,000 135 462 0
2020-04-01 15:27:02 GMT 45.908188 18.959175 38,975 135 462 0
2020-04-01 15:26:58 GMT 45.913448 18.951828 38,975 135 462 0
2020-04-01 15:26:55 GMT 45.918686 18.944382 38,975 135 462 0
2020-04-01 15:26:52 GMT 45.922806 18.938644 39,000 135 462 0
2020-04-01 15:26:49 GMT 45.928024 18.931252 39,000 135 462 0
2020-04-01 15:26:45 GMT 45.933792 18.923145 39,000 135 462 -64
2020-04-01 15:26:42 GMT 45.938507 18.916447 39,000 135 463 -64
2020-04-01 15:26:38 GMT 45.943634 18.909212 39,000 135 463 -64
2020-04-01 15:26:34 GMT 45.951248 18.898544 39,000 135 463 -64
2020-04-01 15:26:31 GMT 45.955624 18.892296 39,000 135 463 -64
2020-04-01 15:26:28 GMT 45.958923 18.887709 39,000 135 463 0
2020-04-01 15:26:24 GMT 45.965912 18.877739 39,000 135 463 0
2020-04-01 15:26:21 GMT 45.970333 18.871559 39,000 135 463 0
2020-04-01 15:26:18 GMT 45.974670 18.865400 39,000 135 463 -64
2020-04-01 15:26:15 GMT 45.980347 18.857430 39,000 135 463 -64
2020-04-01 15:26:11 GMT 45.985325 18.850410 39,025 135 463 -64
2020-04-01 15:26:08 GMT 45.989777 18.844166 39,025 135 463 0
2020-04-01 15:26:04 GMT 45.997559 18.833179 39,025 135 463 -64
2020-04-01 15:26:01 GMT 46.001247 18.827957 39,025 135 463 -64
2020-04-01 15:25:58 GMT 46.005573 18.821846 39,025 135 463 0
2020-04-01 15:25:54 GMT 46.011906 18.812920 39,025 135 463 0
2020-04-01 15:25:51 GMT 46.016842 18.805984 39,025 135 463 0
2020-04-01 15:25:48 GMT 46.020538 18.800690 39,025 135 463 -64
2020-04-01 15:25:44 GMT 46.027035 18.791428 39,025 135 463 0
2020-04-01 15:25:41 GMT 46.032295 18.783943 39,025 135 463 -64
2020-04-01 15:25:38 GMT 46.035927 18.778725 39,025 135 463 -64
2020-04-01 15:25:34 GMT 46.042694 18.769070 39,025 135 463 -64
2020-04-01 15:25:31 GMT 46.047890 18.761559 39,025 134 463 -64
2020-04-01 15:25:27 GMT 46.051758 18.756006 39,050 134 463 0
2020-04-01 15:25:24 GMT 46.057621 18.747551 39,050 134 463 -64
2020-04-01 15:25:21 GMT 46.061390 18.742126 39,050 134 463 -64
2020-04-01 15:25:18 GMT 46.066452 18.734772 39,050 134 463 -64
2020-04-01 15:25:12 GMT 46.082573 18.711433 39,050 134 463 -64
2020-04-01 15:25:08 GMT 46.082573 18.711433 39,050 134 464 0
2020-04-01 15:25:03 GMT 46.089043 18.702095 39,050 134 464 64
2020-04-01 15:25:00 GMT 46.097282 18.690079 39,050 134 464 0
2020-04-01 15:24:54 GMT 46.101845 18.683487 39,050 134 464 -64
2020-04-01 15:24:50 GMT 46.109386 18.672569 39,050 134 464 0
2020-04-01 15:24:47 GMT 46.112457 18.668116 39,050 134 464 0
2020-04-01 15:24:44 GMT 46.117298 18.661102 39,050 134 465 0
2020-04-01 15:24:40 GMT 46.123726 18.651764 39,050 134 465 64
2020-04-01 15:24:37 GMT 46.128387 18.645004 39,050 134 465 128
2020-04-01 15:24:33 GMT 46.133286 18.637903 39,050 134 465 128
2020-04-01 15:24:30 GMT 46.138000 18.631138 39,025 134 465 128
2020-04-01 15:24:27 GMT 46.142990 18.623837 39,025 134 465 128
2020-04-01 15:24:23 GMT 46.149216 18.614792 39,025 134 465 64
2020-04-01 15:24:20 GMT 46.153889 18.608025 39,025 134 465 64
2020-04-01 15:24:17 GMT 46.158691 18.600992 39,025 134 465 64
2020-04-01 15:24:14 GMT 46.165512 18.591145 39,000 134 465 128
2020-04-01 15:24:10 GMT 46.168854 18.586254 39,000 134 465 128
2020-04-01 15:24:07 GMT 46.173908 18.578911 39,000 134 466 128
2020-04-01 15:24:04 GMT 46.179401 18.570877 38,975 134 465 64
2020-04-01 15:24:00 GMT 46.188992 18.556938 38,975 134 465 64
2020-04-01 15:23:57 GMT 46.188992 18.556938 38,975 134 465 0
2020-04-01 15:23:51 GMT 46.197418 18.544716 38,975 134 465 0
2020-04-01 15:23:48 GMT 46.201981 18.538124 38,975 134 465 64
2020-04-01 15:23:45 GMT 46.207054 18.530777 38,975 134 465 0
2020-04-01 15:23:39 GMT 46.215408 18.518661 38,975 134 464 64
2020-04-01 15:23:36 GMT 46.220032 18.511963 38,975 134 464 64
2020-04-01 15:23:32 GMT 46.226257 18.502851 38,975 134 464 0
2020-04-01 15:23:29 GMT 46.232285 18.494110 38,975 134 464 0
2020-04-01 15:23:26 GMT 46.235138 18.489990 38,975 134 464 0
2020-04-01 15:23:22 GMT 46.240944 18.481544 38,975 134 463 64
2020-04-01 15:23:19 GMT 46.250244 18.468018 38,975 134 463 64
2020-04-01 15:23:16 GMT 46.250244 18.468018 38,950 134 463 64
2020-04-01 15:23:12 GMT 46.256351 18.459160 38,950 134 463 64
2020-04-01 15:23:09 GMT 46.263103 18.449341 38,950 134 463 64
2020-04-01 15:23:06 GMT 46.265808 18.445375 38,950 134 462 64
2020-04-01 15:23:02 GMT 46.273727 18.433853 38,950 134 463 0
2020-04-01 15:22:59 GMT 46.275906 18.430595 38,950 134 463 0
2020-04-01 15:22:56 GMT 46.280979 18.423180 38,950 134 462 0
2020-04-01 15:22:51 GMT 46.286774 18.414694 38,950 134 461 0
2020-04-01 15:22:48 GMT 46.292568 18.406151 38,950 134 461 0
2020-04-01 15:22:45 GMT 46.296478 18.400452 38,950 134 461 0
2020-04-01 15:22:42 GMT 46.303230 18.390564 38,950 134 461 0
2020-04-01 15:22:38 GMT 46.309563 18.381294 38,950 134 461 0
2020-04-01 15:22:35 GMT 46.311630 18.378319 38,950 134 460 0
2020-04-01 15:22:29 GMT 46.320786 18.364853 38,950 134 460 0
2020-04-01 15:22:26 GMT 46.326553 18.356413 38,975 134 459 -64
2020-04-01 15:22:21 GMT 46.334106 18.345291 38,975 134 459 0
2020-04-01 15:22:18 GMT 46.336487 18.341808 38,975 134 459 0
2020-04-01 15:22:15 GMT 46.341522 18.334307 38,975 134 459 0
2020-04-01 15:22:09 GMT 46.351135 18.320171 38,975 134 460 -64
2020-04-01 15:22:06 GMT 46.364307 18.300751 38,975 134 459 -64
2020-04-01 15:22:02 GMT 46.364307 18.300751 38,975 134 459 -64
2020-04-01 15:21:58 GMT 46.369194 18.293610 38,975 134 460 -64
2020-04-01 15:21:54 GMT 46.372547 18.288666 38,975 134 459 -64
2020-04-01 15:21:50 GMT 46.378052 18.280647 38,975 134 459 -64
2020-04-01 15:21:47 GMT 46.384090 18.271774 39,000 134 460 -64
2020-04-01 15:21:44 GMT 46.388283 18.265663 38,975 134 460 -64
2020-04-01 15:21:41 GMT 46.394028 18.257269 39,000 134 460 -64
2020-04-01 15:21:38 GMT 46.397186 18.252712 39,000 134 460 0
2020-04-01 15:21:35 GMT 46.407509 18.237579 39,000 134 459 -64
2020-04-01 15:21:31 GMT 46.407509 18.237579 39,000 134 459 -64
2020-04-01 15:21:28 GMT 46.412384 18.230473 39,000 134 459 0
2020-04-01 15:21:25 GMT 46.417419 18.223036 39,000 134 459 0
2020-04-01 15:21:21 GMT 46.424149 18.213121 39,000 134 460 0
2020-04-01 15:21:17 GMT 46.428921 18.206062 39,000 134 460 0
2020-04-01 15:21:14 GMT 46.432877 18.200157 39,000 134 461 0
2020-04-01 15:21:11 GMT 46.437580 18.193222 39,000 134 461 0
2020-04-01 15:21:08 GMT 46.441864 18.186861 39,000 134 461 0
2020-04-01 15:21:05 GMT 46.449821 18.175026 39,000 134 461 0
2020-04-01 15:21:02 GMT 46.449821 18.175026 39,000 134 461 0
2020-04-01 15:20:59 GMT 46.454849 18.167610 39,000 134 461 0
2020-04-01 15:20:56 GMT 46.459579 18.160534 39,000 134 461 0
2020-04-01 15:20:53 GMT 46.463928 18.154169 39,000 134 461 -64
2020-04-01 15:20:50 GMT 46.469978 18.145157 39,000 134 461 -64
2020-04-01 15:20:47 GMT 46.472763 18.141041 39,025 134 461 -64
2020-04-01 15:20:44 GMT 46.478081 18.133141 39,025 134 461 -64
2020-04-01 15:20:40 GMT 46.483994 18.124420 39,025 134 461 -64
2020-04-01 15:20:37 GMT 46.487762 18.118858 39,025 134 462 -64
2020-04-01 15:20:34 GMT 46.492767 18.111364 39,025 134 462 -64
2020-04-01 15:20:31 GMT 46.496376 18.106087 39,025 134 462 -64
2020-04-01 15:20:27 GMT 46.502567 18.096886 39,025 134 462 -64
2020-04-01 15:20:24 GMT 46.507874 18.088923 39,025 134 462 -64
2020-04-01 15:20:21 GMT 46.511124 18.084166 39,050 134 462 -64
2020-04-01 15:20:17 GMT 46.519184 18.072166 39,050 134 462 -64
2020-04-01 15:20:14 GMT 46.522633 18.067085 39,050 134 462 -64
2020-04-01 15:20:11 GMT 46.526001 18.062126 39,050 134 462 0
2020-04-01 15:20:08 GMT 46.530499 18.055412 39,050 134 462 0
2020-04-01 15:20:05 GMT 46.534927 18.048862 39,050 134 462 64
2020-04-01 15:20:02 GMT 46.539871 18.041492 39,050 134 463 64
2020-04-01 15:19:59 GMT 46.543671 18.035866 39,025 134 463 64
2020-04-01 15:19:56 GMT 46.549397 18.027328 39,025 134 462 64
2020-04-01 15:19:53 GMT 46.552963 18.022066 39,025 134 464 64
2020-04-01 15:19:50 GMT 46.560337 18.011124 39,025 134 464 64
2020-04-01 15:19:45 GMT 46.565781 18.002907 39,000 134 465 64
2020-04-01 15:19:42 GMT 46.570267 17.996342 39,000 134 465 0
2020-04-01 15:19:39 GMT 46.576538 17.986954 39,025 134 465 0
2020-04-01 15:19:35 GMT 46.580772 17.980705 39,025 134 465 0
2020-04-01 15:19:31 GMT 46.585522 17.973633 39,025 134 465 0
2020-04-01 15:19:28 GMT 46.590729 17.965929 39,000 134 466 64
2020-04-01 15:19:25 GMT 46.595299 17.959145 39,000 134 466 64
2020-04-01 15:19:22 GMT 46.601074 17.950588 39,000 134 466 64
2020-04-01 15:19:17 GMT 46.606750 17.942148 39,000 134 466 64
2020-04-01 15:19:14 GMT 46.611053 17.935783 39,000 134 466 64
2020-04-01 15:19:11 GMT 46.620625 17.921516 39,000 134 466 0
2020-04-01 15:19:08 GMT 46.626255 17.913139 39,000 134 466 0
2020-04-01 15:19:05 GMT 46.626255 17.913139 39,000 134 466 0
2020-04-01 15:19:00 GMT 46.632446 17.903870 39,000 134 466 0
2020-04-01 15:18:57 GMT 46.637283 17.896662 39,000 134 466 0
2020-04-01 15:18:54 GMT 46.641953 17.889561 39,000 134 466 0
2020-04-01 15:18:51 GMT 46.647217 17.881723 39,000 134 466 0
2020-04-01 15:18:48 GMT 46.650833 17.876297 39,000 134 466 0
2020-04-01 15:18:45 GMT 46.656048 17.868439 39,000 134 466 0
2020-04-01 15:18:42 GMT 46.659912 17.862671 39,000 134 466 0
2020-04-01 15:18:38 GMT 46.666168 17.853319 39,000 134 466 0
2020-04-01 15:18:34 GMT 46.672016 17.844543 39,000 134 466 64
2020-04-01 15:18:30 GMT 46.678020 17.835548 39,000 134 466 0
2020-04-01 15:18:27 GMT 46.682816 17.828339 39,000 134 466 0
2020-04-01 15:18:24 GMT 46.690704 17.816542 39,000 134 467 0
2020-04-01 15:18:18 GMT 46.697296 17.806709 39,000 134 467 -64
2020-04-01 15:18:15 GMT 46.700912 17.801268 39,000 134 467 -64
2020-04-01 15:18:12 GMT 46.705486 17.794487 39,000 134 467 -64
2020-04-01 15:18:09 GMT 46.710190 17.787415 39,000 134 467 -64
2020-04-01 15:18:06 GMT 46.713455 17.782578 39,000 134 466 -64
2020-04-01 15:18:03 GMT 46.718616 17.774849 39,000 134 466 0
2020-04-01 15:18:00 GMT 46.723892 17.767036 39,000 134 466 0
2020-04-01 15:17:57 GMT 46.728298 17.760429 39,000 134 467 0
2020-04-01 15:17:54 GMT 46.733185 17.753082 39,000 134 467 0
2020-04-01 15:17:51 GMT 46.736305 17.748413 39,000 134 467 0
2020-04-01 15:17:47 GMT 46.744404 17.736259 39,000 134 467 -64
2020-04-01 15:17:44 GMT 46.747620 17.731522 39,000 134 466 -64
2020-04-01 15:17:41 GMT 46.750717 17.726910 39,000 134 466 -64
2020-04-01 15:17:38 GMT 46.755203 17.720076 39,025 134 466 0
2020-04-01 15:17:35 GMT 46.759907 17.713120 39,025 134 466 0
2020-04-01 15:17:32 GMT 46.764282 17.706459 39,025 134 466 0
2020-04-01 15:17:29 GMT 46.770447 17.697300 39,025 134 467 0
2020-04-01 15:17:24 GMT 46.778156 17.685654 39,000 134 467 0
2020-04-01 15:17:21 GMT 46.781067 17.681290 39,025 134 467 0
2020-04-01 15:17:18 GMT 46.786514 17.673117 39,025 134 467 0
2020-04-01 15:17:14 GMT 46.791733 17.665213 39,025 134 467 0
2020-04-01 15:17:11 GMT 46.798500 17.655098 39,025 134 467 0
2020-04-01 15:17:06 GMT 46.804779 17.645584 39,000 134 467 0
2020-04-01 15:17:03 GMT 46.809723 17.638081 39,000 134 467 0
2020-04-01 15:17:00 GMT 46.813068 17.633125 39,025 134 467 0
2020-04-01 15:16:56 GMT 46.820518 17.621864 39,025 134 467 0
2020-04-01 15:16:53 GMT 46.824287 17.616165 39,025 134 467 0
2020-04-01 15:16:50 GMT 46.827393 17.611486 39,025 134 467 0
2020-04-01 15:16:47 GMT 46.834438 17.600853 39,025 134 467 0
2020-04-01 15:16:42 GMT 46.840668 17.591455 39,025 133 466 0
2020-04-01 15:16:39 GMT 46.845051 17.584854 39,025 134 467 0
2020-04-01 15:16:36 GMT 46.851059 17.575848 39,025 133 468 0
2020-04-01 15:16:33 GMT 46.852966 17.572975 39,025 133 468 0
2020-04-01 15:16:30 GMT 46.857834 17.565598 39,025 133 468 0
2020-04-01 15:16:26 GMT 46.863419 17.557224 39,025 133 468 -64
2020-04-01 15:16:22 GMT 46.870193 17.546951 39,025 133 468 0
2020-04-01 15:16:19 GMT 46.874474 17.540447 39,025 133 468 0
2020-04-01 15:16:16 GMT 46.879211 17.533287 39,025 133 468 0
2020-04-01 15:16:13 GMT 46.884762 17.524813 39,025 133 468 0
2020-04-01 15:16:10 GMT 46.894024 17.510799 39,025 133 468 0
2020-04-01 15:16:07 GMT 46.894024 17.510799 39,025 133 468 0
2020-04-01 15:16:03 GMT 46.899261 17.502869 39,025 133 468 64
2020-04-01 15:16:00 GMT 46.902824 17.497488 39,000 133 468 0
2020-04-01 15:15:56 GMT 46.913864 17.480759 39,000 133 468 0
2020-04-01 15:15:53 GMT 46.913864 17.480759 39,000 133 468 0
2020-04-01 15:15:50 GMT 46.918369 17.473896 39,000 133 468 0
2020-04-01 15:15:46 GMT 46.925121 17.463614 39,000 133 468 0
2020-04-01 15:15:43 GMT 46.928787 17.458099 39,000 133 468 0
2020-04-01 15:15:40 GMT 46.933502 17.450937 39,000 133 468 0
2020-04-01 15:15:33 GMT 46.944809 17.433723 39,000 133 468 0
2020-04-01 15:15:30 GMT 46.955246 17.417793 39,000 133 468 0
2020-04-01 15:15:26 GMT 46.955246 17.417793 39,000 133 468 0
2020-04-01 15:15:22 GMT 46.960361 17.409950 39,000 133 468 0
2020-04-01 15:15:19 GMT 46.964085 17.404245 39,000 133 468 0
2020-04-01 15:15:15 GMT 46.975571 17.386757 39,000 133 468 0
2020-04-01 15:15:12 GMT 46.975571 17.386757 39,000 133 468 64
2020-04-01 15:15:09 GMT 46.979168 17.381287 39,000 133 468 64
2020-04-01 15:15:04 GMT 46.988525 17.367050 39,000 133 468 0
2020-04-01 15:15:00 GMT 46.994019 17.358681 39,000 133 468 64
2020-04-01 15:14:55 GMT 47.000954 17.348116 39,000 133 468 0
2020-04-01 15:14:52 GMT 47.005283 17.341566 39,000 133 466 0
2020-04-01 15:14:49 GMT 47.009056 17.335793 39,000 133 468 0
2020-04-01 15:14:45 GMT 47.016815 17.323997 39,000 133 468 0
2020-04-01 15:14:42 GMT 47.019882 17.319328 38,975 133 468 0
2020-04-01 15:14:39 GMT 47.024643 17.312050 38,975 133 468 0
2020-04-01 15:14:34 GMT 47.032051 17.300861 38,975 133 468 0
2020-04-01 15:14:30 GMT 47.038940 17.290297 39,000 133 468 0
2020-04-01 15:14:27 GMT 47.047646 17.277128 39,000 133 467 0
2020-04-01 15:14:23 GMT 47.047646 17.277128 38,975 133 467 0
2020-04-01 15:14:19 GMT 47.055000 17.265930 39,000 133 467 0
2020-04-01 15:14:13 GMT 47.062912 17.253891 38,975 133 467 0
2020-04-01 15:14:09 GMT 47.069714 17.243534 38,975 133 467 0
2020-04-01 15:14:04 GMT 47.077721 17.231422 38,975 133 466 0
2020-04-01 15:14:01 GMT 47.081543 17.225533 38,975 133 466 0
2020-04-01 15:13:58 GMT 47.085571 17.219421 39,000 133 466 0
2020-04-01 15:13:53 GMT 47.093128 17.207899 39,000 133 466 -64
2020-04-01 15:13:50 GMT 47.098389 17.199800 39,000 133 466 0
2020-04-01 15:13:47 GMT 47.103653 17.191681 39,000 133 466 0
2020-04-01 15:13:41 GMT 47.111748 17.179308 39,000 133 466 0
2020-04-01 15:13:38 GMT 47.115189 17.174034 39,000 133 466 -64
2020-04-01 15:13:35 GMT 47.121002 17.165108 39,000 133 466 0
2020-04-01 15:13:31 GMT 47.127159 17.155716 39,000 133 466 0
2020-04-01 15:13:28 GMT 47.130203 17.151031 39,000 133 466 0
2020-04-01 15:13:24 GMT 47.136475 17.141418 39,000 133 466 -64
2020-04-01 15:13:21 GMT 47.141281 17.134071 39,000 133 466 0
2020-04-01 15:13:18 GMT 47.145592 17.127403 39,000 133 466 -64
2020-04-01 15:13:12 GMT 47.154694 17.113403 39,000 133 466 0
2020-04-01 15:13:08 GMT 47.160553 17.104477 39,000 133 466 0
2020-04-01 15:13:04 GMT 47.166634 17.095079 39,000 133 466 0
2020-04-01 15:13:00 GMT 47.171173 17.088135 39,000 133 466 0
2020-04-01 15:12:57 GMT 47.175758 17.081064 39,000 133 466 0
2020-04-01 15:12:54 GMT 47.181019 17.072966 39,000 133 466 -64
2020-04-01 15:12:51 GMT 47.185673 17.065783 39,000 133 465 -64
2020-04-01 15:12:48 GMT 47.190887 17.057753 39,000 133 466 -64
2020-04-01 15:12:45 GMT 47.194107 17.052841 39,000 133 466 -64
2020-04-01 15:12:42 GMT 47.200195 17.043434 39,000 133 466 0
2020-04-01 15:12:39 GMT 47.203491 17.038353 39,000 133 466 0
2020-04-01 15:12:36 GMT 47.207787 17.031767 39,000 133 466 0
2020-04-01 15:12:32 GMT 47.214397 17.021626 39,000 133 466 0
2020-04-01 15:12:29 GMT 47.218460 17.015350 39,000 133 466 0
2020-04-01 15:12:26 GMT 47.222946 17.008484 39,000 133 466 0
2020-04-01 15:12:23 GMT 47.226608 17.002853 39,000 133 466 0
2020-04-01 15:12:20 GMT 47.232193 16.994270 39,000 133 466 0
2020-04-01 15:12:17 GMT 47.236416 16.987680 39,000 133 466 0
2020-04-01 15:12:14 GMT 47.241444 16.980074 39,000 133 466 0
2020-04-01 15:12:10 GMT 47.246613 16.972046 39,000 133 465 0
2020-04-01 15:12:07 GMT 47.251465 16.964607 39,000 133 467 64
2020-04-01 15:12:03 GMT 47.256901 16.956200 39,000 133 467 -64
2020-04-01 15:11:57 GMT 47.267715 16.939476 39,000 133 467 -64
2020-04-01 15:11:53 GMT 47.271790 16.933159 39,000 133 466 0
2020-04-01 15:11:50 GMT 47.278080 16.923382 39,025 133 466 0
2020-04-01 15:11:47 GMT 47.285015 16.912607 39,025 133 466 0
2020-04-01 15:11:41 GMT 47.290878 16.903564 39,025 133 467 0
2020-04-01 15:11:37 GMT 47.296001 16.895563 39,000 133 467 64
2020-04-01 15:11:34 GMT 47.299774 16.889719 39,025 133 467 64
2020-04-01 15:11:31 GMT 47.306664 16.878944 39,000 133 467 64
2020-04-01 15:11:28 GMT 47.309036 16.875282 39,000 133 467 64
2020-04-01 15:11:25 GMT 47.314819 16.866280 39,000 133 467 64
2020-04-01 15:11:22 GMT 47.324352 16.851479 39,000 133 467 0
2020-04-01 15:11:18 GMT 47.324352 16.851479 39,000 133 467 0
2020-04-01 15:11:15 GMT 47.328003 16.845680 39,000 133 467 0
2020-04-01 15:11:12 GMT 47.332455 16.838732 39,000 133 467 0
2020-04-01 15:11:09 GMT 47.338318 16.829645 39,000 133 467 -64
2020-04-01 15:11:06 GMT 47.342697 16.822815 39,000 133 467 0
2020-04-01 15:11:03 GMT 47.347073 16.815985 39,000 133 467 0
2020-04-01 15:10:58 GMT 47.354008 16.805208 39,000 133 467 0
2020-04-01 15:10:55 GMT 47.357964 16.799011 39,000 133 467 0
2020-04-01 15:10:52 GMT 47.362061 16.792603 39,000 133 467 0
2020-04-01 15:10:48 GMT 47.369019 16.781754 39,000 133 468 0
2020-04-01 15:10:45 GMT 47.372498 16.776329 39,000 133 468 0
2020-04-01 15:10:42 GMT 47.376938 16.769463 39,000 133 468 0
2020-04-01 15:10:38 GMT 47.383659 16.759010 39,000 133 468 0
2020-04-01 15:10:35 GMT 47.387741 16.752640 39,000 133 468 0
2020-04-01 15:10:30 GMT 47.396927 16.738304 39,000 133 468 0
2020-04-01 15:10:27 GMT 47.403492 16.728092 39,000 133 468 0
2020-04-01 15:10:24 GMT 47.407448 16.721966 39,025 133 468 0
2020-04-01 15:10:21 GMT 47.407448 16.721966 39,000 133 468 0
2020-04-01 15:10:18 GMT 47.413376 16.712746 39,025 133 468 0
2020-04-01 15:10:15 GMT 47.418854 16.704220 39,000 133 468 0
2020-04-01 15:10:10 GMT 47.424728 16.695030 39,025 133 468 0
2020-04-01 15:10:07 GMT 47.429420 16.687738 39,000 133 468 0
2020-04-01 15:10:04 GMT 47.433937 16.680696 39,025 133 468 0
2020-04-01 15:10:01 GMT 47.437180 16.675667 39,000 133 468 0
2020-04-01 15:09:58 GMT 47.443085 16.666466 39,000 133 468 0
2020-04-01 15:09:55 GMT 47.448879 16.657387 39,000 133 468 0
2020-04-01 15:09:52 GMT 47.460148 16.639851 39,000 133 468 0
2020-04-01 15:09:47 GMT 47.463821 16.634125 39,000 133 468 0
2020-04-01 15:09:44 GMT 47.463821 16.634125 39,000 133 469 64
2020-04-01 15:09:41 GMT 47.467438 16.628426 39,000 133 469 0
2020-04-01 15:09:38 GMT 47.474346 16.617666 39,000 133 469 0
2020-04-01 15:09:35 GMT 47.476685 16.614075 39,000 133 469 0
2020-04-01 15:09:31 GMT 47.482677 16.604637 39,000 133 468 0
2020-04-01 15:09:28 GMT 47.486355 16.598864 39,000 133 469 0
2020-04-01 15:09:25 GMT 47.491608 16.590660 39,000 133 468 64
2020-04-01 15:09:21 GMT 47.497341 16.581610 39,000 133 469 0
2020-04-01 15:09:18 GMT 47.501438 16.575199 39,000 133 469 0
2020-04-01 15:09:15 GMT 47.512527 16.557770 39,000 133 469 0
2020-04-01 15:09:11 GMT 47.512527 16.557770 39,000 133 469 0
2020-04-01 15:09:07 GMT 47.517792 16.549530 39,000 133 469 0
2020-04-01 15:09:04 GMT 47.521828 16.543158 39,000 133 468 0
2020-04-01 15:09:00 GMT 47.529137 16.531607 39,000 133 468 0
2020-04-01 15:08:57 GMT 47.533188 16.525269 39,000 133 468 64
2020-04-01 15:08:54 GMT 47.536865 16.519493 39,000 133 468 64
2020-04-01 15:08:50 GMT 47.545029 16.506546 39,000 133 468 0
2020-04-01 15:08:46 GMT 47.549900 16.498859 39,000 133 468 0
2020-04-01 15:08:43 GMT 47.555054 16.490753 39,000 133 468 0
2020-04-01 15:08:40 GMT 47.557205 16.487320 39,000 133 468 0
2020-04-01 15:08:36 GMT 47.565586 16.474070 39,000 133 468 0
2020-04-01 15:08:33 GMT 47.568333 16.469774 39,000 133 467 0
2020-04-01 15:08:30 GMT 47.572105 16.463858 39,000 133 467 -64
2020-04-01 15:08:27 GMT 47.579132 16.452782 39,000 133 466 0
2020-04-01 15:08:23 GMT 47.582577 16.447308 39,000 133 467 0
2020-04-01 15:08:20 GMT 47.587601 16.439461 39,000 133 467 0
2020-04-01 15:08:16 GMT 47.594078 16.429209 39,000 133 466 0
2020-04-01 15:08:13 GMT 47.598080 16.422941 39,000 133 467 0
2020-04-01 15:08:09 GMT 47.604446 16.412819 39,000 133 467 -64
2020-04-01 15:08:06 GMT 47.609673 16.404560 39,000 133 466 -64
2020-04-01 15:08:02 GMT 47.614792 16.396530 39,000 133 467 -64
2020-04-01 15:07:59 GMT 47.623638 16.382587 39,000 133 467 -64
2020-04-01 15:07:56 GMT 47.623638 16.382587 39,000 133 467 0
2020-04-01 15:07:53 GMT 47.627781 16.376038 39,000 133 467 0
2020-04-01 15:07:50 GMT 47.632370 16.368874 39,000 133 467 0
2020-04-01 15:07:47 GMT 47.635895 16.363243 39,000 133 467 0
2020-04-01 15:07:44 GMT 47.641708 16.354111 39,000 133 467 0
2020-04-01 15:07:40 GMT 47.645844 16.347586 39,000 133 467 0
2020-04-01 15:07:37 GMT 47.650593 16.340050 39,000 133 467 64
2020-04-01 15:07:34 GMT 47.655029 16.333099 39,000 133 467 0
2020-04-01 15:07:31 GMT 47.667397 16.313499 39,000 133 467 0
2020-04-01 15:07:28 GMT 47.667397 16.313499 39,000 133 467 0
2020-04-01 15:07:25 GMT 47.669445 16.310331 39,000 133 465 0
2020-04-01 15:07:22 GMT 47.673111 16.304466 39,000 133 467 0
2020-04-01 15:07:19 GMT 47.677685 16.297232 39,000 133 467 0
2020-04-01 15:07:16 GMT 47.682480 16.289625 39,000 132 466 0
2020-04-01 15:07:12 GMT 47.693001 16.272936 39,000 133 467 0
2020-04-01 15:07:08 GMT 47.693001 16.272936 39,000 133 467 0
2020-04-01 15:07:05 GMT 47.697563 16.265753 39,000 133 468 0
2020-04-01 15:07:02 GMT 47.703690 16.255989 39,000 133 467 0
2020-04-01 15:06:59 GMT 47.707291 16.250257 39,000 133 467 0
2020-04-01 15:06:56 GMT 47.712616 16.241844 39,000 133 467 0
2020-04-01 15:06:52 GMT 47.717674 16.233780 39,000 133 467 0
2020-04-01 15:06:49 GMT 47.722885 16.225538 39,000 133 467 -64
2020-04-01 15:06:46 GMT 47.726471 16.219835 39,000 132 468 -64
2020-04-01 15:06:43 GMT 47.732197 16.210678 39,000 132 467 0
2020-04-01 15:06:40 GMT 47.734989 16.206242 39,000 132 467 0
2020-04-01 15:06:37 GMT 47.740295 16.197721 39,000 132 467 0
2020-04-01 15:06:34 GMT 47.743973 16.191856 39,000 132 467 0
2020-04-01 15:06:31 GMT 47.749329 16.183273 39,000 132 467 0
2020-04-01 15:06:28 GMT 47.756653 16.171600 39,000 132 466 64
2020-04-01 15:06:25 GMT 47.762329 16.162605 39,000 132 466 64
2020-04-01 15:06:22 GMT 47.762329 16.162605 39,000 133 467 64
2020-04-01 15:06:19 GMT 47.765247 16.157860 39,000 133 467 64
2020-04-01 15:06:16 GMT 47.771534 16.147860 39,000 133 467 64
2020-04-01 15:06:13 GMT 47.776237 16.140394 39,000 133 467 0
2020-04-01 15:06:10 GMT 47.780090 16.134247 39,000 133 467 0
2020-04-01 15:06:07 GMT 47.790207 16.118179 39,000 133 467 0
2020-04-01 15:06:03 GMT 47.790207 16.118179 39,000 133 467 0
2020-04-01 15:06:00 GMT 47.794006 16.112068 39,000 132 468 0
2020-04-01 15:05:57 GMT 47.798626 16.104689 39,000 132 468 0
2020-04-01 15:05:54 GMT 47.802155 16.099159 39,000 132 468 0
2020-04-01 15:05:51 GMT 47.808060 16.089684 39,000 132 467 0
2020-04-01 15:05:48 GMT 47.812225 16.083023 39,000 132 467 0
2020-04-01 15:05:44 GMT 47.822708 16.066200 39,000 132 467 0
2020-04-01 15:05:41 GMT 47.822708 16.066200 39,000 132 467 0
2020-04-01 15:05:37 GMT 47.827286 16.058922 39,000 132 468 0
2020-04-01 15:05:34 GMT 47.831635 16.052011 39,000 132 468 0
2020-04-01 15:05:31 GMT 47.836807 16.043747 39,000 132 467 -64
2020-04-01 15:05:28 GMT 47.841293 16.036537 39,000 132 467 -64
2020-04-01 15:05:25 GMT 47.846695 16.027954 39,000 132 467 0
2020-04-01 15:05:22 GMT 47.850357 16.022049 39,000 132 467 0
2020-04-01 15:05:18 GMT 47.861481 16.004196 39,000 132 466 0
2020-04-01 15:05:14 GMT 47.861481 16.004196 39,000 132 466 0
2020-04-01 15:05:11 GMT 47.866882 15.995613 39,000 132 467 0
2020-04-01 15:05:08 GMT 47.870682 15.989502 39,000 132 467 0
2020-04-01 15:05:05 GMT 47.875298 15.982150 39,000 132 467 0
2020-04-01 15:05:02 GMT 47.885166 15.966304 39,000 132 467 -64
2020-04-01 15:04:58 GMT 47.885166 15.966304 39,000 132 467 0
2020-04-01 15:04:54 GMT 47.890942 15.957008 39,025 132 467 0
2020-04-01 15:04:51 GMT 47.896339 15.948416 39,000 132 467 0
2020-04-01 15:04:48 GMT 47.900024 15.942467 39,025 132 467 -64
2020-04-01 15:04:45 GMT 47.908401 15.929008 39,000 132 467 -64
2020-04-01 15:04:42 GMT 47.908401 15.929008 39,025 132 467 -64
2020-04-01 15:04:39 GMT 47.913345 15.921043 39,025 132 467 0
2020-04-01 15:04:36 GMT 47.917244 15.914753 39,025 132 467 0
2020-04-01 15:04:33 GMT 47.921246 15.908274 39,025 132 467 0
2020-04-01 15:04:30 GMT 47.927765 15.897851 39,025 132 467 0
2020-04-01 15:04:27 GMT 47.930649 15.893132 39,025 132 468 0
2020-04-01 15:04:24 GMT 47.934860 15.886368 39,025 132 468 0
2020-04-01 15:04:21 GMT 47.939449 15.878977 39,025 132 468 0
2020-04-01 15:04:18 GMT 47.942940 15.873413 39,025 132 468 64
2020-04-01 15:04:14 GMT 47.951294 15.859932 39,000 132 468 0
2020-04-01 15:04:09 GMT 47.957047 15.850666 39,025 132 468 0
2020-04-01 15:04:06 GMT 47.961823 15.842903 39,025 132 468 0
2020-04-01 15:04:02 GMT 47.967892 15.833130 39,025 132 469 0
2020-04-01 15:03:58 GMT 47.972965 15.824961 39,025 132 469 -64
2020-04-01 15:03:54 GMT 47.980137 15.813411 39,025 132 469 0
2020-04-01 15:03:51 GMT 47.984325 15.806580 39,025 132 468 0
2020-04-01 15:03:48 GMT 47.988007 15.800674 39,025 132 468 0
2020-04-01 15:03:45 GMT 47.991261 15.795382 39,025 132 468 0
2020-04-01 15:03:42 GMT 47.997780 15.784889 39,000 132 468 0
2020-04-01 15:03:39 GMT 48.001503 15.778832 39,000 132 468 0
2020-04-01 15:03:36 GMT 48.006409 15.771011 39,025 132 469 0
2020-04-01 15:03:33 GMT 48.010208 15.764832 39,000 132 469 0
2020-04-01 15:03:29 GMT 48.016026 15.755451 39,000 132 469 64
2020-04-01 15:03:26 GMT 48.021103 15.747282 39,000 132 469 0
2020-04-01 15:03:23 GMT 48.024685 15.741436 39,000 132 469 0
2020-04-01 15:03:19 GMT 48.031403 15.730568 39,025 132 469 0
2020-04-01 15:03:16 GMT 48.036392 15.722534 39,025 132 469 0
2020-04-01 15:03:13 GMT 48.039536 15.717421 39,025 132 469 0
2020-04-01 15:03:10 GMT 48.044083 15.710037 39,025 132 468 0
2020-04-01 15:03:06 GMT 48.048660 15.702632 39,025 132 468 0
2020-04-01 15:03:03 GMT 48.054710 15.692772 39,025 132 469 0
2020-04-01 15:03:00 GMT 48.058205 15.687068 39,025 132 469 0
2020-04-01 15:02:57 GMT 48.066147 15.674194 39,000 132 469 0
2020-04-01 15:02:51 GMT 48.072262 15.664250 39,000 132 469 64
2020-04-01 15:02:48 GMT 48.075985 15.658123 39,000 132 469 64
2020-04-01 15:02:45 GMT 48.081482 15.649200 39,000 132 469 64
2020-04-01 15:02:40 GMT 48.087204 15.639883 39,000 132 469 0
2020-04-01 15:02:37 GMT 48.091690 15.632584 39,000 132 468 0
2020-04-01 15:02:34 GMT 48.096222 15.625168 39,000 132 468 0
2020-04-01 15:02:31 GMT 48.102287 15.615305 39,000 132 469 0
2020-04-01 15:02:28 GMT 48.105778 15.609600 39,000 132 468 0
2020-04-01 15:02:24 GMT 48.110229 15.602440 39,000 132 469 0
2020-04-01 15:02:21 GMT 48.116043 15.592896 39,000 132 469 0
2020-04-01 15:02:18 GMT 48.125519 15.577416 39,000 132 469 0
2020-04-01 15:02:15 GMT 48.125519 15.577416 39,000 132 468 0
2020-04-01 15:02:12 GMT 48.129364 15.571198 39,000 132 468 0
2020-04-01 15:02:09 GMT 48.133255 15.564812 39,000 132 468 0
2020-04-01 15:02:06 GMT 48.138458 15.556359 39,000 132 468 0
2020-04-01 15:02:02 GMT 48.143921 15.547508 39,000 132 468 0
2020-04-01 15:01:58 GMT 48.149632 15.538189 39,000 132 468 0
2020-04-01 15:01:55 GMT 48.153397 15.532059 39,000 132 468 0
2020-04-01 15:01:52 GMT 48.162369 15.517414 39,000 132 468 0
2020-04-01 15:01:49 GMT 48.166298 15.511033 39,000 132 468 0
2020-04-01 15:01:46 GMT 48.166298 15.511033 39,000 132 468 -64
2020-04-01 15:01:42 GMT 48.171745 15.502143 39,000 132 468 0
2020-04-01 15:01:39 GMT 48.183014 15.483680 39,000 132 468 0
2020-04-01 15:01:35 GMT 48.183014 15.483680 39,000 132 468 0
2020-04-01 15:01:32 GMT 48.190502 15.471497 39,000 132 468 0
2020-04-01 15:01:26 GMT 48.196289 15.461989 38,975 132 467 64
2020-04-01 15:01:23 GMT 48.199116 15.457330 39,000 132 467 0
2020-04-01 15:01:19 GMT 48.207687 15.443186 39,000 132 467 0
2020-04-01 15:01:13 GMT 48.216614 15.428537 39,000 132 467 64
2020-04-01 15:01:09 GMT 48.220230 15.422622 39,000 132 467 64
2020-04-01 15:01:06 GMT 48.225231 15.414397 38,975 132 468 0
2020-04-01 15:01:03 GMT 48.229385 15.407480 39,000 132 467 64
2020-04-01 15:00:59 GMT 48.234695 15.398818 39,000 132 468 0
2020-04-01 15:00:56 GMT 48.241104 15.388254 38,975 132 468 0
2020-04-01 15:00:52 GMT 48.245773 15.380507 38,975 132 468 0
2020-04-01 15:00:49 GMT 48.249847 15.373817 39,000 132 468 64
2020-04-01 15:00:46 GMT 48.254745 15.365753 38,975 132 468 64
2020-04-01 15:00:43 GMT 48.258408 15.359661 38,975 132 468 0
2020-04-01 15:00:40 GMT 48.263824 15.350792 38,975 132 467 0
2020-04-01 15:00:37 GMT 48.267361 15.344937 38,975 132 467 0
2020-04-01 15:00:33 GMT 48.272854 15.335830 38,975 132 467 0
2020-04-01 15:00:29 GMT 48.279232 15.325350 38,975 132 467 0
2020-04-01 15:00:26 GMT 48.282074 15.320716 38,975 132 467 0
2020-04-01 15:00:23 GMT 48.287750 15.311420 38,975 132 467 0
2020-04-01 15:00:19 GMT 48.293335 15.302194 38,975 132 467 0
2020-04-01 15:00:16 GMT 48.296722 15.296631 38,975 132 467 0
2020-04-01 15:00:11 GMT 48.307770 15.278441 38,975 132 467 -64
2020-04-01 15:00:07 GMT 48.310776 15.273461 39,000 132 467 -64
2020-04-01 15:00:03 GMT 48.317139 15.263038 39,000 132 467 -64
2020-04-01 15:00:00 GMT 48.322292 15.254589 39,000 132 467 -64
2020-04-01 14:59:57 GMT 48.325058 15.250009 39,000 132 467 -64
2020-04-01 14:59:54 GMT 48.330597 15.240925 39,000 132 467 -64
2020-04-01 14:59:50 GMT 48.335678 15.232614 39,000 132 467 -64
2020-04-01 14:59:47 GMT 48.340031 15.225533 39,000 132 467 -64
2020-04-01 14:59:44 GMT 48.344376 15.218318 39,000 132 467 -64
2020-04-01 14:59:41 GMT 48.348923 15.210933 39,000 132 467 0
2020-04-01 14:59:37 GMT 48.354858 15.201205 39,000 132 467 0
2020-04-01 14:59:33 GMT 48.360901 15.191275 39,000 132 467 0
2020-04-01 14:59:30 GMT 48.363968 15.186204 39,000 132 467 0
2020-04-01 14:59:27 GMT 48.369873 15.176486 39,000 132 467 64
2020-04-01 14:59:21 GMT 48.379257 15.160992 39,000 132 467 0
2020-04-01 14:59:16 GMT 48.384521 15.152400 39,000 132 470 -64
2020-04-01 14:59:13 GMT 48.389935 15.143425 39,000 132 468 -64
2020-04-01 14:59:10 GMT 48.393494 15.137540 39,000 132 468 0
2020-04-01 14:59:06 GMT 48.399216 15.128033 39,025 132 469 0
2020-04-01 14:59:01 GMT 48.406601 15.115742 39,025 132 468 0
2020-04-01 14:58:56 GMT 48.413544 15.104300 39,025 132 468 0
2020-04-01 14:58:51 GMT 48.421543 15.090950 39,025 132 468 0
2020-04-01 14:58:48 GMT 48.424614 15.085819 39,025 132 468 0
2020-04-01 14:58:45 GMT 48.429565 15.077538 39,025 132 469 0
2020-04-01 14:58:42 GMT 48.434601 15.069228 39,025 132 469 0
2020-04-01 14:58:38 GMT 48.441330 15.058030 39,025 132 469 0
2020-04-01 14:58:32 GMT 48.449432 15.044579 39,000 132 469 64
2020-04-01 14:58:28 GMT 48.453735 15.037466 39,000 132 469 64
2020-04-01 14:58:25 GMT 48.459137 15.028452 39,000 132 469 0
2020-04-01 14:58:21 GMT 48.464371 15.019756 39,000 132 470 0
2020-04-01 14:58:18 GMT 48.473637 15.004361 39,000 132 470 0
2020-04-01 14:58:15 GMT 48.473637 15.004361 39,000 132 470 0
2020-04-01 14:58:11 GMT 48.479454 14.994603 39,000 132 470 64
2020-04-01 14:58:07 GMT 48.485226 14.985062 39,000 132 470 0
2020-04-01 14:58:04 GMT 48.489510 14.977907 39,000 132 470 0
2020-04-01 14:58:01 GMT 48.493744 14.970824 39,000 132 470 64
2020-04-01 14:57:58 GMT 48.497704 14.964246 39,000 132 470 64
2020-04-01 14:57:55 GMT 48.503616 14.954344 39,000 132 470 0
2020-04-01 14:57:50 GMT 48.509109 14.945237 39,000 132 470 -64
2020-04-01 14:57:47 GMT 48.518417 14.929716 39,000 132 470 -64
2020-04-01 14:57:41 GMT 48.523499 14.921194 39,000 131 470 -64
2020-04-01 14:57:36 GMT 48.530380 14.909748 39,000 131 470 0
2020-04-01 14:57:33 GMT 48.534710 14.902448 39,000 131 470 0
2020-04-01 14:57:30 GMT 48.539413 14.894642 39,000 132 470 64
2020-04-01 14:57:27 GMT 48.544300 14.886475 39,000 131 470 64
2020-04-01 14:57:24 GMT 48.548035 14.880207 39,000 132 470 64
2020-04-01 14:57:21 GMT 48.558060 14.863446 39,000 131 470 0
2020-04-01 14:57:17 GMT 48.558060 14.863446 39,000 131 470 64
2020-04-01 14:57:14 GMT 48.563141 14.854995 39,000 131 470 0
2020-04-01 14:57:10 GMT 48.574375 14.836169 39,000 131 470 -64
2020-04-01 14:57:06 GMT 48.574375 14.836169 39,000 131 470 -64
2020-04-01 14:57:03 GMT 48.577911 14.830242 39,000 131 470 -64
2020-04-01 14:57:00 GMT 48.582661 14.822291 39,000 131 470 0
2020-04-01 14:56:56 GMT 48.593323 14.804439 39,000 131 470 0
2020-04-01 14:56:53 GMT 48.593323 14.804439 39,000 131 470 0
2020-04-01 14:56:49 GMT 48.598118 14.796343 39,000 131 470 64
2020-04-01 14:56:45 GMT 48.604725 14.785285 39,000 131 470 0
2020-04-01 14:56:42 GMT 48.608780 14.778442 39,000 131 470 0
2020-04-01 14:56:39 GMT 48.613586 14.770343 39,000 131 470 0
2020-04-01 14:56:36 GMT 48.618088 14.762806 39,000 131 470 0
2020-04-01 14:56:33 GMT 48.622368 14.755578 39,000 131 470 0
2020-04-01 14:56:30 GMT 48.625397 14.750447 39,000 131 470 0
2020-04-01 14:56:27 GMT 48.630798 14.741328 39,000 131 470 0
2020-04-01 14:56:24 GMT 48.634750 14.734618 39,000 131 470 0
2020-04-01 14:56:21 GMT 48.639874 14.725944 39,000 131 470 0
2020-04-01 14:56:18 GMT 48.643364 14.720090 39,000 131 470 0
2020-04-01 14:56:15 GMT 48.648788 14.710975 39,000 131 470 0
2020-04-01 14:56:12 GMT 48.652313 14.704918 39,000 131 470 0
2020-04-01 14:56:09 GMT 48.655979 14.698767 39,000 131 470 0
2020-04-01 14:56:05 GMT 48.667152 14.679975 39,000 131 470 0
2020-04-01 14:56:02 GMT 48.667152 14.679975 39,000 131 470 0
2020-04-01 14:55:59 GMT 48.671436 14.672747 39,000 131 470 0
2020-04-01 14:55:56 GMT 48.674416 14.667688 39,000 131 470 0
2020-04-01 14:55:53 GMT 48.679630 14.658942 39,000 131 470 0
2020-04-01 14:55:49 GMT 48.685410 14.649071 39,000 131 470 0
2020-04-01 14:55:45 GMT 48.691872 14.638270 39,000 131 470 0
2020-04-01 14:55:42 GMT 48.694931 14.633014 39,000 131 470 0
2020-04-01 14:55:39 GMT 48.700287 14.624000 39,000 131 470 0
2020-04-01 14:55:33 GMT 48.707932 14.611042 39,000 131 470 0
2020-04-01 14:55:30 GMT 48.714157 14.600478 39,000 131 470 0
2020-04-01 14:55:26 GMT 48.719559 14.591393 39,000 131 471 0
2020-04-01 14:55:23 GMT 48.724686 14.582660 39,000 131 471 0
2020-04-01 14:55:19 GMT 48.729950 14.573716 39,000 131 471 0
2020-04-01 14:55:16 GMT 48.732971 14.568505 39,000 131 471 0
2020-04-01 14:55:13 GMT 48.738968 14.558364 39,000 131 471 0
2020-04-01 14:55:10 GMT 48.743362 14.550899 39,000 131 470 64
2020-04-01 14:55:06 GMT 48.753250 14.534137 39,000 131 470 0
2020-04-01 14:55:03 GMT 48.756363 14.528926 39,000 131 470 0
2020-04-01 14:54:57 GMT 48.759792 14.523131 39,000 131 470 64
2020-04-01 14:54:54 GMT 48.765152 14.514066 39,000 131 470 0
2020-04-01 14:54:51 GMT 48.774033 14.499066 39,000 131 470 0
2020-04-01 14:54:45 GMT 48.778458 14.491617 38,975 131 470 0
2020-04-01 14:54:42 GMT 48.782696 14.484534 38,975 131 470 0
2020-04-01 14:54:39 GMT 48.790657 14.471090 38,975 131 470 64
2020-04-01 14:54:33 GMT 48.795635 14.462634 38,975 131 470 64
2020-04-01 14:54:30 GMT 48.800720 14.453994 38,975 131 470 64
2020-04-01 14:54:27 GMT 48.803364 14.449551 38,975 131 470 64
2020-04-01 14:54:23 GMT 48.810440 14.437553 38,975 131 471 0
2020-04-01 14:54:20 GMT 48.818573 14.423711 38,975 131 471 0
2020-04-01 14:54:17 GMT 48.818573 14.423711 38,975 131 471 0
2020-04-01 14:54:13 GMT 48.823799 14.414785 38,975 131 471 0
2020-04-01 14:54:10 GMT 48.828922 14.406040 38,975 131 471 0
2020-04-01 14:54:07 GMT 48.833019 14.399101 38,975 131 471 0
2020-04-01 14:54:03 GMT 48.839951 14.387301 38,975 131 470 -64
2020-04-01 14:54:00 GMT 48.845074 14.378574 38,975 131 470 -64
2020-04-01 14:53:57 GMT 48.847824 14.373920 39,000 131 470 -64
2020-04-01 14:53:54 GMT 48.856853 14.358625 39,000 131 470 -64
2020-04-01 14:53:51 GMT 48.856853 14.358625 39,000 131 470 0
2020-04-01 14:53:48 GMT 48.860870 14.351807 39,000 131 470 0
2020-04-01 14:53:45 GMT 48.866631 14.342073 39,000 131 470 0
2020-04-01 14:53:41 GMT 48.871189 14.334339 39,000 131 470 0
2020-04-01 14:53:38 GMT 48.875427 14.327158 39,000 131 471 0
2020-04-01 14:53:35 GMT 48.879711 14.319811 39,000 131 470 0
2020-04-01 14:53:32 GMT 48.887531 14.306368 39,000 131 470 -64
2020-04-01 14:53:29 GMT 48.887531 14.306368 39,000 131 470 -64
2020-04-01 14:53:26 GMT 48.891720 14.299140 39,000 131 471 0
2020-04-01 14:53:23 GMT 48.896610 14.290755 39,000 131 471 -64
2020-04-01 14:53:20 GMT 48.900986 14.283166 39,000 131 471 0
2020-04-01 14:53:17 GMT 48.906876 14.273001 39,000 131 471 0
2020-04-01 14:53:14 GMT 48.908707 14.269832 39,000 131 471 0
2020-04-01 14:53:11 GMT 48.918674 14.252665 39,000 131 471 0
2020-04-01 14:53:08 GMT 48.918674 14.252665 39,000 131 471 0
2020-04-01 14:53:05 GMT 48.922726 14.245581 39,000 131 471 0
2020-04-01 14:53:02 GMT 48.926216 14.239655 39,000 131 471 0
2020-04-01 14:52:59 GMT 48.931229 14.230887 39,000 131 471 0
2020-04-01 14:52:56 GMT 48.935665 14.223247 39,000 131 471 0
2020-04-01 14:52:53 GMT 48.940834 14.214285 39,000 131 472 0
2020-04-01 14:52:50 GMT 48.943680 14.209337 39,000 131 472 0
2020-04-01 14:52:47 GMT 48.949493 14.199195 39,025 131 472 -64
2020-04-01 14:52:44 GMT 48.956333 14.187325 39,000 131 472 0
2020-04-01 14:52:41 GMT 48.956333 14.187325 39,000 131 472 -64
2020-04-01 14:52:38 GMT 48.961224 14.178724 39,025 131 472 -64
2020-04-01 14:52:35 GMT 48.965691 14.170990 39,025 131 472 -64
2020-04-01 14:52:32 GMT 48.971054 14.161588 39,025 131 472 -64
2020-04-01 14:52:27 GMT 48.977097 14.151024 39,025 131 472 0
2020-04-01 14:52:24 GMT 48.981659 14.143090 39,025 131 473 0
2020-04-01 14:52:21 GMT 48.984879 14.137503 39,025 131 472 0
2020-04-01 14:52:17 GMT 48.990601 14.127573 39,025 131 473 -64
2020-04-01 14:52:14 GMT 48.995499 14.119051 39,025 131 473 -64
2020-04-01 14:52:11 GMT 49.000076 14.111093 39,025 131 473 -64
2020-04-01 14:52:07 GMT 49.007355 14.098495 39,025 131 473 0
2020-04-01 14:52:04 GMT 49.010101 14.093797 39,025 131 474 0
2020-04-01 14:52:00 GMT 49.016464 14.082782 39,025 131 473 -64
2020-04-01 14:51:57 GMT 49.019943 14.076867 39,025 132 474 0
2020-04-01 14:51:54 GMT 49.025002 14.068210 39,025 132 474 64
2020-04-01 14:51:51 GMT 49.029282 14.061021 39,000 129 474 64
2020-04-01 14:51:48 GMT 49.032959 14.054766 39,025 132 474 64
2020-04-01 14:51:45 GMT 49.037800 14.046743 39,025 132 474 64
2020-04-01 14:51:42 GMT 49.043713 14.036986 39,025 132 474 64
2020-04-01 14:51:39 GMT 49.046906 14.031724 39,025 132 474 64
2020-04-01 14:51:36 GMT 49.051441 14.024337 39,000 132 475 128
2020-04-01 14:51:33 GMT 49.055283 14.017921 39,025 132 475 128
2020-04-01 14:51:30 GMT 49.059357 14.010965 39,000 128 473 0
2020-04-01 14:51:27 GMT 49.064663 14.001208 39,025 126 474 0
2020-04-01 14:51:24 GMT 49.068108 13.994125 39,025 114 470 0
2020-04-01 14:51:21 GMT 49.072678 13.984187 39,025 122 472 0
2020-04-01 14:51:17 GMT 49.075882 13.976370 39,025 119 471 -64
2020-04-01 14:51:14 GMT 49.079498 13.966792 39,000 114 470 0
2020-04-01 14:51:11 GMT 49.083141 13.956251 39,025 115 470 -64
2020-04-01 14:51:08 GMT 49.088730 13.938326 39,025 115 470 0
2020-04-01 14:51:05 GMT 49.088730 13.938326 39,025 114 470 0
2020-04-01 14:51:02 GMT 49.090919 13.931170 39,025 114 470 64
2020-04-01 14:50:59 GMT 49.094101 13.920593 39,000 114 470 0
2020-04-01 14:50:55 GMT 49.097248 13.910282 39,025 114 470 0
2020-04-01 14:50:52 GMT 49.101208 13.897271 39,000 114 470 0
2020-04-01 14:50:49 GMT 49.103760 13.888832 39,000 114 471 64
2020-04-01 14:50:46 GMT 49.105545 13.882916 39,000 114 470 64
2020-04-01 14:50:43 GMT 49.108475 13.873268 39,000 114 469 0
2020-04-01 14:50:40 GMT 49.110947 13.864957 39,000 114 470 64
2020-04-01 14:50:36 GMT 49.114986 13.851591 39,000 114 470 64
2020-04-01 14:50:33 GMT 49.117538 13.843055 39,000 114 470 64
2020-04-01 14:50:30 GMT 49.120239 13.834111 39,000 114 470 64
2020-04-01 14:50:26 GMT 49.124313 13.820519 39,000 114 470 64
2020-04-01 14:50:23 GMT 49.126530 13.813139 39,000 114 470 64
2020-04-01 14:50:20 GMT 49.129509 13.803093 38,975 114 470 64
2020-04-01 14:50:17 GMT 49.132095 13.794603 39,000 114 470 64
2020-04-01 14:50:14 GMT 49.135235 13.784011 38,975 114 470 64
2020-04-01 14:50:11 GMT 49.137562 13.776350 39,000 114 470 0
2020-04-01 14:50:08 GMT 49.140217 13.767387 38,975 114 470 0
2020-04-01 14:50:05 GMT 49.142761 13.758897 38,975 114 470 0
2020-04-01 14:50:02 GMT 49.145664 13.749245 39,000 114 470 0
2020-04-01 14:49:59 GMT 49.148083 13.741078 39,000 114 469 0
2020-04-01 14:49:56 GMT 49.151855 13.728501 39,000 114 469 0
2020-04-01 14:49:53 GMT 49.153763 13.722285 39,000 114 470 0
2020-04-01 14:49:50 GMT 49.156540 13.712980 38,975 114 469 0
2020-04-01 14:49:46 GMT 49.160660 13.699317 39,000 114 470 0
2020-04-01 14:49:43 GMT 49.163307 13.690555 38,975 114 470 64
2020-04-01 14:49:39 GMT 49.166107 13.681288 38,975 114 469 0
2020-04-01 14:49:35 GMT 49.170197 13.667715 38,975 114 469 0
2020-04-01 14:49:32 GMT 49.172523 13.660126 38,975 114 469 0
2020-04-01 14:49:29 GMT 49.175037 13.651814 38,975 114 469 0
2020-04-01 14:49:26 GMT 49.178192 13.641498 38,975 114 469 0
2020-04-01 14:49:22 GMT 49.181416 13.630853 38,975 114 469 0
2020-04-01 14:49:19 GMT 49.184254 13.621457 39,000 114 469 0
2020-04-01 14:49:16 GMT 49.187393 13.611145 39,000 114 469 0
2020-04-01 14:49:13 GMT 49.190495 13.600930 39,000 114 469 0
2020-04-01 14:49:10 GMT 49.192776 13.593485 39,000 114 469 0
2020-04-01 14:49:07 GMT 49.195473 13.584595 39,000 114 469 0
2020-04-01 14:49:04 GMT 49.198734 13.573825 39,000 114 469 0
2020-04-01 14:49:01 GMT 49.201172 13.565791 39,000 114 468 0
2020-04-01 14:48:58 GMT 49.204468 13.554805 39,000 114 468 0
2020-04-01 14:48:54 GMT 49.207993 13.543185 38,975 114 468 0
2020-04-01 14:48:51 GMT 49.210236 13.535720 39,000 114 468 0
2020-04-01 14:48:48 GMT 49.212433 13.528395 39,000 114 468 0
2020-04-01 14:48:45 GMT 49.214748 13.520701 39,000 114 468 -64
2020-04-01 14:48:42 GMT 49.218292 13.508888 39,000 114 469 -64
2020-04-01 14:48:39 GMT 49.221176 13.499239 39,000 114 469 -64
2020-04-01 14:48:36 GMT 49.223877 13.490155 39,000 114 469 -64
2020-04-01 14:48:32 GMT 49.226433 13.481598 39,000 114 469 -64
2020-04-01 14:48:29 GMT 49.230854 13.466781 39,000 114 469 -64
2020-04-01 14:48:24 GMT 49.233788 13.456879 39,000 114 469 -64
2020-04-01 14:48:21 GMT 49.236954 13.446254 39,025 114 469 -64
2020-04-01 14:48:18 GMT 49.243103 13.425504 39,025 114 468 0
2020-04-01 14:48:14 GMT 49.243103 13.425504 39,025 114 468 0
2020-04-01 14:48:11 GMT 49.245438 13.417546 39,025 114 468 0
2020-04-01 14:48:08 GMT 49.248230 13.408109 39,000 114 469 0
2020-04-01 14:48:05 GMT 49.252029 13.395151 39,000 114 469 64
2020-04-01 14:48:01 GMT 49.254410 13.387052 39,000 114 468 0
2020-04-01 14:47:58 GMT 49.257111 13.377897 39,000 114 468 0
2020-04-01 14:47:55 GMT 49.260086 13.367685 39,000 113 469 0
2020-04-01 14:47:51 GMT 49.263657 13.355502 39,000 114 470 -64
2020-04-01 14:47:48 GMT 49.266357 13.346135 39,000 113 469 0
2020-04-01 14:47:45 GMT 49.268738 13.337966 39,000 113 469 0
2020-04-01 14:47:41 GMT 49.272491 13.325078 39,000 113 469 0
2020-04-01 14:47:38 GMT 49.277893 13.306627 39,000 114 469 0
2020-04-01 14:47:34 GMT 49.281223 13.295264 39,000 114 469 0
2020-04-01 14:47:31 GMT 49.281223 13.295264 39,000 114 469 0
2020-04-01 14:47:28 GMT 49.283936 13.286203 39,000 114 469 0
2020-04-01 14:47:25 GMT 49.286728 13.276625 39,000 114 470 -64
2020-04-01 14:47:21 GMT 49.293915 13.252470 39,000 114 469 -64
2020-04-01 14:47:18 GMT 49.293915 13.252470 39,000 114 469 -64
2020-04-01 14:47:15 GMT 49.296211 13.244669 39,000 114 470 -64
2020-04-01 14:47:12 GMT 49.298027 13.238670 39,000 114 470 -64
2020-04-01 14:47:09 GMT 49.301102 13.228314 39,000 114 469 -64
2020-04-01 14:47:06 GMT 49.306267 13.210843 39,025 114 470 -64
2020-04-01 14:47:03 GMT 49.306267 13.210843 39,025 114 469 -64
2020-04-01 14:47:00 GMT 49.309113 13.201270 39,025 114 469 0
2020-04-01 14:46:57 GMT 49.311760 13.192267 39,025 114 469 0
2020-04-01 14:46:54 GMT 49.314056 13.184580 39,025 114 469 0
2020-04-01 14:46:51 GMT 49.316696 13.175643 39,025 114 470 0
2020-04-01 14:46:48 GMT 49.320232 13.163573 39,025 114 470 0
2020-04-01 14:46:45 GMT 49.322479 13.155917 39,025 114 470 0
2020-04-01 14:46:42 GMT 49.326004 13.143874 39,025 114 470 0
2020-04-01 14:46:39 GMT 49.328430 13.135634 39,025 114 470 0
2020-04-01 14:46:36 GMT 49.331219 13.126132 39,025 114 470 0
2020-04-01 14:46:32 GMT 49.334564 13.114577 39,025 114 470 0
2020-04-01 14:46:29 GMT 49.335922 13.109870 39,025 114 470 64
2020-04-01 14:46:26 GMT 49.338547 13.100985 39,025 114 470 64
2020-04-01 14:46:23 GMT 49.342209 13.088449 39,025 114 471 0
2020-04-01 14:46:20 GMT 49.344406 13.080914 39,000 114 470 64
2020-04-01 14:46:17 GMT 49.347794 13.069364 39,025 114 470 64
2020-04-01 14:46:12 GMT 49.351562 13.056384 39,000 114 471 0
2020-04-01 14:46:09 GMT 49.354065 13.047814 39,000 114 471 0
2020-04-01 14:46:06 GMT 49.356869 13.038169 39,000 114 471 0
2020-04-01 14:46:03 GMT 49.359192 13.030419 39,000 114 471 0
2020-04-01 14:46:00 GMT 49.362396 13.019503 39,000 114 471 0
2020-04-01 14:45:57 GMT 49.366089 13.006801 39,000 114 471 0
2020-04-01 14:45:54 GMT 49.368275 12.999500 39,000 114 471 0
2020-04-01 14:45:51 GMT 49.370510 12.991767 39,000 114 471 0
2020-04-01 14:45:48 GMT 49.373474 12.981826 39,000 114 471 64
2020-04-01 14:45:44 GMT 49.377686 12.967459 39,000 114 471 64
2020-04-01 14:45:41 GMT 49.379379 12.961614 39,000 114 471 0
2020-04-01 14:45:38 GMT 49.382290 12.951724 39,000 114 471 0
2020-04-01 14:45:35 GMT 49.384521 12.944207 39,000 114 471 0
2020-04-01 14:45:32 GMT 49.388626 12.930134 39,000 114 470 0
2020-04-01 14:45:29 GMT 49.390228 12.924640 39,000 114 470 64
2020-04-01 14:45:26 GMT 49.392929 12.915415 39,000 113 470 0
2020-04-01 14:45:23 GMT 49.395554 12.906478 39,000 114 470 0
2020-04-01 14:45:19 GMT 49.398560 12.896048 39,000 113 470 0
2020-04-01 14:45:16 GMT 49.404190 12.876751 39,000 113 470 64
2020-04-01 14:45:13 GMT 49.404190 12.876751 39,000 113 470 0
2020-04-01 14:45:10 GMT 49.407898 12.863934 39,000 113 470 0
2020-04-01 14:45:07 GMT 49.409180 12.859567 39,000 113 471 -64
2020-04-01 14:45:04 GMT 49.412247 12.848863 39,000 113 470 -64
2020-04-01 14:45:01 GMT 49.415386 12.838103 39,000 113 471 0
2020-04-01 14:44:58 GMT 49.417328 12.831257 39,000 113 470 0
2020-04-01 14:44:55 GMT 49.419846 12.822453 39,000 113 470 -64
2020-04-01 14:44:52 GMT 49.422089 12.814707 39,000 113 470 0
2020-04-01 14:44:49 GMT 49.425156 12.804002 39,000 113 470 0
2020-04-01 14:44:46 GMT 49.428513 12.792391 39,000 113 470 64
2020-04-01 14:44:43 GMT 49.433258 12.775943 39,000 113 470 0
2020-04-01 14:44:40 GMT 49.435867 12.766764 39,000 113 470 64
2020-04-01 14:44:37 GMT 49.435867 12.766764 39,000 113 470 64
2020-04-01 14:44:34 GMT 49.438156 12.758813 39,000 113 470 64
2020-04-01 14:44:31 GMT 49.442093 12.745297 39,000 113 470 0
2020-04-01 14:44:28 GMT 49.443375 12.740671 39,000 113 470 0
2020-04-01 14:44:25 GMT 49.446899 12.728456 39,000 113 470 0
2020-04-01 14:44:21 GMT 49.449230 12.720386 39,000 113 470 0
2020-04-01 14:44:18 GMT 49.453171 12.706845 39,000 113 470 -64
2020-04-01 14:44:15 GMT 49.455421 12.699082 39,000 113 469 -64
2020-04-01 14:44:12 GMT 49.457561 12.691659 39,000 113 469 0
2020-04-01 14:44:08 GMT 49.460999 12.679813 39,000 113 469 0
2020-04-01 14:44:05 GMT 49.463985 12.669612 39,000 113 469 0
2020-04-01 14:44:02 GMT 49.466686 12.660184 39,000 113 470 0
2020-04-01 14:43:58 GMT 49.469898 12.649050 39,000 113 470 0
2020-04-01 14:43:55 GMT 49.472832 12.638805 39,000 113 470 64
2020-04-01 14:43:52 GMT 49.475346 12.630120 39,000 113 470 0
2020-04-01 14:43:48 GMT 49.478760 12.618304 39,000 113 470 0
2020-04-01 14:43:45 GMT 49.481461 12.608908 39,000 113 470 0
2020-04-01 14:43:42 GMT 49.484097 12.599759 39,000 113 470 0
2020-04-01 14:43:38 GMT 49.487274 12.588670 39,000 113 470 -64
2020-04-01 14:43:35 GMT 49.490288 12.578232 39,000 113 470 0
2020-04-01 14:43:32 GMT 49.492950 12.569010 39,000 113 469 64
2020-04-01 14:43:29 GMT 49.496017 12.558385 39,000 113 470 -64
2020-04-01 14:43:26 GMT 49.499039 12.547688 39,000 113 470 -64
2020-04-01 14:43:23 GMT 49.501053 12.540749 39,000 113 470 0
2020-04-01 14:43:19 GMT 49.504349 12.529257 39,000 113 469 0
2020-04-01 14:43:16 GMT 49.506908 12.520406 39,000 113 469 0
2020-04-01 14:43:13 GMT 49.509235 12.512240 39,000 113 469 -64
2020-04-01 14:43:10 GMT 49.511993 12.502658 39,000 113 469 0
2020-04-01 14:43:07 GMT 49.514465 12.493985 39,000 113 469 0
2020-04-01 14:43:04 GMT 49.519382 12.476757 39,000 113 469 0
2020-04-01 14:43:01 GMT 49.523247 12.463247 39,000 113 468 -64
2020-04-01 14:42:57 GMT 49.523247 12.463247 39,000 113 469 128
2020-04-01 14:42:54 GMT 49.526276 12.452706 39,000 113 469 64
2020-04-01 14:42:50 GMT 49.529488 12.441349 39,000 113 469 64
2020-04-01 14:42:47 GMT 49.531952 12.432765 39,000 113 469 64
2020-04-01 14:42:44 GMT 49.534607 12.423441 39,000 113 469 0
2020-04-01 14:42:41 GMT 49.537449 12.413512 39,000 113 469 -64
2020-04-01 14:42:37 GMT 49.541172 12.400298 39,000 113 468 0
2020-04-01 14:42:34 GMT 49.543625 12.391639 39,000 113 468 -64
2020-04-01 14:42:31 GMT 49.545967 12.383373 39,000 113 469 -64
2020-04-01 14:42:27 GMT 49.549412 12.371199 39,000 113 469 -64
2020-04-01 14:42:24 GMT 49.551590 12.363450 39,000 113 468 64
2020-04-01 14:42:21 GMT 49.557323 12.343362 39,000 113 468 0
2020-04-01 14:42:18 GMT 49.559883 12.334306 39,000 113 468 64
2020-04-01 14:42:15 GMT 49.559883 12.334306 39,000 113 467 0
2020-04-01 14:42:12 GMT 49.562584 12.324879 39,000 113 467 64
2020-04-01 14:42:09 GMT 49.565140 12.315818 39,000 113 467 64
2020-04-01 14:42:05 GMT 49.568729 12.303203 39,000 113 468 0
2020-04-01 14:42:02 GMT 49.571182 12.294496 38,975 113 468 0
2020-04-01 14:41:59 GMT 49.573849 12.285164 39,000 113 467 0
2020-04-01 14:41:56 GMT 49.576363 12.276331 39,000 113 468 64
2020-04-01 14:41:53 GMT 49.579018 12.267052 39,000 113 468 0
2020-04-01 14:41:50 GMT 49.581158 12.259406 39,000 113 467 0
2020-04-01 14:41:47 GMT 49.584595 12.247298 39,000 113 467 0
2020-04-01 14:41:44 GMT 49.587025 12.238770 38,975 113 467 0
2020-04-01 14:41:40 GMT 49.590145 12.227783 39,000 113 467 0
2020-04-01 14:41:36 GMT 49.594391 12.212605 39,000 113 467 0
2020-04-01 14:41:33 GMT 49.596222 12.206100 39,000 113 467 0
2020-04-01 14:41:30 GMT 49.598969 12.196342 39,000 113 467 0
2020-04-01 14:41:27 GMT 49.601120 12.188608 38,975 113 467 64
2020-04-01 14:41:24 GMT 49.603775 12.179140 38,975 113 467 0
2020-04-01 14:41:21 GMT 49.608856 12.160974 38,975 113 467 0
2020-04-01 14:41:18 GMT 49.608856 12.160974 38,975 113 467 -64
2020-04-01 14:41:15 GMT 49.611511 12.151385 38,975 113 467 0
2020-04-01 14:41:12 GMT 49.614349 12.141303 39,000 113 467 0
2020-04-01 14:41:09 GMT 49.616585 12.133212 38,975 113 467 0
2020-04-01 14:41:06 GMT 49.618912 12.124749 39,000 113 467 0
2020-04-01 14:41:03 GMT 49.621124 12.116763 39,000 113 467 0
2020-04-01 14:41:00 GMT 49.624638 12.104187 39,000 113 467 -64
2020-04-01 14:40:57 GMT 49.626873 12.096244 39,000 113 467 0
2020-04-01 14:40:54 GMT 49.629341 12.087336 39,000 113 467 0
2020-04-01 14:40:51 GMT 49.632477 12.076215 39,000 113 467 -64
2020-04-01 14:40:48 GMT 49.634308 12.069566 39,000 113 467 0
2020-04-01 14:40:45 GMT 49.639164 12.052299 39,000 113 467 0
2020-04-01 14:40:42 GMT 49.642090 12.041811 39,000 113 467 0
2020-04-01 14:40:39 GMT 49.642090 12.041811 39,000 113 467 -64
2020-04-01 14:40:36 GMT 49.645615 12.029307 39,000 113 467 -64
2020-04-01 14:40:33 GMT 49.646843 12.024982 39,000 113 467 -64
2020-04-01 14:40:30 GMT 49.649826 12.014273 39,000 113 467 0
2020-04-01 14:40:27 GMT 49.653030 12.002925 39,000 113 467 0
2020-04-01 14:40:24 GMT 49.655037 11.995808 39,000 113 467 0
2020-04-01 14:40:21 GMT 49.657608 11.986734 39,000 113 467 0
2020-04-01 14:40:18 GMT 49.660717 11.975692 39,000 113 467 0
2020-04-01 14:40:15 GMT 49.662415 11.969604 39,000 113 467 0
2020-04-01 14:40:12 GMT 49.668583 11.947780 39,000 113 467 -64
2020-04-01 14:40:09 GMT 49.668583 11.947780 39,000 113 467 -64
2020-04-01 14:40:06 GMT 49.670399 11.941322 39,000 113 467 -64
2020-04-01 14:40:03 GMT 49.672775 11.932860 39,000 113 467 -64
2020-04-01 14:40:00 GMT 49.676170 11.920834 39,025 113 467 -128
2020-04-01 14:39:57 GMT 49.678299 11.913227 39,025 113 467 -64
2020-04-01 14:39:54 GMT 49.680920 11.903909 39,025 113 467 0
2020-04-01 14:39:51 GMT 49.683426 11.894941 39,025 113 469 0
2020-04-01 14:39:48 GMT 49.685669 11.887133 39,025 113 467 -64
2020-04-01 14:39:44 GMT 49.689331 11.874125 39,025 113 468 0
2020-04-01 14:39:41 GMT 49.695168 11.853283 39,025 113 468 -64
2020-04-01 14:39:38 GMT 49.695168 11.853283 39,025 113 468 0
2020-04-01 14:39:35 GMT 49.697075 11.846454 39,025 113 469 0
2020-04-01 14:39:32 GMT 49.699448 11.837917 39,025 113 468 64
2020-04-01 14:39:29 GMT 49.702007 11.828638 39,025 113 468 0
2020-04-01 14:39:26 GMT 49.704617 11.819433 39,025 113 468 0
2020-04-01 14:39:23 GMT 49.707085 11.810525 39,025 113 469 0
2020-04-01 14:39:20 GMT 49.709656 11.801268 39,025 113 469 0
2020-04-01 14:39:17 GMT 49.712173 11.792161 39,025 113 469 0
2020-04-01 14:39:14 GMT 49.714764 11.782837 39,025 113 469 0
2020-04-01 14:39:11 GMT 49.718216 11.770550 39,025 113 469 0
2020-04-01 14:39:07 GMT 49.720642 11.761732 39,025 113 469 -64
2020-04-01 14:39:04 GMT 49.723701 11.750769 39,025 113 469 0
2020-04-01 14:39:01 GMT 49.728451 11.733547 39,025 113 469 64
2020-04-01 14:38:58 GMT 49.731720 11.721834 39,025 113 469 0
2020-04-01 14:38:55 GMT 49.731720 11.721834 39,025 113 469 64
2020-04-01 14:38:51 GMT 49.737350 11.701596 39,025 113 469 0
2020-04-01 14:38:48 GMT 49.737350 11.701596 39,025 113 469 0
2020-04-01 14:38:45 GMT 49.739529 11.693610 39,025 113 469 64
2020-04-01 14:38:42 GMT 49.742088 11.684480 39,025 113 469 64
2020-04-01 14:38:39 GMT 49.744419 11.675943 39,025 113 469 0
2020-04-01 14:38:36 GMT 49.747211 11.665922 39,000 113 469 0
2020-04-01 14:38:33 GMT 49.750565 11.653822 39,025 113 469 0
2020-04-01 14:38:29 GMT 49.753124 11.644617 39,000 113 469 0
2020-04-01 14:38:26 GMT 49.755798 11.634883 39,000 113 469 0
2020-04-01 14:38:23 GMT 49.758820 11.624041 39,025 113 469 -64
2020-04-01 14:38:20 GMT 49.763580 11.606622 39,025 113 469 0
2020-04-01 14:38:14 GMT 49.766205 11.597183 39,000 112 469 0
2020-04-01 14:38:11 GMT 49.768341 11.589275 39,000 112 469 0
2020-04-01 14:38:08 GMT 49.771774 11.576843 39,000 112 469 0
2020-04-01 14:38:05 GMT 49.774536 11.566822 39,025 112 469 0
2020-04-01 14:38:02 GMT 49.777100 11.557394 39,025 112 469 0
2020-04-01 14:37:58 GMT 49.780014 11.546703 39,025 112 469 0
2020-04-01 14:37:55 GMT 49.782593 11.537278 39,025 112 469 0
2020-04-01 14:37:52 GMT 49.784271 11.531019 39,000 112 468 0
2020-04-01 14:37:49 GMT 49.787247 11.520177 39,000 112 467 0
2020-04-01 14:37:45 GMT 49.790085 11.509769 39,000 112 468 -64
2020-04-01 14:37:42 GMT 49.793251 11.498157 39,000 112 468 -64
2020-04-01 14:37:38 GMT 49.796509 11.486355 39,025 112 468 -64
2020-04-01 14:37:35 GMT 49.799301 11.475962 39,025 112 468 -64
2020-04-01 14:37:32 GMT 49.801804 11.466908 39,025 112 468 0
2020-04-01 14:37:29 GMT 49.804688 11.456355 39,025 112 468 0
2020-04-01 14:37:26 GMT 49.808762 11.441321 39,025 112 468 0
2020-04-01 14:37:23 GMT 49.808762 11.441321 39,025 112 468 0
2020-04-01 14:37:20 GMT 49.811829 11.430263 39,025 112 468 -64
2020-04-01 14:37:17 GMT 49.813969 11.422292 39,025 112 468 -64
2020-04-01 14:37:14 GMT 49.819412 11.402472 39,025 112 468 0
2020-04-01 14:37:11 GMT 49.819412 11.402472 39,025 112 468 64
2020-04-01 14:37:08 GMT 49.822300 11.391931 39,025 112 468 0
2020-04-01 14:37:05 GMT 49.824005 11.385594 39,025 112 468 0
2020-04-01 14:37:02 GMT 49.826817 11.375304 39,000 112 468 64
2020-04-01 14:36:59 GMT 49.829285 11.366247 39,000 112 468 64
2020-04-01 14:36:56 GMT 49.831741 11.357261 39,000 112 468 64
2020-04-01 14:36:53 GMT 49.834305 11.347865 39,000 112 468 0
2020-04-01 14:36:50 GMT 49.836639 11.339301 39,000 112 468 0
2020-04-01 14:36:47 GMT 49.839619 11.328240 39,000 112 468 64
2020-04-01 14:36:44 GMT 49.842545 11.317508 39,000 112 468 0
2020-04-01 14:36:41 GMT 49.844551 11.310202 39,000 112 468 0
2020-04-01 14:36:38 GMT 49.847065 11.300849 39,000 112 468 0
2020-04-01 14:36:35 GMT 49.849228 11.292933 39,000 112 468 0
2020-04-01 14:36:32 GMT 49.851860 11.283330 39,000 112 468 0
2020-04-01 14:36:29 GMT 49.854355 11.274069 39,000 112 467 0
2020-04-01 14:36:26 GMT 49.856735 11.265323 39,000 112 467 0
2020-04-01 14:36:23 GMT 49.858749 11.257943 39,000 112 467 0
2020-04-01 14:36:20 GMT 49.861824 11.246585 39,000 112 467 0
2020-04-01 14:36:17 GMT 49.864243 11.237640 39,000 112 467 0
2020-04-01 14:36:14 GMT 49.867641 11.225058 39,000 112 467 0
2020-04-01 14:36:11 GMT 49.869366 11.218748 39,000 112 467 0
2020-04-01 14:36:08 GMT 49.871319 11.211474 39,000 112 467 64
2020-04-01 14:36:05 GMT 49.874763 11.198854 39,000 112 467 -64
2020-04-01 14:36:02 GMT 49.876534 11.192322 39,000 112 467 0
2020-04-01 14:35:59 GMT 49.879898 11.179818 39,000 112 467 0
2020-04-01 14:35:56 GMT 49.882401 11.170498 39,000 112 467 64
2020-04-01 14:35:53 GMT 49.887314 11.152280 39,000 112 467 64
2020-04-01 14:35:50 GMT 49.887314 11.152280 39,000 112 467 0
2020-04-01 14:35:47 GMT 49.889877 11.142956 39,000 112 467 0
2020-04-01 14:35:43 GMT 49.892715 11.132331 39,000 112 467 -64
2020-04-01 14:35:40 GMT 49.895107 11.123435 39,000 112 467 -64
2020-04-01 14:35:37 GMT 49.897995 11.112745 39,000 112 467 -64
2020-04-01 14:35:34 GMT 49.900043 11.105099 39,000 112 466 0
2020-04-01 14:35:31 GMT 49.903023 11.093890 39,000 112 466 0
2020-04-01 14:35:28 GMT 49.907684 11.076676 39,000 112 466 0
2020-04-01 14:35:25 GMT 49.907684 11.076676 39,000 112 466 64
2020-04-01 14:35:22 GMT 49.909790 11.068653 39,000 112 466 64
2020-04-01 14:35:19 GMT 49.912537 11.058390 39,000 112 466 0
2020-04-01 14:35:16 GMT 49.915009 11.049210 39,000 112 466 0
2020-04-01 14:35:13 GMT 49.917480 11.040031 39,000 112 466 0
2020-04-01 14:35:10 GMT 49.920059 11.030496 39,000 112 466 0
2020-04-01 14:35:07 GMT 49.922882 11.019793 39,000 112 466 -64
2020-04-01 14:35:04 GMT 49.924900 11.012235 39,000 112 467 0
2020-04-01 14:35:01 GMT 49.927788 11.001546 39,000 112 467 0
2020-04-01 14:34:58 GMT 49.929928 10.993677 39,025 112 466 0
2020-04-01 14:34:55 GMT 49.932587 10.983726 39,000 112 466 0
2020-04-01 14:34:52 GMT 49.935467 10.973115 39,000 112 466 128
2020-04-01 14:34:49 GMT 49.937145 10.966805 39,000 112 466 64
2020-04-01 14:34:46 GMT 49.940048 10.956116 39,000 112 466 128
2020-04-01 14:34:43 GMT 49.942265 10.948024 39,000 112 466 128
2020-04-01 14:34:40 GMT 49.944637 10.939117 39,000 112 466 64
2020-04-01 14:34:37 GMT 49.947327 10.929156 39,000 112 466 -128
2020-04-01 14:34:34 GMT 49.950577 10.917158 39,000 112 466 -64
2020-04-01 14:34:30 GMT 49.953140 10.907761 39,000 112 466 0
2020-04-01 14:34:27 GMT 49.956184 10.896359 39,000 112 465 0
2020-04-01 14:34:24 GMT 49.958652 10.887154 39,000 112 465 0
2020-04-01 14:34:21 GMT 49.960281 10.881091 39,000 112 466 -64
2020-04-01 14:34:18 GMT 49.962795 10.871788 39,000 112 466 -64
2020-04-01 14:34:15 GMT 49.965729 10.860728 39,025 112 465 0
2020-04-01 14:34:11 GMT 49.971313 10.839943 39,000 112 465 0
2020-04-01 14:34:08 GMT 49.973923 10.830207 39,000 112 466 -64
2020-04-01 14:34:05 GMT 49.973923 10.830207 39,000 112 466 -64
2020-04-01 14:34:02 GMT 49.976028 10.822184 39,000 112 466 0
2020-04-01 14:33:59 GMT 49.981201 10.802741 39,000 112 465 0
2020-04-01 14:33:56 GMT 49.981201 10.802741 39,000 112 465 0
2020-04-01 14:33:53 GMT 49.983536 10.793923 39,000 112 465 0
2020-04-01 14:33:50 GMT 49.986099 10.784310 39,000 112 465 -64
2020-04-01 14:33:47 GMT 49.988583 10.774916 39,000 112 465 -64
2020-04-01 14:33:44 GMT 49.991043 10.765662 39,025 112 465 -64
2020-04-01 14:33:41 GMT 49.993752 10.755393 39,025 112 465 0
2020-04-01 14:33:38 GMT 49.995659 10.748192 39,000 112 465 64
2020-04-01 14:33:35 GMT 49.999054 10.735305 39,000 112 465 0
2020-04-01 14:33:32 GMT 50.000107 10.731185 39,000 112 465 0
2020-04-01 14:33:29 GMT 50.003036 10.720127 39,000 112 465 0
2020-04-01 14:33:26 GMT 50.006012 10.708923 39,000 112 465 64
2020-04-01 14:33:23 GMT 50.007904 10.701649 39,000 112 465 0
2020-04-01 14:33:20 GMT 50.010406 10.692155 39,000 112 465 0
2020-04-01 14:33:17 GMT 50.012787 10.683120 38,975 112 465 128
2020-04-01 14:33:14 GMT 50.015259 10.673651 38,975 112 465 128
2020-04-01 14:33:11 GMT 50.018692 10.660569 39,000 112 465 0
2020-04-01 14:33:08 GMT 50.021076 10.651468 39,000 112 465 0
2020-04-01 14:33:05 GMT 50.022659 10.645529 39,000 112 465 0
2020-04-01 14:33:02 GMT 50.025513 10.634621 39,000 112 465 0
2020-04-01 14:32:59 GMT 50.027596 10.626749 39,000 112 465 -64
2020-04-01 14:32:56 GMT 50.030899 10.614278 39,000 112 465 0
2020-04-01 14:32:53 GMT 50.032425 10.608384 39,000 112 465 0
2020-04-01 14:32:50 GMT 50.034626 10.600099 39,000 112 465 64
2020-04-01 14:32:47 GMT 50.038116 10.586886 39,000 112 465 64
2020-04-01 14:32:44 GMT 50.040070 10.579463 39,000 112 465 0
2020-04-01 14:32:37 GMT 50.045792 10.557428 39,000 112 465 -64
2020-04-01 14:32:34 GMT 50.048031 10.549028 39,000 112 465 64
2020-04-01 14:32:31 GMT 50.050079 10.541085 39,000 112 465 64
2020-04-01 14:32:28 GMT 50.052475 10.531986 39,000 112 465 128
2020-04-01 14:32:25 GMT 50.054920 10.522601 38,975 112 465 192
2020-04-01 14:32:22 GMT 50.058243 10.509796 38,975 112 465 -64
2020-04-01 14:32:18 GMT 50.060509 10.501148 38,975 112 465 -64
2020-04-01 14:32:15 GMT 50.062927 10.491795 38,975 112 465 -64
2020-04-01 14:32:12 GMT 50.066437 10.478427 38,975 112 465 0
2020-04-01 14:32:09 GMT 50.068405 10.470983 38,975 112 465 64
2020-04-01 14:32:06 GMT 50.070053 10.464767 38,975 112 465 64
2020-04-01 14:32:03 GMT 50.073078 10.453194 38,975 112 465 64
2020-04-01 14:32:00 GMT 50.075497 10.443915 38,975 112 465 0
2020-04-01 14:31:57 GMT 50.077744 10.435422 38,975 112 465 -64
2020-04-01 14:31:54 GMT 50.079735 10.427733 38,975 112 465 64
2020-04-01 14:31:51 GMT 50.082550 10.417135 38,975 112 465 0
2020-04-01 14:31:48 GMT 50.085178 10.407096 38,975 112 465 128
2020-04-01 14:31:45 GMT 50.087860 10.396680 38,975 112 465 128
2020-04-01 14:31:42 GMT 50.089828 10.389308 38,975 112 465 64
2020-04-01 14:31:39 GMT 50.092392 10.379406 38,975 111 465 0
2020-04-01 14:31:36 GMT 50.095097 10.369164 38,975 112 465 -64
2020-04-01 14:31:33 GMT 50.098076 10.357584 38,975 112 465 -64
2020-04-01 14:31:30 GMT 50.099350 10.352807 38,975 112 465 -64
2020-04-01 14:31:27 GMT 50.102123 10.342069 38,975 112 465 0
2020-04-01 14:31:24 GMT 50.104454 10.333161 38,975 112 465 64
2020-04-01 14:31:21 GMT 50.107086 10.323029 38,975 112 465 64
2020-04-01 14:31:18 GMT 50.111298 10.306957 38,975 112 465 0
2020-04-01 14:31:12 GMT 50.114456 10.294768 38,975 112 465 0
2020-04-01 14:31:09 GMT 50.116230 10.287954 38,975 112 465 0
2020-04-01 14:31:06 GMT 50.119354 10.275975 38,975 112 465 0
2020-04-01 14:31:03 GMT 50.123585 10.259894 38,975 112 465 0
2020-04-01 14:30:57 GMT 50.126007 10.250615 38,975 112 465 0
2020-04-01 14:30:54 GMT 50.129173 10.238441 38,975 112 466 0
2020-04-01 14:30:51 GMT 50.133968 10.219958 38,975 111 465 -64
2020-04-01 14:30:48 GMT 50.133968 10.219958 38,975 111 465 -64
2020-04-01 14:30:45 GMT 50.136200 10.211358 38,975 111 465 -64
2020-04-01 14:30:42 GMT 50.138443 10.202685 38,975 111 465 -64
2020-04-01 14:30:39 GMT 50.140182 10.195963 39,000 111 465 0
2020-04-01 14:30:36 GMT 50.143139 10.184549 39,000 111 465 0
2020-04-01 14:30:33 GMT 50.145493 10.175580 39,000 111 465 0
2020-04-01 14:30:30 GMT 50.148304 10.164580 39,000 111 465 0
2020-04-01 14:30:27 GMT 50.153240 10.145651 39,000 111 466 -64
2020-04-01 14:30:24 GMT 50.153240 10.145651 39,000 111 466 -64
2020-04-01 14:30:21 GMT 50.155567 10.136595 39,000 111 466 -64
2020-04-01 14:30:18 GMT 50.157475 10.129172 39,000 111 466 0
2020-04-01 14:30:15 GMT 50.163208 10.107133 39,000 111 466 0
2020-04-01 14:30:12 GMT 50.163208 10.107133 39,000 111 466 0
2020-04-01 14:30:09 GMT 50.164783 10.100964 39,000 111 466 0
2020-04-01 14:30:06 GMT 50.167252 10.091462 39,000 111 466 0
2020-04-01 14:30:03 GMT 50.170258 10.079667 39,000 111 467 -64
2020-04-01 14:30:00 GMT 50.172318 10.071789 39,000 111 470 0
2020-04-01 14:29:57 GMT 50.174332 10.063838 39,000 111 467 0
2020-04-01 14:29:54 GMT 50.176888 10.053975 39,000 111 467 0
2020-04-01 14:29:51 GMT 50.181683 10.035343 39,000 111 467 64
2020-04-01 14:29:48 GMT 50.181683 10.035343 39,000 111 468 0
2020-04-01 14:29:45 GMT 50.184814 10.023217 39,000 111 468 0
2020-04-01 14:29:42 GMT 50.187454 10.012850 39,000 111 467 0
2020-04-01 14:29:39 GMT 50.188713 10.008100 39,000 111 469 -64
2020-04-01 14:29:36 GMT 50.191551 9.997113 39,000 111 469 -64
2020-04-01 14:29:33 GMT 50.194061 9.987223 39,000 111 469 -64
2020-04-01 14:29:30 GMT 50.199188 9.967346 39,025 111 469 0
2020-04-01 14:29:27 GMT 50.199188 9.967346 39,025 111 469 0
2020-04-01 14:29:24 GMT 50.201607 9.957919 39,000 111 471 0
2020-04-01 14:29:21 GMT 50.203751 9.949605 39,000 111 470 0
2020-04-01 14:29:18 GMT 50.205982 9.940920 39,000 111 470 0
2020-04-01 14:29:15 GMT 50.208435 9.931424 39,000 111 471 0
2020-04-01 14:29:12 GMT 50.210777 9.922436 39,000 111 470 0
2020-04-01 14:29:09 GMT 50.212734 9.914716 39,000 111 471 0
2020-04-01 14:29:06 GMT 50.215759 9.903061 39,000 111 471 64
2020-04-01 14:29:03 GMT 50.218182 9.893560 39,000 111 471 64
2020-04-01 14:29:00 GMT 50.220974 9.882722 39,000 111 472 -64
2020-04-01 14:28:57 GMT 50.223347 9.873443 39,000 111 472 -64
2020-04-01 14:28:54 GMT 50.225719 9.864090 39,000 111 473 0
2020-04-01 14:28:51 GMT 50.227707 9.856399 39,000 111 473 0
2020-04-01 14:28:48 GMT 50.230145 9.846868 39,000 111 473 0
2020-04-01 14:28:45 GMT 50.232239 9.838554 39,000 111 473 64
2020-04-01 14:28:42 GMT 50.234756 9.828716 39,000 111 464 576
2020-04-01 14:28:39 GMT 50.237312 9.818734 39,000 111 473 0
2020-04-01 14:28:36 GMT 50.240524 9.805948 39,000 111 471 0
2020-04-01 14:28:33 GMT 50.242203 9.799359 38,750 111 474 0
2020-04-01 14:28:30 GMT 50.244480 9.790303 39,000 111 472 64
2020-04-01 14:28:27 GMT 50.246979 9.780434 39,000 111 474 -64
2020-04-01 14:28:24 GMT 50.249325 9.771151 39,000 111 473 0
2020-04-01 14:28:21 GMT 50.254490 9.750589 39,000 111 472 64
2020-04-01 14:28:18 GMT 50.254490 9.750589 39,000 111 471 64
2020-04-01 14:28:15 GMT 50.256725 9.741830 39,000 111 471 0
2020-04-01 14:28:12 GMT 50.259148 9.732105 39,000 111 471 0
2020-04-01 14:28:09 GMT 50.264328 9.711480 39,000 111 470 -64
2020-04-01 14:28:06 GMT 50.264328 9.711480 39,000 111 468 0
2020-04-01 14:28:03 GMT 50.266937 9.701145 39,000 111 467 128
2020-04-01 14:27:59 GMT 50.269760 9.689793 39,000 111 466 192
2020-04-01 14:27:56 GMT 50.271927 9.681196 39,000 111 466 256
2020-04-01 14:27:53 GMT 50.274227 9.672052 38,975 111 465 320
2020-04-01 14:27:50 GMT 50.277054 9.660813 38,950 111 464 576
2020-04-01 14:27:47 GMT 50.278885 9.653513 38,950 111 464 640
2020-04-01 14:27:44 GMT 50.281631 9.642581 38,725 111 464 896
2020-04-01 14:27:41 GMT 50.283215 9.636272 38,600 111 464 960
2020-04-01 14:27:38 GMT 50.285728 9.626399 38,825 111 464 1024
2020-04-01 14:27:35 GMT 50.288425 9.615709 38,750 111 464 960
2020-04-01 14:27:32 GMT 50.290382 9.607989 38,700 111 464 896
2020-04-01 14:27:29 GMT 50.292709 9.598785 38,700 111 464 896
2020-04-01 14:27:26 GMT 50.295410 9.588318 38,600 111 464 896
2020-04-01 14:27:23 GMT 50.298340 9.576753 38,550 111 464 960
2020-04-01 14:27:20 GMT 50.300018 9.570205 38,525 111 465 960
2020-04-01 14:27:17 GMT 50.301788 9.563227 38,450 111 465 1024
2020-04-01 14:27:14 GMT 50.304703 9.551745 38,425 111 465 1024
2020-04-01 14:27:11 GMT 50.307175 9.542204 38,350 111 465 1024
2020-04-01 14:27:08 GMT 50.309830 9.531796 38,325 111 465 1024
2020-04-01 14:27:04 GMT 50.312679 9.520544 38,225 111 465 960
2020-04-01 14:27:01 GMT 50.315010 9.511339 38,200 111 466 896
2020-04-01 14:26:58 GMT 50.318161 9.498837 38,175 111 466 896
2020-04-01 14:26:55 GMT 50.319851 9.492113 38,125 111 466 896
2020-04-01 14:26:52 GMT 50.322739 9.480623 38,025 111 466 960
2020-04-01 14:26:48 GMT 50.325947 9.467839 38,000 111 466 960
2020-04-01 14:26:45 GMT 50.328182 9.458932 37,950 111 466 896
2020-04-01 14:26:42 GMT 50.330975 9.447797 37,900 111 465 896
2020-04-01 14:26:39 GMT 50.332512 9.441561 37,875 111 465 832
2020-04-01 14:26:36 GMT 50.334503 9.433714 37,675 111 463 768
2020-04-01 14:26:33 GMT 50.339859 9.412031 37,775 111 465 768
2020-04-01 14:26:30 GMT 50.339859 9.412031 37,625 111 465 768
2020-04-01 14:26:27 GMT 50.342102 9.403035 37,725 111 465 832
2020-04-01 14:26:24 GMT 50.344894 9.391900 37,625 111 465 768
2020-04-01 14:26:21 GMT 50.346756 9.384403 37,625 111 465 768
2020-04-01 14:26:18 GMT 50.348991 9.375346 37,575 111 464 704
2020-04-01 14:26:15 GMT 50.351120 9.366784 37,575 111 464 704
2020-04-01 14:26:12 GMT 50.354050 9.354931 37,525 111 464 704
2020-04-01 14:26:09 GMT 50.355511 9.348920 37,525 111 464 704
2020-04-01 14:26:06 GMT 50.357803 9.339752 37,000 111 461 -64
2020-04-01 14:26:03 GMT 50.360863 9.327318 37,400 111 463 832
2020-04-01 14:25:59 GMT 50.365585 9.308456 37,200 111 463 768
2020-04-01 14:25:56 GMT 50.365585 9.308456 37,325 111 463 768
2020-04-01 14:25:53 GMT 50.368149 9.298048 37,275 111 462 832
2020-04-01 14:25:50 GMT 50.370346 9.289230 37,225 111 462 832
2020-04-01 14:25:47 GMT 50.373505 9.276436 37,200 111 461 832
2020-04-01 14:25:44 GMT 50.375481 9.268378 37,175 111 461 832
2020-04-01 14:25:41 GMT 50.377575 9.259990 37,125 111 460 832
2020-04-01 14:25:38 GMT 50.379547 9.252006 37,100 111 460 832
2020-04-01 14:25:35 GMT 50.382339 9.240731 37,000 111 461 384
2020-04-01 14:25:32 GMT 50.384140 9.233489 37,025 111 461 192
2020-04-01 14:25:29 GMT 50.386871 9.222517 37,000 111 461 0
2020-04-01 14:25:26 GMT 50.391769 9.202640 37,000 111 461 0
2020-04-01 14:25:23 GMT 50.391769 9.202640 37,000 111 460 64
2020-04-01 14:25:20 GMT 50.393681 9.195037 37,000 111 460 64
2020-04-01 14:25:17 GMT 50.396240 9.184570 37,000 111 461 0
2020-04-01 14:25:14 GMT 50.398476 9.175440 37,000 111 461 0
2020-04-01 14:25:11 GMT 50.400524 9.167349 37,000 111 461 -64
2020-04-01 14:25:08 GMT 50.402985 9.157321 37,000 111 461 -64
2020-04-01 14:25:05 GMT 50.404999 9.149154 37,000 111 460 0
2020-04-01 14:25:02 GMT 50.407288 9.139902 37,000 111 461 64
2020-04-01 14:24:59 GMT 50.409805 9.129711 37,000 111 461 0
2020-04-01 14:24:56 GMT 50.412506 9.118652 37,000 111 461 0
2020-04-01 14:24:53 GMT 50.414120 9.112120 37,000 111 461 0
2020-04-01 14:24:50 GMT 50.417145 9.099872 37,000 111 461 0
2020-04-01 14:24:47 GMT 50.420963 9.084580 37,000 111 460 64
2020-04-01 14:24:44 GMT 50.420963 9.084580 37,000 111 460 64
2020-04-01 14:24:41 GMT 50.423660 9.073594 37,000 111 460 0
2020-04-01 14:24:38 GMT 50.425644 9.065528 37,000 111 460 -64
2020-04-01 14:24:35 GMT 50.428528 9.053674 37,000 111 460 -64
2020-04-01 14:24:32 GMT 50.432739 9.036616 37,025 111 460 -64
2020-04-01 14:24:29 GMT 50.432739 9.036616 37,000 111 460 -64
2020-04-01 14:24:26 GMT 50.435066 9.027273 37,025 111 460 -64
2020-04-01 14:24:23 GMT 50.437317 9.018113 37,025 111 460 0
2020-04-01 14:24:20 GMT 50.439957 9.007230 37,000 110 460 64
2020-04-01 14:24:16 GMT 50.443214 8.993943 37,025 110 460 0
2020-04-01 14:24:13 GMT 50.444733 8.987901 37,025 110 460 0
2020-04-01 14:24:10 GMT 50.447388 8.976987 37,025 110 460 64
2020-04-01 14:24:07 GMT 50.450195 8.965512 37,025 110 460 64
2020-04-01 14:24:04 GMT 50.452477 8.956307 37,000 111 460 0
2020-04-01 14:24:01 GMT 50.453922 8.950443 37,000 111 460 0
2020-04-01 14:23:58 GMT 50.456131 8.941498 37,025 111 460 0
2020-04-01 14:23:55 GMT 50.458374 8.932463 37,000 111 460 0
2020-04-01 14:23:52 GMT 50.460663 8.923139 37,025 111 460 0
2020-04-01 14:23:49 GMT 50.463230 8.912659 37,025 111 460 0
2020-04-01 14:23:46 GMT 50.465515 8.903407 37,000 111 460 0
2020-04-01 14:23:43 GMT 50.469864 8.885843 37,025 111 460 0
2020-04-01 14:23:40 GMT 50.473022 8.873195 37,025 111 460 0
2020-04-01 14:23:37 GMT 50.473022 8.873195 37,000 111 460 0
2020-04-01 14:23:34 GMT 50.474854 8.865750 37,025 111 460 0
2020-04-01 14:23:31 GMT 50.477661 8.854461 37,000 111 460 0
2020-04-01 14:23:28 GMT 50.479156 8.848403 37,000 111 460 0
2020-04-01 14:23:25 GMT 50.481857 8.837489 37,000 111 459 0
2020-04-01 14:23:22 GMT 50.485203 8.823877 37,000 110 460 64
2020-04-01 14:23:19 GMT 50.486435 8.818914 37,025 111 459 0
2020-04-01 14:23:16 GMT 50.491425 8.798676 37,000 111 459 0
2020-04-01 14:23:13 GMT 50.491425 8.798676 37,025 111 459 64
2020-04-01 14:23:10 GMT 50.493164 8.791438 37,000 110 460 64
2020-04-01 14:23:07 GMT 50.495499 8.781835 37,000 110 460 64
2020-04-01 14:23:04 GMT 50.497787 8.772655 37,000 110 460 64
2020-04-01 14:23:01 GMT 50.500122 8.762970 37,000 110 460 64
2020-04-01 14:22:58 GMT 50.503418 8.749382 37,000 110 460 0
2020-04-01 14:22:55 GMT 50.507084 8.734354 37,000 110 459 0
2020-04-01 14:22:52 GMT 50.507084 8.734354 37,000 110 459 0
2020-04-01 14:22:48 GMT 50.512390 8.712381 37,000 110 459 0
2020-04-01 14:22:45 GMT 50.512390 8.712381 37,000 110 459 0
2020-04-01 14:22:42 GMT 50.514626 8.703102 37,000 110 459 0
2020-04-01 14:22:39 GMT 50.517372 8.691670 37,000 110 459 0
2020-04-01 14:22:36 GMT 50.518936 8.685054 37,000 110 459 0
2020-04-01 14:22:33 GMT 50.520863 8.677046 37,000 110 459 0
2020-04-01 14:22:30 GMT 50.523193 8.667346 37,000 110 459 0
2020-04-01 14:22:27 GMT 50.526260 8.654697 37,000 110 459 0
2020-04-01 14:22:24 GMT 50.528126 8.646834 37,000 110 459 0
2020-04-01 14:22:21 GMT 50.532486 8.628677 37,000 110 459 0
2020-04-01 14:22:18 GMT 50.532486 8.628677 37,000 110 459 -64
2020-04-01 14:22:15 GMT 50.534454 8.620509 37,000 110 459 -64
2020-04-01 14:22:12 GMT 50.536652 8.611185 37,000 110 459 -64
2020-04-01 14:22:09 GMT 50.538834 8.602146 37,000 110 458 -64
2020-04-01 14:22:06 GMT 50.541412 8.591381 37,000 110 458 0
2020-04-01 14:22:03 GMT 50.543392 8.582995 37,000 110 458 0
2020-04-01 14:22:00 GMT 50.545815 8.572899 37,000 110 458 64
2020-04-01 14:21:57 GMT 50.547863 8.564362 37,000 110 458 64
2020-04-01 14:21:54 GMT 50.549911 8.555751 37,000 110 458 0
2020-04-01 14:21:51 GMT 50.552902 8.543460 37,000 110 458 0
2020-04-01 14:21:48 GMT 50.554504 8.536666 37,000 110 458 -64
2020-04-01 14:21:45 GMT 50.556793 8.527053 37,000 110 458 0
2020-04-01 14:21:42 GMT 50.559311 8.516500 37,000 110 458 64
2020-04-01 14:21:39 GMT 50.561222 8.508614 37,000 110 458 64
2020-04-01 14:21:36 GMT 50.563412 8.499335 37,000 110 458 64
2020-04-01 14:21:33 GMT 50.566132 8.488023 37,000 110 458 0
2020-04-01 14:21:29 GMT 50.569427 8.474217 36,975 110 458 0
2020-04-01 14:21:26 GMT 50.573093 8.458953 37,000 110 458 0
2020-04-01 14:21:23 GMT 50.573093 8.458953 37,000 110 458 64
2020-04-01 14:21:20 GMT 50.575050 8.450862 37,000 110 458 64
2020-04-01 14:21:17 GMT 50.577988 8.438584 37,000 110 458 64
2020-04-01 14:21:14 GMT 50.580124 8.429631 36,975 110 458 0
2020-04-01 14:21:11 GMT 50.582291 8.420515 36,975 110 458 0
2020-04-01 14:21:08 GMT 50.584175 8.412707 36,975 110 458 0
2020-04-01 14:21:05 GMT 50.586731 8.401867 36,975 110 458 0
2020-04-01 14:21:02 GMT 50.588562 8.394205 36,975 110 458 0
2020-04-01 14:20:59 GMT 50.590782 8.384870 36,975 110 457 64
2020-04-01 14:20:56 GMT 50.593002 8.375557 36,975 110 457 64
2020-04-01 14:20:53 GMT 50.595905 8.363342 36,975 110 458 0
2020-04-01 14:20:50 GMT 50.598186 8.353841 36,975 110 458 64
2020-04-01 14:20:47 GMT 50.600048 8.346120 36,975 110 458 -128
2020-04-01 14:20:44 GMT 50.602615 8.335226 36,975 110 458 -64
2020-04-01 14:20:41 GMT 50.604984 8.325410 36,975 110 458 0
2020-04-01 14:20:38 GMT 50.606426 8.319397 36,975 110 457 0
2020-04-01 14:20:35 GMT 50.608894 8.309005 36,975 110 456 0
2020-04-01 14:20:32 GMT 50.611496 8.298075 36,975 110 456 0
2020-04-01 14:20:28 GMT 50.614155 8.286809 37,000 110 456 0
2020-04-01 14:20:25 GMT 50.616760 8.275885 37,000 110 456 0
2020-04-01 14:20:22 GMT 50.618252 8.269662 37,000 110 456 -64
2020-04-01 14:20:19 GMT 50.620857 8.258601 37,000 110 456 0
2020-04-01 14:20:16 GMT 50.622986 8.249576 37,000 110 456 0
2020-04-01 14:20:13 GMT 50.624954 8.241231 36,975 110 456 0
2020-04-01 14:20:10 GMT 50.627190 8.231803 37,000 110 456 0
2020-04-01 14:20:07 GMT 50.629303 8.222905 36,975 110 456 0
2020-04-01 14:20:04 GMT 50.631516 8.213542 36,975 110 456 64
2020-04-01 14:20:01 GMT 50.634201 8.202089 36,975 110 457 0
2020-04-01 14:19:58 GMT 50.635895 8.194984 36,975 110 457 -64
2020-04-01 14:19:55 GMT 50.638779 8.182810 37,000 110 456 0
2020-04-01 14:19:52 GMT 50.640747 8.174551 37,000 110 456 0
2020-04-01 14:19:49 GMT 50.642899 8.165444 37,000 110 456 0
2020-04-01 14:19:46 GMT 50.645325 8.155108 37,000 110 456 0
2020-04-01 14:19:43 GMT 50.647205 8.147253 37,000 110 456 0
2020-04-01 14:19:40 GMT 50.649719 8.136638 37,000 110 456 0
2020-04-01 14:19:37 GMT 50.651722 8.128101 37,000 110 456 0
2020-04-01 14:19:34 GMT 50.654388 8.116800 37,000 110 456 0
2020-04-01 14:19:31 GMT 50.658737 8.098369 37,000 110 457 0
2020-04-01 14:19:28 GMT 50.658737 8.098369 36,975 110 457 0
2020-04-01 14:19:25 GMT 50.659775 8.094029 37,000 110 457 -64
2020-04-01 14:19:22 GMT 50.662445 8.082540 37,000 110 457 -64
2020-04-01 14:19:19 GMT 50.665421 8.070109 37,000 110 457 -64
2020-04-01 14:19:16 GMT 50.667175 8.062480 37,000 110 457 64
2020-04-01 14:19:13 GMT 50.669495 8.052689 37,000 110 457 128
2020-04-01 14:19:10 GMT 50.672058 8.041918 37,000 110 457 128
2020-04-01 14:19:07 GMT 50.673431 8.035905 37,000 110 457 128
2020-04-01 14:19:04 GMT 50.676041 8.024845 36,975 110 457 64
2020-04-01 14:19:01 GMT 50.677837 8.017197 36,975 110 458 -64
2020-04-01 14:18:58 GMT 50.682037 7.999457 36,975 110 458 0
2020-04-01 14:18:55 GMT 50.685287 7.985576 36,975 110 458 -64
2020-04-01 14:18:52 GMT 50.685287 7.985576 37,000 110 458 64
2020-04-01 14:18:49 GMT 50.686684 7.979507 36,975 110 457 64
2020-04-01 14:18:46 GMT 50.688904 7.970061 36,975 110 457 0
2020-04-01 14:18:43 GMT 50.691479 7.959137 36,975 110 457 0
2020-04-01 14:18:40 GMT 50.693665 7.949722 36,975 110 458 -64
2020-04-01 14:18:37 GMT 50.695129 7.943561 36,975 110 458 -128
2020-04-01 14:18:34 GMT 50.698273 7.930222 36,975 110 458 -128
2020-04-01 14:18:31 GMT 50.700134 7.922134 37,000 110 458 -64
2020-04-01 14:18:28 GMT 50.702461 7.912216 37,000 110 458 0
2020-04-01 14:18:25 GMT 50.704422 7.903698 37,000 110 457 64
2020-04-01 14:18:22 GMT 50.706711 7.893974 37,000 110 457 64
2020-04-01 14:18:19 GMT 50.708607 7.885818 37,000 110 457 0
2020-04-01 14:18:16 GMT 50.712616 7.868586 37,000 110 457 0
2020-04-01 14:18:13 GMT 50.712616 7.868586 37,000 110 457 0
2020-04-01 14:18:10 GMT 50.715042 7.858342 37,000 110 457 64
2020-04-01 14:18:07 GMT 50.717239 7.848989 36,975 110 458 64
2020-04-01 14:18:04 GMT 50.719757 7.838077 36,975 110 458 0
2020-04-01 14:18:01 GMT 50.721588 7.830357 36,975 110 458 64
2020-04-01 14:17:58 GMT 50.724197 7.819222 36,975 110 458 64
2020-04-01 14:17:55 GMT 50.726166 7.810611 36,975 110 459 0
2020-04-01 14:17:52 GMT 50.728485 7.800751 36,975 110 459 64
2020-04-01 14:17:49 GMT 50.730835 7.790569 36,975 110 459 64
2020-04-01 14:17:46 GMT 50.732574 7.783071 36,975 110 458 0
2020-04-01 14:17:43 GMT 50.736912 7.764435 36,975 110 458 0
2020-04-01 14:17:40 GMT 50.736912 7.764435 36,975 110 458 0
2020-04-01 14:17:37 GMT 50.739487 7.753378 36,975 110 458 0
2020-04-01 14:17:34 GMT 50.741180 7.746029 36,975 110 458 0
2020-04-01 14:17:31 GMT 50.746223 7.724228 36,975 110 458 -64
2020-04-01 14:17:28 GMT 50.746223 7.724228 36,975 110 458 0
2020-04-01 14:17:25 GMT 50.748230 7.715372 36,975 110 458 0
2020-04-01 14:17:22 GMT 50.750504 7.705688 37,000 110 459 0
2020-04-01 14:17:19 GMT 50.752579 7.696739 37,000 110 458 0
2020-04-01 14:17:16 GMT 50.754276 7.689285 36,975 110 458 -64
2020-04-01 14:17:13 GMT 50.756462 7.679977 36,975 110 458 0
2020-04-01 14:17:10 GMT 50.759079 7.668605 36,975 109 459 -64
2020-04-01 14:17:07 GMT 50.761368 7.658733 36,975 110 458 -64
2020-04-01 14:17:04 GMT 50.763062 7.651309 37,000 109 459 -64
2020-04-01 14:17:01 GMT 50.767593 7.631712 37,000 109 459 0
2020-04-01 14:16:58 GMT 50.769470 7.623547 37,000 110 458 0
2020-04-01 14:16:55 GMT 50.772400 7.610853 37,000 110 458 0
2020-04-01 14:16:52 GMT 50.772400 7.610853 37,000 110 458 128
2020-04-01 14:16:49 GMT 50.774620 7.601395 36,975 110 458 128
2020-04-01 14:16:46 GMT 50.778671 7.583684 36,975 109 459 64
2020-04-01 14:16:43 GMT 50.778671 7.583684 36,975 109 459 0
2020-04-01 14:16:40 GMT 50.780205 7.577057 36,975 109 460 -64
2020-04-01 14:16:37 GMT 50.782700 7.566165 36,975 109 460 -64
2020-04-01 14:16:34 GMT 50.785263 7.554956 36,975 109 460 0
2020-04-01 14:16:31 GMT 50.786774 7.548498 36,975 109 460 0
2020-04-01 14:16:28 GMT 50.790070 7.534097 36,975 109 460 0
2020-04-01 14:16:25 GMT 50.791809 7.526303 37,000 109 460 0
2020-04-01 14:16:22 GMT 50.795567 7.509995 37,000 109 460 0
2020-04-01 14:16:19 GMT 50.795567 7.509995 36,975 109 460 0
2020-04-01 14:16:16 GMT 50.798126 7.498703 36,975 109 460 0
2020-04-01 14:16:13 GMT 50.800140 7.489855 37,000 109 461 -64
2020-04-01 14:16:10 GMT 50.802505 7.479553 36,975 109 461 -64
2020-04-01 14:16:07 GMT 50.804550 7.470398 37,000 109 461 -128
2020-04-01 14:16:04 GMT 50.806137 7.463354 37,000 109 461 -64
2020-04-01 14:16:01 GMT 50.808697 7.452316 37,000 109 461 0
2020-04-01 14:15:58 GMT 50.810623 7.443757 37,000 109 461 64
2020-04-01 14:15:55 GMT 50.812820 7.434033 37,000 109 460 0
2020-04-01 14:15:52 GMT 50.814972 7.424605 37,000 109 461 0
2020-04-01 14:15:49 GMT 50.817856 7.411837 37,025 109 464 64
2020-04-01 14:15:46 GMT 50.819729 7.403564 37,000 109 462 -64
2020-04-01 14:15:43 GMT 50.821609 7.395358 37,000 109 462 -64
2020-04-01 14:15:40 GMT 50.823872 7.385330 37,000 109 462 -64
2020-04-01 14:15:37 GMT 50.825729 7.377171 37,000 109 462 -64
2020-04-01 14:15:34 GMT 50.830109 7.357788 37,025 109 462 -64
2020-04-01 14:15:31 GMT 50.830109 7.357788 37,025 109 462 0
2020-04-01 14:15:28 GMT 50.832344 7.348099 37,025 109 462 0
2020-04-01 14:15:25 GMT 50.834812 7.337112 37,025 109 462 0
2020-04-01 14:15:21 GMT 50.837311 7.326174 37,025 109 462 0
2020-04-01 14:15:18 GMT 50.839745 7.315445 37,025 109 462 64
2020-04-01 14:15:15 GMT 50.841980 7.305686 37,025 109 462 0
2020-04-01 14:15:12 GMT 50.844307 7.295456 37,000 109 463 0
2020-04-01 14:15:09 GMT 50.846355 7.286453 37,000 109 463 0
2020-04-01 14:15:06 GMT 50.848080 7.278900 37,000 109 463 0
2020-04-01 14:15:03 GMT 50.850586 7.267827 37,000 109 463 -64
2020-04-01 14:15:00 GMT 50.852783 7.258177 37,025 109 463 -64
2020-04-01 14:14:57 GMT 50.855301 7.247265 37,025 109 464 0
2020-04-01 14:14:54 GMT 50.857407 7.237986 37,025 109 463 -64
2020-04-01 14:14:51 GMT 50.859203 7.229996 37,025 109 464 -64
2020-04-01 14:14:48 GMT 50.861717 7.218933 37,025 109 464 0
2020-04-01 14:14:45 GMT 50.865829 7.200796 37,025 109 464 0
2020-04-01 14:14:42 GMT 50.865829 7.200796 37,025 109 464 0
2020-04-01 14:14:39 GMT 50.868118 7.190774 37,025 109 464 64
2020-04-01 14:14:36 GMT 50.872604 7.170658 37,025 109 464 0
2020-04-01 14:14:33 GMT 50.872604 7.170658 37,025 109 464 0
2020-04-01 14:14:30 GMT 50.874527 7.162121 37,025 109 464 64
2020-04-01 14:14:27 GMT 50.876495 7.153510 37,025 109 464 64
2020-04-01 14:14:24 GMT 50.880936 7.133690 37,000 109 464 64
2020-04-01 14:14:21 GMT 50.880936 7.133690 37,000 109 465 0
2020-04-01 14:14:18 GMT 50.883499 7.122407 37,025 109 465 0
2020-04-01 14:14:15 GMT 50.884899 7.116165 37,025 109 465 0
2020-04-01 14:14:12 GMT 50.889267 7.096723 37,025 109 465 0
2020-04-01 14:14:09 GMT 50.889267 7.096723 37,025 109 466 0
2020-04-01 14:14:06 GMT 50.891094 7.088699 37,025 109 465 0
2020-04-01 14:14:03 GMT 50.893745 7.076950 37,025 109 465 0
2020-04-01 14:14:00 GMT 50.896271 7.065768 37,025 109 465 -128
2020-04-01 14:13:57 GMT 50.898514 7.055821 37,025 109 465 -64
2020-04-01 14:13:54 GMT 50.900124 7.048492 37,025 109 465 -64
2020-04-01 14:13:51 GMT 50.904640 7.028427 37,025 109 465 0
2020-04-01 14:13:48 GMT 50.904640 7.028427 37,025 109 465 0
2020-04-01 14:13:45 GMT 50.906616 7.019670 37,025 109 466 0
2020-04-01 14:13:42 GMT 50.908813 7.009797 37,025 109 466 0
2020-04-01 14:13:39 GMT 50.911064 6.999893 37,025 109 466 -64
2020-04-01 14:13:36 GMT 50.912842 6.991833 37,025 109 466 -64
2020-04-01 14:13:33 GMT 50.915997 6.977844 37,025 109 467 0
2020-04-01 14:13:30 GMT 50.917442 6.971359 37,025 109 467 0
2020-04-01 14:13:27 GMT 50.919617 6.961620 37,025 109 467 -64
2020-04-01 14:13:24 GMT 50.921631 6.952591 37,050 109 467 -64
2020-04-01 14:13:21 GMT 50.924240 6.940835 37,050 109 466 -64
2020-04-01 14:13:18 GMT 50.926800 6.929398 37,050 109 466 -64
2020-04-01 14:13:15 GMT 50.928288 6.922607 37,050 109 466 -64
2020-04-01 14:13:12 GMT 50.930801 6.911392 37,050 109 466 0
2020-04-01 14:13:09 GMT 50.932850 6.902084 37,050 109 466 0
2020-04-01 14:13:06 GMT 50.934666 6.894073 37,050 109 467 0
2020-04-01 14:13:03 GMT 50.938980 6.874472 37,050 109 467 0
2020-04-01 14:13:00 GMT 50.938980 6.874472 37,050 109 467 0
2020-04-01 14:12:57 GMT 50.940948 6.865639 37,050 109 467 64
2020-04-01 14:12:54 GMT 50.943138 6.855927 37,050 109 467 64
2020-04-01 14:12:51 GMT 50.945141 6.846695 37,050 109 467 64
2020-04-01 14:12:48 GMT 50.947327 6.836929 37,050 109 467 64
2020-04-01 14:12:45 GMT 50.949795 6.825867 37,050 109 468 64
2020-04-01 14:12:42 GMT 50.952301 6.814493 37,050 109 468 64
2020-04-01 14:12:39 GMT 50.953983 6.806946 37,000 109 466 0
2020-04-01 14:12:36 GMT 50.955963 6.798013 37,025 109 468 0
2020-04-01 14:12:33 GMT 50.958298 6.787398 37,025 109 468 64
2020-04-01 14:12:30 GMT 50.960827 6.775970 37,025 109 468 64
2020-04-01 14:12:27 GMT 50.962921 6.766434 37,025 109 468 0
2020-04-01 14:12:24 GMT 50.964981 6.757260 37,025 109 468 -64
2020-04-01 14:12:21 GMT 50.966858 6.748797 37,025 109 468 64
2020-04-01 14:12:18 GMT 50.968880 6.739426 37,025 109 468 64
2020-04-01 14:12:15 GMT 50.971443 6.727905 37,025 109 468 64
2020-04-01 14:12:12 GMT 50.975143 6.711236 37,025 109 468 64
2020-04-01 14:12:09 GMT 50.975143 6.711236 37,025 109 468 64
2020-04-01 14:12:06 GMT 50.977818 6.699066 37,025 109 468 64
2020-04-01 14:12:03 GMT 50.979542 6.691208 37,000 109 468 64
2020-04-01 14:12:00 GMT 50.984024 6.671077 37,000 109 468 64
2020-04-01 14:11:57 GMT 50.984024 6.671077 37,000 109 468 64
2020-04-01 14:11:54 GMT 50.985809 6.662911 37,000 109 468 0
2020-04-01 14:11:51 GMT 50.988007 6.653038 37,000 109 467 0
2020-04-01 14:11:48 GMT 50.992531 6.632538 37,000 109 467 0
2020-04-01 14:11:45 GMT 50.992531 6.632538 37,000 109 467 0
2020-04-01 14:11:42 GMT 50.994553 6.623271 37,000 109 466 0
2020-04-01 14:11:39 GMT 50.997345 6.610503 37,000 109 466 0
2020-04-01 14:11:36 GMT 50.998764 6.604045 37,000 109 466 64
2020-04-01 14:11:33 GMT 51.000870 6.594395 37,000 109 466 64
2020-04-01 14:11:30 GMT 51.003296 6.583260 37,000 109 466 -64
2020-04-01 14:11:27 GMT 51.005703 6.572418 37,000 109 466 -64
2020-04-01 14:11:24 GMT 51.007278 6.565148 37,000 109 466 0
2020-04-01 14:11:21 GMT 51.009056 6.556854 37,000 108 465 64
2020-04-01 14:11:18 GMT 51.011570 6.545334 37,000 108 465 64
2020-04-01 14:11:15 GMT 51.013897 6.534500 37,000 108 465 0
2020-04-01 14:11:12 GMT 51.015713 6.526108 37,000 108 465 64
2020-04-01 14:11:09 GMT 51.017529 6.517868 37,000 109 465 64
2020-04-01 14:11:06 GMT 51.020050 6.506282 37,000 109 464 64
2020-04-01 14:11:03 GMT 51.021790 6.498190 37,000 109 464 0
2020-04-01 14:11:00 GMT 51.026093 6.478500 37,000 109 463 -64
2020-04-01 14:10:57 GMT 51.026093 6.478500 36,975 109 464 0
2020-04-01 14:10:54 GMT 51.028328 6.468277 37,000 109 464 0
2020-04-01 14:10:51 GMT 51.030422 6.458740 37,000 109 464 -64
2020-04-01 14:10:48 GMT 51.035267 6.436539 37,000 109 463 -64
2020-04-01 14:10:45 GMT 51.035267 6.436539 37,000 108 462 64
2020-04-01 14:10:42 GMT 51.037033 6.428338 37,000 109 463 0
2020-04-01 14:10:39 GMT 51.038803 6.420059 37,000 108 462 64
2020-04-01 14:10:36 GMT 51.041595 6.407166 37,000 108 462 64
2020-04-01 14:10:33 GMT 51.043224 6.399765 37,000 108 462 0
2020-04-01 14:10:30 GMT 51.045601 6.388626 37,000 108 462 0
2020-04-01 14:10:27 GMT 51.046997 6.382141 37,000 108 462 0
2020-04-01 14:10:24 GMT 51.048950 6.373138 37,000 108 462 0
2020-04-01 14:10:21 GMT 51.051743 6.360168 37,000 108 462 0
2020-04-01 14:10:18 GMT 51.053234 6.353226 37,000 108 462 0
2020-04-01 14:10:15 GMT 51.055561 6.342239 37,000 108 462 0
2020-04-01 14:10:12 GMT 51.060123 6.321030 37,000 108 461 0
2020-04-01 14:10:09 GMT 51.060123 6.321030 37,000 108 461 -64
2020-04-01 14:10:06 GMT 51.061752 6.313400 37,000 108 461 -64
2020-04-01 14:10:03 GMT 51.063801 6.303711 37,000 108 461 -64
2020-04-01 14:10:00 GMT 51.065525 6.295776 37,000 108 460 64
2020-04-01 14:09:57 GMT 51.068207 6.283215 37,000 108 460 64
2020-04-01 14:09:54 GMT 51.070038 6.274643 37,000 108 460 64
2020-04-01 14:09:51 GMT 51.072227 6.264420 36,975 108 460 0
2020-04-01 14:09:48 GMT 51.073700 6.257530 36,975 108 460 0
2020-04-01 14:09:45 GMT 51.075581 6.248627 36,975 109 459 0
2020-04-01 14:09:42 GMT 51.078278 6.236152 36,975 108 460 0
2020-04-01 14:09:39 GMT 51.079697 6.229397 36,975 108 460 0
2020-04-01 14:09:36 GMT 51.083820 6.210327 36,975 109 460 0
2020-04-01 14:09:33 GMT 51.085869 6.200943 36,975 109 460 0
2020-04-01 14:09:30 GMT 51.085869 6.200943 37,000 109 460 0
2020-04-01 14:09:27 GMT 51.088383 6.189499 36,975 109 460 64
2020-04-01 14:09:24 GMT 51.090179 6.180997 36,975 109 460 64
2020-04-01 14:09:21 GMT 51.092285 6.171421 36,975 109 459 0
2020-04-01 14:09:18 GMT 51.094711 6.160278 36,975 109 459 -64
2020-04-01 14:09:15 GMT 51.096851 6.150513 36,975 109 459 -64
2020-04-01 14:09:12 GMT 51.099041 6.140518 36,975 109 459 -64
2020-04-01 14:09:09 GMT 51.101185 6.130676 36,975 109 459 0
2020-04-01 14:09:06 GMT 51.103138 6.121750 36,975 109 459 0
2020-04-01 14:09:03 GMT 51.105930 6.108856 36,975 109 459 64
2020-04-01 14:09:00 GMT 51.106911 6.104507 36,975 109 459 64
2020-04-01 14:08:57 GMT 51.108948 6.094962 36,975 109 459 64
2020-04-01 14:08:54 GMT 51.111237 6.084422 36,975 108 458 64
2020-04-01 14:08:51 GMT 51.113388 6.074549 36,975 108 458 64
2020-04-01 14:08:48 GMT 51.117645 6.054803 36,975 108 458 0
2020-04-01 14:08:45 GMT 51.117645 6.054803 36,975 108 458 64
2020-04-01 14:08:42 GMT 51.119152 6.047668 36,975 108 458 64
2020-04-01 14:08:39 GMT 51.121292 6.037674 36,975 108 458 0
2020-04-01 14:08:36 GMT 51.123596 6.026818 36,975 108 457 -64
2020-04-01 14:08:33 GMT 51.126022 6.015386 36,975 108 458 -64
2020-04-01 14:08:30 GMT 51.127392 6.008911 36,975 108 458 -64
2020-04-01 14:08:27 GMT 51.129951 5.997009 36,975 108 458 -64
2020-04-01 14:08:24 GMT 51.134125 5.977379 37,000 108 457 -64
2020-04-01 14:08:21 GMT 51.134125 5.977379 36,975 108 457 0
2020-04-01 14:08:18 GMT 51.135536 5.970840 37,000 108 457 0
2020-04-01 14:08:15 GMT 51.137959 5.959396 36,975 108 457 0
2020-04-01 14:08:12 GMT 51.139709 5.951175 36,975 108 457 0
2020-04-01 14:08:09 GMT 51.141815 5.941228 36,975 108 457 0
2020-04-01 14:08:06 GMT 51.144058 5.930786 36,975 108 456 0
2020-04-01 14:08:03 GMT 51.145687 5.923157 36,975 108 456 0
2020-04-01 14:08:00 GMT 51.148087 5.911758 36,975 108 456 0
2020-04-01 14:07:57 GMT 51.149784 5.903854 36,975 108 456 0
2020-04-01 14:07:54 GMT 51.151932 5.893571 36,975 108 456 0
2020-04-01 14:07:51 GMT 51.153946 5.884069 36,975 108 456 0
2020-04-01 14:07:48 GMT 51.156395 5.872345 37,000 108 456 0
2020-04-01 14:07:45 GMT 51.158295 5.863581 37,000 108 456 -64
2020-04-01 14:07:42 GMT 51.159714 5.856826 37,000 108 456 -64
2020-04-01 14:07:39 GMT 51.162399 5.844116 37,000 108 456 -64
2020-04-01 14:07:36 GMT 51.163795 5.837402 37,000 108 456 0
2020-04-01 14:07:33 GMT 51.166405 5.825043 37,000 108 456 0
2020-04-01 14:07:30 GMT 51.168503 5.815108 37,000 108 456 -64
2020-04-01 14:07:27 GMT 51.170174 5.807190 37,000 108 456 -64
2020-04-01 14:07:24 GMT 51.171844 5.799222 37,000 108 456 0
2020-04-01 14:07:21 GMT 51.174179 5.788088 37,000 108 456 64
2020-04-01 14:07:18 GMT 51.176689 5.776215 37,000 108 456 0
2020-04-01 14:07:15 GMT 51.177761 5.771103 37,000 108 456 0
2020-04-01 14:07:12 GMT 51.180088 5.759964 37,000 108 457 -64
2020-04-01 14:07:09 GMT 51.181999 5.750961 37,000 108 457 -64
2020-04-01 14:07:06 GMT 51.184113 5.740802 37,000 108 457 0
2020-04-01 14:07:03 GMT 51.186081 5.731449 37,000 108 457 64
2020-04-01 14:07:00 GMT 51.188370 5.720462 37,000 108 457 64
2020-04-01 14:06:57 GMT 51.190331 5.711060 37,000 108 457 64
2020-04-01 14:06:54 GMT 51.192566 5.700455 36,975 108 457 64
2020-04-01 14:06:51 GMT 51.194332 5.691910 37,000 108 457 64
2020-04-01 14:06:48 GMT 51.198395 5.672657 36,975 108 457 64
2020-04-01 14:06:45 GMT 51.198395 5.672657 36,975 108 457 64
2020-04-01 14:06:42 GMT 51.200710 5.661545 36,975 108 458 64
2020-04-01 14:06:39 GMT 51.202057 5.655212 36,975 108 458 64
2020-04-01 14:06:36 GMT 51.204063 5.645523 36,975 108 458 64
2020-04-01 14:06:33 GMT 51.206345 5.634842 36,975 108 458 0
2020-04-01 14:06:30 GMT 51.208302 5.625534 36,975 108 458 0
2020-04-01 14:06:27 GMT 51.210480 5.615053 36,975 108 458 0
2020-04-01 14:06:24 GMT 51.214119 5.597839 36,975 108 458 -64
2020-04-01 14:06:21 GMT 51.214119 5.597839 36,975 108 458 -64
2020-04-01 14:06:18 GMT 51.216522 5.586399 36,975 108 458 0
2020-04-01 14:06:15 GMT 51.218262 5.578085 36,975 108 458 0
2020-04-01 14:06:12 GMT 51.220264 5.568619 36,975 108 458 0
2020-04-01 14:06:09 GMT 51.222031 5.560226 36,975 108 458 0
2020-04-01 14:06:06 GMT 51.224030 5.550620 36,975 108 458 0
2020-04-01 14:06:03 GMT 51.226044 5.541118 36,975 108 458 0
2020-04-01 14:06:00 GMT 51.228287 5.530280 36,975 108 458 0
2020-04-01 14:05:57 GMT 51.229992 5.522003 36,975 108 459 0
2020-04-01 14:05:54 GMT 51.232132 5.511648 36,975 108 458 0
2020-04-01 14:05:51 GMT 51.234100 5.502146 36,975 108 458 0
2020-04-01 14:05:48 GMT 51.236160 5.492125 36,975 108 458 -64
2020-04-01 14:05:45 GMT 51.240051 5.473270 37,000 108 458 -64
2020-04-01 14:05:42 GMT 51.240051 5.473270 36,975 108 458 0
2020-04-01 14:05:39 GMT 51.241974 5.464139 37,000 108 459 0
2020-04-01 14:05:36 GMT 51.244423 5.452347 36,975 108 459 0
2020-04-01 14:05:33 GMT 51.246052 5.444412 37,000 108 459 -64
2020-04-01 14:05:30 GMT 51.248520 5.432358 37,000 108 458 -64
2020-04-01 14:05:27 GMT 51.250122 5.424648 37,000 108 458 0
2020-04-01 14:05:24 GMT 51.252106 5.415039 37,000 108 458 0
2020-04-01 14:05:21 GMT 51.254105 5.405199 37,000 108 458 64
2020-04-01 14:05:18 GMT 51.256062 5.395813 37,000 108 458 64
2020-04-01 14:05:15 GMT 51.258728 5.382855 36,975 108 459 0
2020-04-01 14:05:12 GMT 51.259827 5.377585 37,000 108 459 -64
2020-04-01 14:05:09 GMT 51.262348 5.365295 37,000 108 459 -128
2020-04-01 14:05:06 GMT 51.264633 5.354128 37,000 108 459 -64
2020-04-01 14:05:03 GMT 51.266373 5.345888 37,000 108 459 -64
2020-04-01 14:05:00 GMT 51.268341 5.336163 37,000 108 459 0
2020-04-01 14:04:57 GMT 51.269989 5.328221 37,000 108 459 0
2020-04-01 14:04:54 GMT 51.271957 5.318719 37,000 108 459 -64
2020-04-01 14:04:51 GMT 51.274311 5.307312 37,025 108 459 64
2020-04-01 14:04:48 GMT 51.275894 5.299716 37,025 108 460 -128
2020-04-01 14:04:45 GMT 51.280083 5.279465 37,025 108 460 -128
2020-04-01 14:04:42 GMT 51.280083 5.279465 37,025 108 460 -128
2020-04-01 14:04:39 GMT 51.282120 5.269577 37,025 108 460 -64
2020-04-01 14:04:36 GMT 51.283630 5.262154 37,025 108 459 0
2020-04-01 14:04:33 GMT 51.285599 5.252578 37,025 108 459 64
2020-04-01 14:04:30 GMT 51.287796 5.241740 37,025 108 462 -64
2020-04-01 14:04:27 GMT 51.290085 5.230606 37,025 108 459 0
2020-04-01 14:04:24 GMT 51.291954 5.221405 37,025 108 459 -64
2020-04-01 14:04:21 GMT 51.295956 5.201645 37,025 107 460 -64
2020-04-01 14:04:18 GMT 51.295956 5.201645 37,025 108 460 -64
2020-04-01 14:04:15 GMT 51.297588 5.193787 37,025 108 460 0
2020-04-01 14:04:12 GMT 51.299606 5.183765 37,025 108 460 0
2020-04-01 14:04:09 GMT 51.301849 5.172779 37,025 107 462 64
2020-04-01 14:04:06 GMT 51.303268 5.166024 37,025 108 460 -64
2020-04-01 14:04:03 GMT 51.305500 5.155029 37,025 108 460 -64
2020-04-01 14:04:00 GMT 51.307781 5.143890 37,025 108 461 -64
2020-04-01 14:03:57 GMT 51.311188 5.127126 37,050 108 461 64
2020-04-01 14:03:54 GMT 51.313889 5.113913 37,050 108 461 64
2020-04-01 14:03:51 GMT 51.313889 5.113913 37,025 108 462 0
2020-04-01 14:03:48 GMT 51.315182 5.107574 37,025 108 462 64
2020-04-01 14:03:45 GMT 51.319427 5.086670 37,025 108 462 0
2020-04-01 14:03:42 GMT 51.319427 5.086670 37,025 108 462 0
2020-04-01 14:03:39 GMT 51.321442 5.076723 37,050 108 462 -64
2020-04-01 14:03:36 GMT 51.323135 5.068557 37,025 108 462 -64
2020-04-01 14:03:33 GMT 51.327621 5.046510 37,050 108 462 -64
2020-04-01 14:03:30 GMT 51.327621 5.046510 37,050 108 462 -64
2020-04-01 14:03:27 GMT 51.329941 5.035248 37,050 108 462 0
2020-04-01 14:03:24 GMT 51.331059 5.029755 37,050 108 462 0
2020-04-01 14:03:21 GMT 51.333755 5.016372 37,025 107 462 64
2020-04-01 14:03:18 GMT 51.335678 5.006945 37,050 107 462 64
2020-04-01 14:03:15 GMT 51.337341 4.998703 37,025 107 462 64
2020-04-01 14:03:12 GMT 51.338699 4.992024 37,025 107 463 0
2020-04-01 14:03:09 GMT 51.342911 4.971091 37,025 107 463 64
2020-04-01 14:03:06 GMT 51.342911 4.971091 37,025 107 463 0
2020-04-01 14:03:03 GMT 51.345070 4.960480 37,025 107 463 -64
2020-04-01 14:03:00 GMT 51.347073 4.950562 37,025 107 463 -64
2020-04-01 14:02:57 GMT 51.350937 4.931564 37,025 107 463 -64
2020-04-01 14:02:54 GMT 51.350937 4.931564 37,050 107 463 -64
2020-04-01 14:02:51 GMT 51.352661 4.922914 37,050 107 463 -64
2020-04-01 14:02:48 GMT 51.357193 4.900422 37,050 107 463 -64
2020-04-01 14:02:45 GMT 51.357193 4.900422 37,050 107 463 -64
2020-04-01 14:02:42 GMT 51.358932 4.891811 37,050 107 463 0
2020-04-01 14:02:39 GMT 51.360626 4.883423 37,050 107 463 0
2020-04-01 14:02:36 GMT 51.362713 4.872971 37,050 107 463 0
2020-04-01 14:02:33 GMT 51.365459 4.859314 37,050 107 463 64
2020-04-01 14:02:30 GMT 51.366718 4.853134 37,025 107 464 0
2020-04-01 14:02:27 GMT 51.368912 4.842150 37,050 107 463 64
2020-04-01 14:02:24 GMT 51.370861 4.832382 37,025 107 464 0
2020-04-01 14:02:21 GMT 51.372490 4.824295 37,025 107 464 0
2020-04-01 14:02:18 GMT 51.374542 4.814164 37,050 107 464 0
2020-04-01 14:02:15 GMT 51.376694 4.803401 37,025 107 463 0
2020-04-01 14:02:12 GMT 51.379520 4.789200 37,025 107 462 0
2020-04-01 14:02:09 GMT 51.380859 4.782616 37,025 107 462 64
2020-04-01 14:02:06 GMT 51.382919 4.772149 37,025 107 462 64
2020-04-01 14:02:03 GMT 51.384918 4.762115 37,025 107 462 0
2020-04-01 14:02:00 GMT 51.386490 4.754259 37,025 107 462 0
2020-04-01 14:01:57 GMT 51.388184 4.745871 37,025 107 462 64
2020-04-01 14:01:54 GMT 51.390747 4.733029 37,025 107 462 64
2020-04-01 14:01:51 GMT 51.391949 4.726868 37,025 107 462 64
2020-04-01 14:01:48 GMT 51.393997 4.716624 37,025 107 462 0
2020-04-01 14:01:45 GMT 51.395966 4.706899 37,025 107 462 64
2020-04-01 14:01:42 GMT 51.397907 4.697342 37,025 107 462 0
2020-04-01 14:01:39 GMT 51.402557 4.674089 37,025 107 462 -64
2020-04-01 14:01:36 GMT 51.402557 4.674089 37,025 107 462 0
2020-04-01 14:01:33 GMT 51.403793 4.667779 37,025 107 462 0
2020-04-01 14:01:30 GMT 51.405304 4.660282 37,025 107 462 -64
2020-04-01 14:01:27 GMT 51.407867 4.647365 37,025 107 460 -64
2020-04-01 14:01:24 GMT 51.409607 4.638829 37,025 107 460 0
2020-04-01 14:01:21 GMT 51.411667 4.628436 37,025 107 460 0
2020-04-01 14:01:18 GMT 51.413410 4.619675 37,025 107 460 0
2020-04-01 14:01:15 GMT 51.415363 4.609756 37,025 107 460 0
2020-04-01 14:01:12 GMT 51.417801 4.597556 37,025 107 460 0
2020-04-01 14:01:09 GMT 51.419312 4.590058 37,025 107 460 0
2020-04-01 14:01:06 GMT 51.421600 4.578629 37,000 107 459 0
2020-04-01 14:01:03 GMT 51.424942 4.561850 37,025 107 460 0
2020-04-01 14:01:00 GMT 51.427094 4.551010 37,025 107 460 0
2020-04-01 14:00:57 GMT 51.427094 4.551010 37,025 107 459 64
2020-04-01 14:00:54 GMT 51.428818 4.542465 37,025 107 459 64
2020-04-01 14:00:51 GMT 51.432724 4.522656 37,025 107 460 64
2020-04-01 14:00:48 GMT 51.435791 4.507141 37,025 107 460 64
2020-04-01 14:00:45 GMT 51.435791 4.507141 37,000 107 458 0
2020-04-01 14:00:42 GMT 51.437119 4.500534 37,000 107 460 0
2020-04-01 14:00:39 GMT 51.440411 4.483795 37,000 107 460 0
2020-04-01 14:00:36 GMT 51.440411 4.483795 37,000 107 460 0
2020-04-01 14:00:33 GMT 51.442131 4.474869 37,000 107 459 0
2020-04-01 14:00:30 GMT 51.444305 4.463790 37,000 107 459 0
2020-04-01 14:00:27 GMT 51.446880 4.450684 37,000 107 458 0
2020-04-01 14:00:24 GMT 51.448044 4.444580 37,025 107 457 0
2020-04-01 14:00:21 GMT 51.450714 4.430979 37,000 107 458 0
2020-04-01 14:00:18 GMT 51.451908 4.424744 37,025 107 457 0
2020-04-01 14:00:15 GMT 51.453690 4.415687 37,025 107 457 0
2020-04-01 14:00:12 GMT 51.456051 4.403458 37,025 107 456 64
2020-04-01 14:00:09 GMT 51.457634 4.395370 37,025 107 456 0
2020-04-01 14:00:06 GMT 51.459541 4.385605 37,000 107 456 0
2020-04-01 14:00:03 GMT 51.463120 4.367288 37,000 107 457 0
2020-04-01 14:00:00 GMT 51.463120 4.367288 37,000 107 457 0
2020-04-01 13:59:57 GMT 51.465221 4.356689 37,000 107 457 0
2020-04-01 13:59:54 GMT 51.467270 4.346237 37,000 107 457 0
2020-04-01 13:59:51 GMT 51.468887 4.338041 37,000 107 457 0
2020-04-01 13:59:48 GMT 51.470947 4.327426 37,000 107 456 0
2020-04-01 13:59:45 GMT 51.472778 4.318295 37,000 107 456 0
2020-04-01 13:59:42 GMT 51.474884 4.307606 37,000 107 456 0
2020-04-01 13:59:39 GMT 51.476582 4.299011 37,000 107 456 0
2020-04-01 13:59:36 GMT 51.478489 4.289169 37,000 107 456 0
2020-04-01 13:59:33 GMT 51.480209 4.280472 37,000 107 456 0
2020-04-01 13:59:30 GMT 51.482208 4.270415 37,000 107 456 0
2020-04-01 13:59:27 GMT 51.483902 4.261805 37,000 107 456 0
2020-04-01 13:59:24 GMT 51.485641 4.253045 37,000 107 456 0
2020-04-01 13:59:21 GMT 51.488342 4.239386 37,000 107 456 0
2020-04-01 13:59:18 GMT 51.492500 4.218140 37,000 107 455 0
2020-04-01 13:59:15 GMT 51.492500 4.218140 37,000 107 455 64
2020-04-01 13:59:12 GMT 51.493881 4.211030 37,000 107 455 0
2020-04-01 13:59:09 GMT 51.495300 4.203532 37,000 107 455 0
2020-04-01 13:59:06 GMT 51.497452 4.192472 37,000 107 455 64
2020-04-01 13:59:03 GMT 51.499390 4.182587 37,000 107 455 64
2020-04-01 13:59:00 GMT 51.501389 4.172355 37,000 107 455 0
2020-04-01 13:58:57 GMT 51.503265 4.162556 37,000 107 455 0
2020-04-01 13:58:54 GMT 51.504837 4.154434 37,000 107 455 0
2020-04-01 13:58:51 GMT 51.506607 4.145355 37,000 107 454 64
2020-04-01 13:58:48 GMT 51.508656 4.134750 37,000 107 454 0
2020-04-01 13:58:45 GMT 51.510406 4.125737 37,000 107 454 0
2020-04-01 13:58:42 GMT 51.514099 4.106827 36,975 107 454 0
2020-04-01 13:58:39 GMT 51.514099 4.106827 37,000 107 454 0
2020-04-01 13:58:36 GMT 51.516197 4.095993 37,000 107 454 0
2020-04-01 13:58:33 GMT 51.518246 4.085464 37,000 107 454 0
2020-04-01 13:58:30 GMT 51.520294 4.074860 36,975 107 454 0
2020-04-01 13:58:27 GMT 51.522202 4.064941 37,000 107 454 -64
2020-04-01 13:58:24 GMT 51.523727 4.056999 37,000 107 453 0
2020-04-01 13:58:21 GMT 51.525555 4.047546 37,000 107 453 0
2020-04-01 13:58:18 GMT 51.527462 4.037628 37,000 107 453 0
2020-04-01 13:58:15 GMT 51.529556 4.026794 37,000 107 452 0
2020-04-01 13:58:12 GMT 51.530869 4.020031 37,000 107 452 0
2020-04-01 13:58:09 GMT 51.533066 4.008674 37,000 107 452 0
2020-04-01 13:58:06 GMT 51.534538 4.000931 37,000 107 452 0
2020-04-01 13:58:03 GMT 51.536865 3.988779 37,000 107 452 -64
2020-04-01 13:58:00 GMT 51.538868 3.978271 37,000 107 452 0
2020-04-01 13:57:57 GMT 51.540356 3.970566 37,000 107 452 0
2020-04-01 13:57:54 GMT 51.541801 3.963013 37,000 107 452 0
2020-04-01 13:57:51 GMT 51.543800 3.952637 37,000 107 452 0
2020-04-01 13:57:48 GMT 51.545570 3.943329 37,000 106 451 0
2020-04-01 13:57:45 GMT 51.547478 3.933487 37,000 106 451 0
2020-04-01 13:57:42 GMT 51.549316 3.923826 37,000 106 451 0
2020-04-01 13:57:39 GMT 51.551376 3.912989 37,000 106 451 0
2020-04-01 13:57:36 GMT 51.553158 3.903732 37,000 106 451 0
2020-04-01 13:57:33 GMT 51.555222 3.892723 37,000 106 451 0
2020-04-01 13:57:30 GMT 51.556778 3.884632 37,000 106 451 0
2020-04-01 13:57:27 GMT 51.558838 3.873943 37,000 106 451 0
2020-04-01 13:57:21 GMT 51.561996 3.857315 37,000 107 450 0
2020-04-01 13:57:18 GMT 51.564053 3.846512 37,000 107 450 0
2020-04-01 13:57:15 GMT 51.566162 3.835490 37,000 107 450 0
2020-04-01 13:57:12 GMT 51.567497 3.828506 37,000 107 450 -64
2020-04-01 13:57:09 GMT 51.569733 3.816858 37,000 107 450 -64
2020-04-01 13:57:06 GMT 51.573395 3.797781 37,000 107 450 0
2020-04-01 13:57:00 GMT 51.574898 3.789749 37,000 107 450 0
2020-04-01 13:56:57 GMT 51.576855 3.779602 37,025 107 450 0
2020-04-01 13:56:54 GMT 51.578339 3.771725 37,025 107 450 0
2020-04-01 13:56:51 GMT 51.580437 3.760681 37,000 106 450 0
2020-04-01 13:56:48 GMT 51.582642 3.749010 37,000 106 450 0
2020-04-01 13:56:45 GMT 51.586071 3.730927 37,000 106 450 0
2020-04-01 13:56:42 GMT 51.586071 3.730927 37,000 106 450 0
2020-04-01 13:56:39 GMT 51.588226 3.719540 37,000 106 451 64
2020-04-01 13:56:36 GMT 51.589828 3.711078 37,000 106 451 0
2020-04-01 13:56:33 GMT 51.591431 3.702318 37,000 106 451 0
2020-04-01 13:56:30 GMT 51.592896 3.694524 37,000 106 451 64
2020-04-01 13:56:27 GMT 51.594452 3.686284 37,000 106 451 64
2020-04-01 13:56:24 GMT 51.596786 3.673962 37,000 106 451 64
2020-04-01 13:56:21 GMT 51.598827 3.662949 37,000 106 451 0
2020-04-01 13:56:18 GMT 51.600410 3.654480 37,000 106 451 0
2020-04-01 13:56:15 GMT 51.601959 3.646347 37,000 106 451 64
2020-04-01 13:56:12 GMT 51.605621 3.626633 37,000 106 451 64
2020-04-01 13:56:09 GMT 51.605621 3.626633 37,000 106 451 0
2020-04-01 13:56:06 GMT 51.607407 3.617174 37,000 106 451 0
2020-04-01 13:56:03 GMT 51.609440 3.606415 37,000 106 451 0
2020-04-01 13:56:00 GMT 51.612839 3.588409 37,000 106 451 -64
2020-04-01 13:55:54 GMT 51.614609 3.578949 37,025 106 451 -64
2020-04-01 13:55:51 GMT 51.616470 3.569146 37,000 106 451 -64
2020-04-01 13:55:48 GMT 51.618610 3.557587 37,025 106 451 -64
2020-04-01 13:55:45 GMT 51.620499 3.547693 37,025 106 450 0
2020-04-01 13:55:42 GMT 51.621918 3.540192 37,025 106 450 0
2020-04-01 13:55:39 GMT 51.623684 3.530731 37,025 106 451 0
2020-04-01 13:55:36 GMT 51.627319 3.511542 37,000 106 451 0
2020-04-01 13:55:33 GMT 51.627319 3.511542 37,000 106 452 0
2020-04-01 13:55:30 GMT 51.629059 3.502337 37,000 106 452 0
2020-04-01 13:55:27 GMT 51.631165 3.491203 37,000 106 452 0
2020-04-01 13:55:24 GMT 51.633228 3.480301 37,000 106 453 0
2020-04-01 13:55:21 GMT 51.634438 3.473816 37,000 106 454 0
2020-04-01 13:55:18 GMT 51.637115 3.459580 37,000 106 455 -64
2020-04-01 13:55:15 GMT 51.640457 3.441690 37,000 106 456 0
2020-04-01 13:55:12 GMT 51.640457 3.441690 37,000 106 456 0
2020-04-01 13:55:09 GMT 51.642059 3.433228 37,000 106 456 -64
2020-04-01 13:55:06 GMT 51.644348 3.420905 37,000 106 457 -64
2020-04-01 13:55:03 GMT 51.645859 3.412665 37,025 106 457 0
2020-04-01 13:55:00 GMT 51.647690 3.402718 37,025 106 457 0
2020-04-01 13:54:57 GMT 51.649242 3.394318 37,000 106 457 64
2020-04-01 13:54:54 GMT 51.651012 3.384705 37,000 106 458 0
2020-04-01 13:54:51 GMT 51.653046 3.373842 37,000 106 458 0
2020-04-01 13:54:48 GMT 51.654827 3.363953 37,000 106 459 -64
2020-04-01 13:54:45 GMT 51.656296 3.355878 37,025 106 460 -192
2020-04-01 13:54:42 GMT 51.658081 3.346376 37,025 106 460 -192
2020-04-01 13:54:39 GMT 51.661652 3.326705 37,025 106 461 -192
2020-04-01 13:54:36 GMT 51.661652 3.326705 37,050 106 461 -192
2020-04-01 13:54:33 GMT 51.663803 3.315050 37,050 106 461 -128
2020-04-01 13:54:30 GMT 51.665268 3.307033 37,050 106 462 0
2020-04-01 13:54:27 GMT 51.666981 3.297806 37,050 106 462 0
2020-04-01 13:54:24 GMT 51.669525 3.284021 37,050 106 462 0
2020-04-01 13:54:21 GMT 51.670841 3.276901 37,050 106 462 0
2020-04-01 13:54:18 GMT 51.673218 3.264236 37,050 106 462 0
2020-04-01 13:54:15 GMT 51.674660 3.256531 37,050 106 462 0
2020-04-01 13:54:12 GMT 51.676571 3.246460 37,050 106 462 0
2020-04-01 13:54:09 GMT 51.678432 3.236465 37,050 106 462 0
2020-04-01 13:54:06 GMT 51.680878 3.223225 37,050 106 462 0
2020-04-01 13:54:03 GMT 51.682388 3.215179 37,050 106 461 -64
2020-04-01 13:54:00 GMT 51.684204 3.205414 37,050 106 461 -64
2020-04-01 13:53:57 GMT 51.686111 3.195190 37,050 106 461 0
2020-04-01 13:53:54 GMT 51.687607 3.187297 37,050 106 461 0
2020-04-01 13:53:51 GMT 51.689278 3.178329 37,050 106 461 0
2020-04-01 13:53:48 GMT 51.691086 3.168739 37,050 106 461 0
2020-04-01 13:53:45 GMT 51.692863 3.159256 37,050 106 461 0
2020-04-01 13:53:42 GMT 51.697266 3.135335 37,050 106 461 0
2020-04-01 13:53:39 GMT 51.697266 3.135335 37,050 106 461 64
2020-04-01 13:53:36 GMT 51.698273 3.129990 37,050 106 461 64
2020-04-01 13:53:33 GMT 51.700699 3.116851 37,050 106 461 64
2020-04-01 13:53:30 GMT 51.702576 3.106533 37,000 106 459 128
2020-04-01 13:53:27 GMT 51.703709 3.100204 37,025 106 460 128
2020-04-01 13:53:24 GMT 51.705666 3.089600 37,025 106 460 128
2020-04-01 13:53:21 GMT 51.707520 3.079512 37,025 106 460 128
2020-04-01 13:53:18 GMT 51.709667 3.067551 37,025 106 460 128
2020-04-01 13:53:15 GMT 51.711182 3.059470 37,000 106 460 128
2020-04-01 13:53:12 GMT 51.713058 3.049003 37,000 106 460 128
2020-04-01 13:53:09 GMT 51.714706 3.039872 37,000 106 459 128
2020-04-01 13:53:06 GMT 51.718323 3.020127 37,000 106 459 64
2020-04-01 13:53:03 GMT 51.718323 3.020127 37,000 106 457 -64
2020-04-01 13:53:00 GMT 51.720097 3.010483 37,000 106 458 0
2020-04-01 13:52:57 GMT 51.723541 2.991486 37,000 106 457 -64
2020-04-01 13:52:54 GMT 51.723541 2.991486 37,000 106 458 -64
2020-04-01 13:52:51 GMT 51.725327 2.981675 37,000 106 457 -64
2020-04-01 13:52:48 GMT 51.727982 2.967051 37,000 106 456 -64
2020-04-01 13:52:45 GMT 51.728943 2.961929 37,000 106 456 64
2020-04-01 13:52:42 GMT 51.730774 2.951685 37,025 106 455 64
2020-04-01 13:52:39 GMT 51.732788 2.940699 37,000 106 454 0
2020-04-01 13:52:36 GMT 51.734253 2.932682 37,000 106 454 -64
2020-04-01 13:52:33 GMT 51.736038 2.922883 37,000 106 454 -64
2020-04-01 13:52:30 GMT 51.737503 2.914792 37,000 106 454 -64
2020-04-01 13:52:27 GMT 51.739414 2.904434 37,000 106 454 64
2020-04-01 13:52:24 GMT 51.741211 2.894452 37,000 106 453 0
2020-04-01 13:52:21 GMT 51.743317 2.882946 37,000 106 453 0
2020-04-01 13:52:18 GMT 51.744720 2.875061 37,000 106 451 -64
2020-04-01 13:52:15 GMT 51.746632 2.864609 37,000 106 451 0
2020-04-01 13:52:12 GMT 51.748169 2.855926 37,000 106 451 64
2020-04-01 13:52:09 GMT 51.749954 2.845830 37,000 106 451 0
2020-04-01 13:52:06 GMT 51.751842 2.835388 37,000 106 451 64
2020-04-01 13:52:03 GMT 51.754169 2.822189 37,000 105 450 0
2020-04-01 13:52:00 GMT 51.755287 2.815857 37,000 105 450 0
2020-04-01 13:51:57 GMT 51.756775 2.807601 37,000 105 450 0
2020-04-01 13:51:54 GMT 51.758652 2.797208 37,000 105 450 0
2020-04-01 13:51:51 GMT 51.762360 2.776275 37,000 105 450 -64
2020-04-01 13:51:48 GMT 51.762360 2.776275 37,000 106 448 -64
2020-04-01 13:51:45 GMT 51.763714 2.768707 37,000 106 449 0
2020-04-01 13:51:42 GMT 51.765518 2.758608 37,000 106 448 64
2020-04-01 13:51:39 GMT 51.767487 2.747473 37,000 106 448 -64
2020-04-01 13:51:36 GMT 51.769318 2.737377 37,000 106 448 0
2020-04-01 13:51:33 GMT 51.771057 2.727653 37,000 106 448 0
2020-04-01 13:51:30 GMT 51.772743 2.718277 37,000 106 447 -64
2020-04-01 13:51:27 GMT 51.774513 2.708511 37,025 106 447 0
2020-04-01 13:51:24 GMT 51.776470 2.697601 37,000 106 446 -64
2020-04-01 13:51:21 GMT 51.777679 2.690964 37,025 106 446 64
2020-04-01 13:51:18 GMT 51.779728 2.679443 37,000 106 446 64
2020-04-01 13:51:15 GMT 51.780991 2.672573 37,000 106 446 64
2020-04-01 13:51:12 GMT 51.783142 2.660473 37,000 106 447 64
2020-04-01 13:51:09 GMT 51.784515 2.653050 37,000 106 447 0
2020-04-01 13:51:06 GMT 51.786575 2.641544 36,600 106 455 1024
2020-04-01 13:51:03 GMT 51.788109 2.633133 37,000 106 448 -64
2020-04-01 13:51:00 GMT 51.790054 2.622244 37,000 106 449 128
2020-04-01 13:50:57 GMT 51.791702 2.613113 37,000 106 449 256
2020-04-01 13:50:54 GMT 51.793625 2.602275 37,000 106 449 128
2020-04-01 13:50:51 GMT 51.796829 2.584608 36,975 106 449 384
2020-04-01 13:50:48 GMT 51.796829 2.584608 36,950 106 450 512
2020-04-01 13:50:45 GMT 51.798347 2.576065 36,925 106 450 832
2020-04-01 13:50:42 GMT 51.800816 2.562256 36,875 106 452 1088
2020-04-01 13:50:39 GMT 51.801701 2.557297 36,850 106 451 1088
2020-04-01 13:50:36 GMT 51.803562 2.546997 36,775 106 453 1024
2020-04-01 13:50:33 GMT 51.805801 2.534427 36,700 106 455 1024
2020-04-01 13:50:30 GMT 51.809521 2.513580 36,625 106 456 960
2020-04-01 13:50:27 GMT 51.809521 2.513580 36,600 105 459 960
2020-04-01 13:50:24 GMT 51.810654 2.507036 36,575 105 459 960
2020-04-01 13:50:21 GMT 51.812874 2.494583 36,525 105 459 960
2020-04-01 13:50:18 GMT 51.816376 2.474670 36,450 105 461 960
2020-04-01 13:50:15 GMT 51.816376 2.474670 36,425 105 461 1024
2020-04-01 13:50:12 GMT 51.817383 2.468658 36,375 105 460 1024
2020-04-01 13:50:09 GMT 51.819672 2.455597 36,325 105 461 1024
2020-04-01 13:50:06 GMT 51.821320 2.446017 36,250 105 461 1024
2020-04-01 13:50:03 GMT 51.822697 2.438126 36,250 105 461 1024
2020-04-01 13:50:00 GMT 51.824615 2.426939 36,175 105 462 896
2020-04-01 13:49:57 GMT 51.826447 2.416101 36,150 105 462 896
2020-04-01 13:49:54 GMT 51.827774 2.408307 36,125 105 462 896
2020-04-01 13:49:51 GMT 51.831306 2.387390 36,025 105 462 960
2020-04-01 13:49:48 GMT 51.831306 2.387390 36,000 105 462 1024
2020-04-01 13:49:45 GMT 51.832764 2.378837 35,950 105 461 1024
2020-04-01 13:49:42 GMT 51.834274 2.370152 35,925 105 461 1024
2020-04-01 13:49:39 GMT 51.836243 2.358572 35,825 105 461 960
2020-04-01 13:49:36 GMT 51.838303 2.346546 35,800 105 461 896
2020-04-01 13:49:33 GMT 51.840088 2.336154 35,775 105 460 832
2020-04-01 13:49:30 GMT 51.841179 2.329941 35,750 105 461 832
2020-04-01 13:49:27 GMT 51.843201 2.318412 35,650 106 459 640
2020-04-01 13:49:24 GMT 51.844902 2.308807 35,650 106 459 640
2020-04-01 13:49:21 GMT 51.846725 2.298370 35,625 106 459 640
2020-04-01 13:49:17 GMT 51.849232 2.284622 35,575 106 458 704
2020-04-01 13:49:14 GMT 51.850765 2.276306 35,475 106 457 768
2020-04-01 13:49:11 GMT 51.853001 2.264099 35,500 106 457 704
2020-04-01 13:49:08 GMT 51.854164 2.257767 35,475 106 457 832
2020-04-01 13:49:05 GMT 51.855980 2.247543 35,375 104 455 832
2020-04-01 13:49:02 GMT 51.857712 2.237128 35,375 103 455 832
2020-04-01 13:48:59 GMT 51.860504 2.217754 35,300 101 453 960
2020-04-01 13:48:56 GMT 51.861938 2.205811 35,225 101 453 1024
2020-04-01 13:48:53 GMT 51.861938 2.205811 35,225 99 451 832
2020-04-01 13:48:50 GMT 51.863068 2.195261 35,175 99 451 896
2020-04-01 13:48:47 GMT 51.865059 2.174911 35,150 98 451 704
2020-04-01 13:48:44 GMT 51.865059 2.174911 35,125 98 451 576
2020-04-01 13:48:41 GMT 51.866035 2.164841 35,075 98 449 576
2020-04-01 13:48:38 GMT 51.866779 2.156906 35,075 98 449 640
2020-04-01 13:48:35 GMT 51.867947 2.144928 35,000 98 448 896
2020-04-01 13:48:32 GMT 51.868645 2.137909 34,250 98 450 1024
2020-04-01 13:48:29 GMT 51.869843 2.125261 34,475 98 451 1920
2020-04-01 13:48:26 GMT 51.870667 2.116798 34,875 98 448 1472
2020-04-01 13:48:23 GMT 51.871857 2.104340 34,700 98 449 1856
2020-04-01 13:48:20 GMT 51.872452 2.098018 34,700 98 449 1792
2020-04-01 13:48:17 GMT 51.873413 2.088219 34,625 98 450 1920
2020-04-01 13:48:14 GMT 51.874329 2.078569 34,550 98 451 1920
2020-04-01 13:48:11 GMT 51.875565 2.065652 34,275 98 452 1536
2020-04-01 13:48:08 GMT 51.876652 2.054214 34,300 98 452 960
2020-04-01 13:48:05 GMT 51.877304 2.047391 34,275 98 452 1344
2020-04-01 13:48:02 GMT 51.878468 2.035370 34,200 98 452 1088
2020-04-01 13:47:59 GMT 51.879135 2.028462 34,150 98 452 960
2020-04-01 13:47:56 GMT 51.880188 2.017212 34,100 98 451 1024
2020-04-01 13:47:53 GMT 51.881119 2.007446 34,075 98 451 1024
2020-04-01 13:47:50 GMT 51.881908 1.998901 34,000 98 451 1024
2020-04-01 13:47:47 GMT 51.882889 1.988228 33,975 98 451 1024
2020-04-01 13:47:44 GMT 51.884007 1.976471 33,900 98 450 1024
2020-04-01 13:47:41 GMT 51.884949 1.966479 33,825 98 450 1024
2020-04-01 13:47:38 GMT 51.885681 1.958389 33,800 98 450 1024
2020-04-01 13:47:35 GMT 51.886734 1.947030 33,775 98 450 1088
2020-04-01 13:47:32 GMT 51.887558 1.938196 33,700 98 449 1280
2020-04-01 13:47:29 GMT 51.888474 1.928406 33,650 98 449 1344
2020-04-01 13:47:26 GMT 51.889545 1.917038 33,550 98 449 1088
2020-04-01 13:47:23 GMT 51.890671 1.904866 33,525 98 448 1024
2020-04-01 13:47:20 GMT 51.891174 1.899373 33,350 98 447 1024
2020-04-01 13:47:17 GMT 51.893082 1.878510 33,325 98 444 1024
2020-04-01 13:47:14 GMT 51.893082 1.878510 33,200 98 446 1024
2020-04-01 13:47:11 GMT 51.894108 1.867362 33,300 98 447 1024
2020-04-01 13:47:08 GMT 51.894897 1.859122 33,275 98 446 1024
2020-04-01 13:47:05 GMT 51.895798 1.849289 33,150 98 445 1024
2020-04-01 13:47:02 GMT 51.896713 1.839347 33,150 98 445 1024
2020-04-01 13:46:59 GMT 51.897583 1.829758 33,075 98 445 960
2020-04-01 13:46:56 GMT 51.898773 1.816711 33,025 98 444 960
2020-04-01 13:46:53 GMT 51.899460 1.809235 32,975 98 444 1024
2020-04-01 13:46:50 GMT 51.900391 1.799561 32,975 98 443 1024
2020-04-01 13:46:47 GMT 51.901463 1.787868 32,900 98 442 640
2020-04-01 13:46:44 GMT 51.903076 1.770020 32,875 98 441 448
2020-04-01 13:46:41 GMT 51.903076 1.770020 32,850 98 438 1536
2020-04-01 13:46:38 GMT 51.903992 1.760178 32,850 98 440 576
2020-04-01 13:46:35 GMT 51.905869 1.740189 32,725 98 438 1152
2020-04-01 13:46:29 GMT 51.906921 1.728668 32,675 98 438 1536
2020-04-01 13:46:26 GMT 51.907513 1.722421 32,525 98 438 1984
2020-04-01 13:46:23 GMT 51.908661 1.709747 32,475 98 439 2048
2020-04-01 13:46:20 GMT 51.909485 1.700821 32,350 98 440 1920
2020-04-01 13:46:17 GMT 51.910400 1.690953 32,300 98 440 1920
2020-04-01 13:46:14 GMT 51.911144 1.682713 32,225 98 441 1856
2020-04-01 13:46:11 GMT 51.912357 1.669451 32,100 98 441 1792
2020-04-01 13:46:08 GMT 51.912914 1.663565 32,050 98 441 1792
2020-04-01 13:46:05 GMT 51.913971 1.652145 31,925 98 442 1728
2020-04-01 13:46:02 GMT 51.914841 1.642456 31,775 98 442 1664
2020-04-01 13:45:59 GMT 51.915710 1.632919 31,750 98 442 1472
2020-04-01 13:45:56 GMT 51.916718 1.621933 31,650 98 442 1408
2020-04-01 13:45:53 GMT 51.917633 1.611786 31,550 98 442 1216
2020-04-01 13:45:50 GMT 51.918549 1.601728 31,525 98 442 1088
2020-04-01 13:45:47 GMT 51.919525 1.590742 31,500 98 441 1088
2020-04-01 13:45:44 GMT 51.920921 1.575439 31,425 98 440 1024
2020-04-01 13:45:41 GMT 51.920921 1.575439 31,400 98 440 1024
2020-04-01 13:45:38 GMT 51.922119 1.561661 31,375 98 439 960
2020-04-01 13:45:35 GMT 51.922783 1.554487 31,325 98 438 896
2020-04-01 13:45:32 GMT 51.923676 1.544342 30,975 98 436 1856
2020-04-01 13:45:29 GMT 51.924728 1.532745 31,200 98 437 1216
2020-04-01 13:45:26 GMT 51.925671 1.522470 31,175 98 436 1408
2020-04-01 13:45:23 GMT 51.926331 1.514664 31,075 98 436 1728
2020-04-01 13:45:20 GMT 51.926971 1.507717 30,950 98 436 1856
2020-04-01 13:45:17 GMT 51.927902 1.496809 30,900 98 437 1792
2020-04-01 13:45:14 GMT 51.929859 1.475071 30,775 98 437 1728
2020-04-01 13:45:11 GMT 51.929859 1.475071 30,700 98 437 1664
2020-04-01 13:45:08 GMT 51.930588 1.466751 30,650 98 437 1664
2020-04-01 13:45:05 GMT 51.931534 1.456081 30,550 98 437 1536
2020-04-01 13:45:02 GMT 51.932419 1.445879 30,425 98 437 1536
2020-04-01 13:44:59 GMT 51.933289 1.436462 30,400 98 437 1600
2020-04-01 13:44:56 GMT 51.933975 1.428375 30,350 98 437 1600
2020-04-01 13:44:53 GMT 51.934746 1.419826 30,300 98 437 1600
2020-04-01 13:44:50 GMT 51.935577 1.410522 30,075 98 436 1408
2020-04-01 13:44:47 GMT 51.936703 1.397382 30,075 98 436 1472
2020-04-01 13:44:44 GMT 51.937500 1.388245 30,025 98 436 1408
2020-04-01 13:44:41 GMT 51.938232 1.380005 29,925 98 436 1472
2020-04-01 13:44:38 GMT 51.939102 1.370010 29,825 98 436 1728
2020-04-01 13:44:35 GMT 51.939835 1.361694 29,775 98 436 1856
2020-04-01 13:44:32 GMT 51.940933 1.348877 29,700 98 436 1920
2020-04-01 13:44:29 GMT 51.941666 1.340485 29,575 98 436 1984
2020-04-01 13:44:26 GMT 51.942570 1.330366 29,425 98 437 1920
2020-04-01 13:44:23 GMT 51.943176 1.323318 29,375 98 437 1856
2020-04-01 13:44:20 GMT 51.944244 1.310983 29,325 98 437 1792
2020-04-01 13:44:17 GMT 51.944847 1.303920 29,250 98 437 1728
2020-04-01 13:44:14 GMT 51.945694 1.294250 29,050 98 437 1728
2020-04-01 13:44:11 GMT 51.946804 1.281320 29,025 98 437 1728
2020-04-01 13:44:08 GMT 51.947548 1.272766 28,975 98 437 1664
2020-04-01 13:44:05 GMT 51.948387 1.263035 28,875 98 436 1408
2020-04-01 13:44:02 GMT 51.949265 1.253128 28,550 98 431 1024
2020-04-01 13:43:59 GMT 51.950134 1.243286 28,550 98 432 960
2020-04-01 13:43:56 GMT 51.950714 1.236590 28,550 98 432 960
2020-04-01 13:43:53 GMT 51.951740 1.224976 28,600 98 433 960
2020-04-01 13:43:50 GMT 51.952515 1.215744 28,600 98 432 960
2020-04-01 13:43:47 GMT 51.953430 1.205902 28,525 98 431 1024
2020-04-01 13:43:44 GMT 51.955418 1.183777 28,450 98 430 1216
2020-04-01 13:43:41 GMT 51.955418 1.183777 28,400 98 429 1280
2020-04-01 13:43:38 GMT 51.955994 1.177521 28,375 98 429 1344
2020-04-01 13:43:35 GMT 51.957047 1.166153 28,275 98 428 1536
2020-04-01 13:43:32 GMT 51.957916 1.156693 28,125 98 428 1600
2020-04-01 13:43:29 GMT 51.958878 1.146469 28,100 98 427 1664
2020-04-01 13:43:26 GMT 51.959473 1.140137 28,050 98 427 1664
2020-04-01 13:43:23 GMT 51.961304 1.120529 27,800 98 427 1792
2020-04-01 13:43:20 GMT 51.961304 1.120529 27,825 98 427 1792
2020-04-01 13:43:17 GMT 51.962082 1.112061 27,500 91 423 1472
2020-04-01 13:43:14 GMT 51.963135 1.100082 27,725 96 425 1792
2020-04-01 13:43:11 GMT 51.964169 1.082153 27,550 92 423 1536
2020-04-01 13:43:08 GMT 51.964169 1.082153 27,500 90 423 1408
2020-04-01 13:43:05 GMT 51.964279 1.073990 27,450 88 421 1280
2020-04-01 13:43:02 GMT 51.964073 1.062143 27,400 86 419 1216
2020-04-01 13:42:59 GMT 51.963703 1.054295 27,325 82 417 1216
2020-04-01 13:42:56 GMT 51.963005 1.045114 27,275 80 414 1280
2020-04-01 13:42:53 GMT 51.961979 1.035618 27,150 76 392 1856
2020-04-01 13:42:50 GMT 51.960846 1.027069 27,150 77 411 1472
2020-04-01 13:42:47 GMT 51.959232 1.015686 27,050 76 410 1472
2020-04-01 13:42:44 GMT 51.957932 1.006583 27,000 76 410 1536
2020-04-01 13:42:41 GMT 51.957092 1.000541 26,700 77 409 1600
2020-04-01 13:42:38 GMT 51.955673 0.990601 26,775 76 408 1536
2020-04-01 13:42:35 GMT 51.954346 0.981393 26,525 76 405 1408
2020-04-01 13:42:32 GMT 51.953228 0.973624 26,700 76 407 1408
2020-04-01 13:42:29 GMT 51.952019 0.965227 26,475 76 406 1280
2020-04-01 13:42:26 GMT 51.950249 0.952985 26,525 76 405 1408
2020-04-01 13:42:23 GMT 51.949409 0.947100 26,375 76 404 1600
2020-04-01 13:42:20 GMT 51.948154 0.938389 26,425 76 404 1600
2020-04-01 13:42:17 GMT 51.946896 0.929757 26,100 76 403 1920
2020-04-01 13:42:14 GMT 51.945648 0.920944 26,200 76 403 1984
2020-04-01 13:42:11 GMT 51.944057 0.910060 26,100 76 403 2112
2020-04-01 13:42:08 GMT 51.943039 0.902939 26,050 76 403 2176
2020-04-01 13:42:05 GMT 51.941711 0.893860 25,975 76 403 2240
2020-04-01 13:42:02 GMT 51.940201 0.883408 25,700 76 403 2112
2020-04-01 13:41:59 GMT 51.939171 0.876317 25,675 76 403 2112
2020-04-01 13:41:56 GMT 51.937958 0.867767 25,600 76 403 1984
2020-04-01 13:41:53 GMT 51.936401 0.857162 25,200 76 401 1600
2020-04-01 13:41:50 GMT 51.935028 0.847702 25,300 76 396 1856
2020-04-01 13:41:47 GMT 51.933792 0.839233 25,300 76 402 1600
2020-04-01 13:41:44 GMT 51.932465 0.830154 25,275 76 401 1600
2020-04-01 13:41:41 GMT 51.930233 0.815029 25,100 76 400 1600
2020-04-01 13:41:38 GMT 51.930233 0.815029 25,025 76 399 1664
2020-04-01 13:41:35 GMT 51.928940 0.806046 24,975 76 399 1664
2020-04-01 13:41:32 GMT 51.927532 0.796587 23,175 76 398 1856
2020-04-01 13:41:29 GMT 51.926369 0.788426 24,825 76 398 1856
2020-04-01 13:41:26 GMT 51.924683 0.777054 24,750 76 398 1856
2020-04-01 13:41:23 GMT 51.923676 0.769958 24,625 76 397 1792
2020-04-01 13:41:20 GMT 51.921249 0.753479 24,500 76 396 1792
2020-04-01 13:41:17 GMT 51.921249 0.753479 24,450 76 396 1856
2020-04-01 13:41:14 GMT 51.919601 0.742340 24,375 76 396 1920
2020-04-01 13:41:11 GMT 51.918781 0.736633 24,225 76 395 1920
2020-04-01 13:41:08 GMT 51.917336 0.726981 24,100 76 393 1856
2020-04-01 13:41:05 GMT 51.916031 0.717926 24,075 76 394 1920
2020-04-01 13:41:02 GMT 51.914917 0.710502 23,975 76 394 1920
2020-04-01 13:40:59 GMT 51.913471 0.700457 23,875 76 393 1856
2020-04-01 13:40:56 GMT 51.911179 0.684967 23,725 76 393 1856
2020-04-01 13:40:53 GMT 51.911179 0.684967 23,675 76 392 1856
2020-04-01 13:40:50 GMT 51.910213 0.678406 23,625 76 392 1856
2020-04-01 13:40:47 GMT 51.908443 0.666399 23,500 76 391 1856
2020-04-01 13:40:44 GMT 51.907280 0.658709 23,350 76 390 1856
2020-04-01 13:40:41 GMT 51.905869 0.648956 23,300 76 390 1792
2020-04-01 13:40:38 GMT 51.904861 0.642090 23,250 76 389 1792
2020-04-01 13:40:35 GMT 51.903488 0.633011 23,125 76 389 1728
2020-04-01 13:40:32 GMT 51.902252 0.624466 23,025 76 387 1728
2020-04-01 13:40:29 GMT 51.900787 0.614777 22,550 76 386 2432
2020-04-01 13:40:26 GMT 51.900009 0.609207 22,900 76 387 1984
2020-04-01 13:40:23 GMT 51.898727 0.600586 22,800 76 386 2176
2020-04-01 13:40:20 GMT 51.897125 0.589676 22,550 76 386 2432
2020-04-01 13:40:17 GMT 51.896027 0.582504 22,525 76 386 2304
2020-04-01 13:40:14 GMT 51.894711 0.573408 22,450 76 386 2112
2020-04-01 13:40:11 GMT 51.892757 0.560379 22,250 76 385 1920
2020-04-01 13:40:08 GMT 51.892384 0.557709 22,250 76 385 1920
2020-04-01 13:40:05 GMT 51.891129 0.549316 22,125 76 384 1920
2020-04-01 13:40:02 GMT 51.890030 0.541745 22,000 76 383 1792
2020-04-01 13:39:59 GMT 51.888615 0.532227 21,950 76 383 1856
2020-04-01 13:39:56 GMT 51.886101 0.515366 21,800 76 382 1920
2020-04-01 13:39:50 GMT 51.884796 0.506897 21,625 76 381 2048
2020-04-01 13:39:47 GMT 51.882980 0.494682 21,150 76 378 2240
2020-04-01 13:39:44 GMT 51.882515 0.491562 21,475 76 379 2112
2020-04-01 13:39:41 GMT 51.881306 0.483627 21,375 76 379 2112
2020-04-01 13:39:38 GMT 51.879684 0.472858 21,200 76 378 2240
2020-04-01 13:39:35 GMT 51.878723 0.466696 20,900 76 378 2240
2020-04-01 13:39:32 GMT 51.876068 0.449103 20,950 76 378 2240
2020-04-01 13:39:29 GMT 51.876068 0.449103 20,875 76 378 2240
2020-04-01 13:39:26 GMT 51.874786 0.440826 20,725 76 377 2368
2020-04-01 13:39:23 GMT 51.873486 0.432434 20,650 76 377 2496
2020-04-01 13:39:20 GMT 51.872131 0.423642 20,550 76 376 2624
2020-04-01 13:39:17 GMT 51.871124 0.417035 20,400 75 376 2688
2020-04-01 13:39:14 GMT 51.870071 0.410206 20,225 75 376 2624
2020-04-01 13:39:11 GMT 51.868504 0.400391 20,125 75 376 2560
2020-04-01 13:39:08 GMT 51.866043 0.384521 19,950 75 375 2496
2020-04-01 13:39:05 GMT 51.866043 0.384521 19,400 75 375 2944
2020-04-01 13:39:02 GMT 51.864716 0.376133 19,800 75 375 2624
2020-04-01 13:38:59 GMT 51.863522 0.368423 19,675 75 375 2752
2020-04-01 13:38:56 GMT 51.861969 0.358837 19,400 75 375 2944
2020-04-01 13:38:53 GMT 51.860729 0.350952 19,300 75 375 2816
2020-04-01 13:38:50 GMT 51.859379 0.342331 19,200 75 375 2752
2020-04-01 13:38:47 GMT 51.858032 0.333821 19,125 75 375 2496
2020-04-01 13:38:44 GMT 51.856842 0.326398 18,900 75 374 2048
2020-04-01 13:38:41 GMT 51.855560 0.318307 18,750 78 366 2880
2020-04-01 13:38:38 GMT 51.854118 0.308914 18,750 76 373 1856
2020-04-01 13:38:35 GMT 51.853317 0.303757 18,700 76 371 1920
2020-04-01 13:38:32 GMT 51.851898 0.294330 18,475 78 366 2880
2020-04-01 13:38:29 GMT 51.850861 0.287399 18,425 76 368 2368
2020-04-01 13:38:26 GMT 51.849655 0.279335 18,325 76 368 2496
2020-04-01 13:38:23 GMT 51.848206 0.269089 17,700 78 366 2880
2020-04-01 13:38:20 GMT 51.847275 0.262187 18,000 77 367 2816
2020-04-01 13:38:17 GMT 51.846359 0.255284 17,925 77 367 2880
2020-04-01 13:38:14 GMT 51.845261 0.247192 17,800 78 366 2880
2020-04-01 13:38:11 GMT 51.844204 0.239029 16,975 77 357 2496
2020-04-01 13:38:08 GMT 51.842880 0.228857 17,400 78 366 2880
2020-04-01 13:38:05 GMT 51.842010 0.222250 17,325 78 366 2880
2020-04-01 13:38:02 GMT 51.840992 0.214691 17,225 78 365 2816
2020-04-01 13:37:59 GMT 51.838531 0.196047 16,950 77 365 2304
2020-04-01 13:37:56 GMT 51.838531 0.196047 16,875 77 364 2240
2020-04-01 13:37:53 GMT 51.837799 0.190553 16,825 77 364 2240
2020-04-01 13:37:50 GMT 51.836700 0.182239 16,725 77 362 2304
2020-04-01 13:37:47 GMT 51.835449 0.173035 16,575 77 361 2368
2020-04-01 13:37:44 GMT 51.834614 0.166779 16,350 78 352 2368
2020-04-01 13:37:41 GMT 51.833588 0.159079 15,925 77 355 2624
2020-04-01 13:37:38 GMT 51.832706 0.152283 16,275 77 358 2496
2020-04-01 13:37:35 GMT 51.831261 0.141678 16,075 77 356 2432
2020-04-01 13:37:32 GMT 51.829926 0.131539 16,000 77 355 2560
2020-04-01 13:37:29 GMT 51.829376 0.127382 15,850 77 354 2752
2020-04-01 13:37:26 GMT 51.828278 0.119068 15,725 77 354 3008
2020-04-01 13:37:23 GMT 51.827179 0.110680 15,525 77 354 3136
2020-04-01 13:37:20 GMT 51.826218 0.103405 15,325 77 354 3264
2020-04-01 13:37:17 GMT 51.825302 0.096502 15,225 77 354 3264
2020-04-01 13:37:14 GMT 51.824139 0.087738 15,100 77 354 3328
2020-04-01 13:37:11 GMT 51.823254 0.081177 14,875 77 355 3328
2020-04-01 13:37:08 GMT 51.822372 0.074380 14,750 77 355 3328
2020-04-01 13:37:05 GMT 51.821182 0.065250 14,575 77 355 3264
2020-04-01 13:37:02 GMT 51.820038 0.056565 14,450 77 355 3200
2020-04-01 13:36:59 GMT 51.819019 0.048904 13,750 78 352 2368
2020-04-01 13:36:56 GMT 51.817932 0.040679 14,000 77 354 2880
2020-04-01 13:36:53 GMT 51.817158 0.034485 13,950 78 353 2432
2020-04-01 13:36:50 GMT 51.816132 0.026932 12,875 77 349 2304
2020-04-01 13:36:47 GMT 51.815186 0.019746 13,750 78 352 2368
2020-04-01 13:36:44 GMT 51.813805 0.009155 13,500 77 349 2304
2020-04-01 13:36:41 GMT 51.812851 0.002153 13,450 78 348 2368
2020-04-01 13:36:38 GMT 51.812027 -0.004380 13,275 78 347 2432
2020-04-01 13:36:35 GMT 51.811020 -0.011877 13,200 77 345 2752
2020-04-01 13:36:32 GMT 51.809647 -0.022344 13,100 77 345 2944
2020-04-01 13:36:29 GMT 51.809143 -0.026278 12,825 77 344 3072
2020-04-01 13:36:26 GMT 51.807999 -0.034963 12,425 78 342 3008
2020-04-01 13:36:23 GMT 51.806763 -0.044316 12,575 78 342 3008
2020-04-01 13:36:20 GMT 51.805889 -0.050888 12,500 78 342 3072
2020-04-01 13:36:17 GMT 51.805054 -0.057144 12,300 77 341 3136
2020-04-01 13:36:14 GMT 51.804123 -0.064316 12,075 77 340 2944
2020-04-01 13:36:11 GMT 51.803051 -0.072250 12,000 77 340 2880
2020-04-01 13:36:08 GMT 51.801910 -0.080913 11,850 77 338 2624
2020-04-01 13:36:05 GMT 51.801270 -0.085589 11,800 77 338 2496
2020-04-01 13:36:02 GMT 51.799931 -0.095673 11,550 77 334 2688
2020-04-01 13:35:59 GMT 51.798981 -0.102663 11,450 77 333 2688
2020-04-01 13:35:56 GMT 51.798115 -0.108795 11,350 77 332 2624
2020-04-01 13:35:53 GMT 51.796951 -0.117340 11,275 77 331 2432
2020-04-01 13:35:50 GMT 51.795868 -0.125378 11,075 77 327 2048
2020-04-01 13:35:47 GMT 51.795181 -0.130203 10,975 77 325 1856
2020-04-01 13:35:44 GMT 51.794159 -0.137711 10,950 77 322 1664
2020-04-01 13:35:41 GMT 51.792297 -0.150765 10,800 77 313 1344
2020-04-01 13:35:38 GMT 51.791271 -0.158157 10,750 77 312 1408
2020-04-01 13:35:35 GMT 51.791271 -0.158157 10,350 76 297 2432
2020-04-01 13:35:32 GMT 51.790283 -0.164943 10,625 77 307 1536
2020-04-01 13:35:29 GMT 51.789040 -0.173798 10,550 77 302 1856
2020-04-01 13:35:26 GMT 51.788452 -0.178008 10,400 76 297 2368
2020-04-01 13:35:23 GMT 51.787689 -0.183258 10,350 76 297 2560
2020-04-01 13:35:20 GMT 51.786247 -0.193253 10,250 76 294 2944
2020-04-01 13:35:17 GMT 51.785522 -0.198199 10,125 76 293 3136
2020-04-01 13:35:14 GMT 51.784569 -0.204849 9,775 76 291 3520
2020-04-01 13:35:11 GMT 51.783264 -0.213470 9,600 76 292 3456
2020-04-01 13:35:08 GMT 51.782867 -0.216386 9,525 76 291 3392
2020-04-01 13:35:05 GMT 51.781822 -0.223465 9,325 76 289 3264
2020-04-01 13:35:02 GMT 51.780899 -0.229674 9,100 76 288 3328
2020-04-01 13:34:59 GMT 51.779961 -0.235977 9,000 76 287 3392
2020-04-01 13:34:56 GMT 51.779068 -0.242145 8,900 76 287 3456
2020-04-01 13:34:53 GMT 51.778198 -0.248232 8,675 77 287 3520
2020-04-01 13:34:50 GMT 51.777374 -0.254319 8,550 78 285 3456
2020-04-01 13:34:47 GMT 51.776550 -0.261519 8,275 82 285 3072
2020-04-01 13:34:44 GMT 51.776138 -0.267087 8,200 87 285 2688
2020-04-01 13:34:41 GMT 51.776505 -0.281042 7,950 96 283 2368
2020-04-01 13:34:38 GMT 51.776505 -0.281042 7,825 100 280 2240
2020-04-01 13:34:35 GMT 51.777237 -0.287575 7,775 102 278 2176
2020-04-01 13:34:32 GMT 51.777958 -0.292587 7,725 103 276 2112
2020-04-01 13:34:29 GMT 51.779892 -0.304871 7,475 103 267 2112
2020-04-01 13:34:26 GMT 51.779892 -0.304871 7,475 103 266 2176
2020-04-01 13:34:23 GMT 51.780567 -0.309525 7,325 102 261 2560
2020-04-01 13:34:20 GMT 51.781357 -0.314941 7,325 102 261 2560
2020-04-01 13:34:17 GMT 51.782196 -0.321426 7,100 99 257 3136
2020-04-01 13:34:14 GMT 51.782593 -0.325581 6,875 95 255 3008
2020-04-01 13:34:11 GMT 51.783142 -0.333227 6,800 94 253 2880
2020-04-01 13:34:08 GMT 51.783314 -0.337448 6,725 92 252 2688
2020-04-01 13:34:05 GMT 51.783451 -0.342941 6,650 91 250 2496
2020-04-01 13:34:02 GMT 51.783592 -0.352249 6,400 91 242 2944
2020-04-01 13:33:59 GMT 51.783638 -0.354080 6,325 91 242 2944
2020-04-01 13:33:56 GMT 51.783691 -0.359654 6,200 90 241 3008
2020-04-01 13:33:53 GMT 51.783733 -0.364761 6,025 90 239 3392
2020-04-01 13:33:50 GMT 51.783783 -0.375539 5,725 90 238 3584
2020-04-01 13:33:47 GMT 51.783783 -0.375539 5,700 90 238 3456
2020-04-01 13:33:44 GMT 51.783783 -0.380513 5,425 89 236 3264
2020-04-01 13:33:41 GMT 51.783779 -0.386429 5,300 89 236 3264
2020-04-01 13:33:38 GMT 51.783691 -0.397586 5,150 89 234 3264
2020-04-01 13:33:35 GMT 51.783691 -0.397586 4,975 89 234 3264
2020-04-01 13:33:32 GMT 51.783684 -0.402832 4,875 90 235 3008
2020-04-01 13:33:29 GMT 51.783779 -0.408173 4,700 94 236 2240
2020-04-01 13:33:26 GMT 51.784058 -0.413666 4,600 100 238 1664
2020-04-01 13:33:23 GMT 51.784710 -0.418701 4,525 105 239 1536
2020-04-01 13:33:20 GMT 51.785500 -0.422974 4,475 109 238 1536
2020-04-01 13:33:17 GMT 51.786667 -0.427576 4,375 119 240 1408
2020-04-01 13:33:14 GMT 51.788342 -0.432510 4,300 125 240 1600
2020-04-01 13:33:11 GMT 51.790649 -0.437746 4,225 131 239 1600
2020-04-01 13:33:08 GMT 51.792389 -0.441055 4,175 133 239 1536
2020-04-01 13:33:05 GMT 51.795185 -0.445175 4,075 141 239 1600
2020-04-01 13:33:02 GMT 51.797325 -0.447769 4,025 145 238 1664
2020-04-01 13:32:59 GMT 51.800674 -0.451033 3,900 154 237 1728
2020-04-01 13:32:55 GMT 51.804356 -0.453568 3,750 165 238 1664
2020-04-01 13:32:52 GMT 51.807194 -0.454865 3,675 170 238 1728
2020-04-01 13:32:49 GMT 51.810638 -0.455780 3,500 174 239 1664
2020-04-01 13:32:46 GMT 51.813629 -0.456007 3,550 185 237 1728
2020-04-01 13:32:43 GMT 51.817520 -0.455487 3,375 193 237 1856
2020-04-01 13:32:40 GMT 51.821228 -0.454077 3,350 197 236 2048
2020-04-01 13:32:37 GMT 51.824432 -0.452295 3,275 202 234 2368
2020-04-01 13:32:33 GMT 51.828552 -0.449252 3,000 209 231 3072
2020-04-01 13:32:30 GMT 51.830429 -0.447619 2,700 211 225 2496
2020-04-01 13:32:27 GMT 51.833221 -0.445021 2,700 211 216 1408
2020-04-01 13:32:24 GMT 51.836384 -0.442047 2,625 211 220 1856
2020-04-01 13:32:21 GMT 51.838486 -0.440047 2,550 211 218 1536
2020-04-01 13:32:18 GMT 51.840664 -0.438004 2,450 211 208 768
2020-04-01 13:32:15 GMT 51.846157 -0.432739 2,350 212 200 1600
2020-04-01 13:32:12 GMT 51.846157 -0.432739 2,350 212 196 1472
2020-04-01 13:32:09 GMT 51.847824 -0.431065 2,200 213 193 1472
2020-04-01 13:32:06 GMT 51.851231 -0.427628 2,225 214 191 1408
2020-04-01 13:32:02 GMT 51.854141 -0.424458 2,125 217 185 1472
2020-04-01 13:31:58 GMT 51.856110 -0.422083 2,050 220 180 1792
2020-04-01 13:31:55 GMT 51.857666 -0.420004 2,000 222 177 1536
2020-04-01 13:31:51 GMT 51.862080 -0.413513 1,800 225 166 1344
2020-04-01 13:31:48 GMT 51.864033 -0.410461 1,750 225 164 1216
2020-04-01 13:31:45 GMT 51.864033 -0.410461 1,725 227 161 1344
2020-04-01 13:31:42 GMT 51.865814 -0.407311 1,675 229 158 1664
2020-04-01 13:31:39 GMT 51.867142 -0.404638 1,525 237 153 2624
2020-04-01 13:31:35 GMT 51.868423 -0.401298 1,325 247 150 3072
2020-04-01 13:31:32 GMT 51.869339 -0.397883 1,200 251 149 3200
2020-04-01 13:31:29 GMT 51.869854 -0.395355 1,075 253 149 3072
2020-04-01 13:31:26 GMT 51.871124 -0.388530 825 254 148 2688
2020-04-01 13:31:23 GMT 51.871124 -0.388530 725 254 147 2752
2020-04-01 13:31:19 GMT 51.871857 -0.384596 550 255 149 2688
2020-04-01 13:31:09 GMT 51.873734 -0.373758 300 255 138 192
2020-04-01 13:31:01 GMT 51.874832 -0.367225 325 255 99 64
2020-04-01 13:30:51 GMT 51.875847 -0.361500 0 255 51
2020-04-01 13:30:41 GMT 51.876205 -0.359394 0 255 3
2020-04-01 13:30:31 GMT 51.876209 -0.359344 0 255 0
2020-04-01 13:30:21 GMT 51.876198 -0.359211 0 236 5
2020-04-01 13:30:10 GMT 51.876335 -0.358925 0 163 9
2020-04-01 13:30:01 GMT 51.876907 -0.359230 0 163 15
2020-04-01 13:29:51 GMT 51.877522 -0.359542 0 143 17
2020-04-01 13:29:40 GMT 51.877853 -0.360637 0 78 18
2020-04-01 13:29:31 GMT 51.877625 -0.362066 0 73 23
2020-04-01 13:29:28 GMT 51.877544 -0.362511 0 73 23
2020-04-01 13:29:21 GMT 51.877350 -0.363625 0 73 23
2020-04-01 13:29:08 GMT 51.876999 -0.365620 0 73 21
2020-04-01 13:29:00 GMT 51.876801 -0.366802 0 75 18
2020-04-01 13:28:49 GMT 51.876591 -0.368004 0 73 14
2020-04-01 13:28:39 GMT 51.876469 -0.368840 0 104 11
2020-04-01 13:28:30 GMT 51.876732 -0.369434 0 160 12
2020-04-01 13:28:20 GMT 51.877293 -0.369749 0 160 13
2020-04-01 13:28:10 GMT 51.877831 -0.370028 0 160 11

Making use of Plane Finder data

You are free to use the raw flight data, aircraft information and images provided in this report for your own purposes provided the data is correctly attributed to Plane Finder. We ask that you please credit Plane Finder and link to planefinder.net in close proximity to the content.

Optionally one of the following logos (no smaller then 150x24px) can be used and must link to planefinder.net

Embedding the Plane Finder map

You are welcome to embed the Plane Finder playback map on your website to offer visitors a more interactive experience. We suggest using the following HTML code:

<iframe src="//planefinder.net/data/report/W64306-HA-LYR-7700-squawk-2020-04-01/map" width="800" height="600" seamless="seamless"></iframe>

Where our data comes from

Plane Finder has a global network of data feeds and antenna radars that receive data broadcast directly from aircraft. The primary technologies used are ADS-B and MLAT. We also show feeds from the FAA and a FLARM glider feed.

Click here to find out more about the Plane Finder network.

How we collect our data